<?xml version="1.0" encoding="UTF-8" standalone="no" ?>
<gpx xmlns="http://www.topografix.com/GPX/1/1" xmlns:xsi="http://www.w3.org/2001/XMLSchema-instance" xsi:schemaLocation="http://www.topografix.com/GPX/1/1 http://www.topografix.com/GPX/1/1/gpx.xsd" version="1.1" creator="VisuGPX - https://www.visugpx.com">
  <metadata>
    <name>Environs Pouilly - Bussières</name>
  </metadata>
  <trk>
    <name><![CDATA[Environs Pouilly - Bussières_1]]></name>
    <trkseg>
      <trkpt lat="45.82449" lon="4.24696">
        <ele>517.5</ele>
        <time>2019-10-14T12:13:08Z</time>
      </trkpt>
      <trkpt lat="45.82445" lon="4.24699">
        <ele>520.1</ele>
        <time>2019-10-14T12:15:08Z</time>
      </trkpt>
      <trkpt lat="45.82443" lon="4.24705">
        <ele>520.7</ele>
        <time>2019-10-14T12:17:29Z</time>
      </trkpt>
      <trkpt lat="45.8244" lon="4.247">
        <ele>520.9</ele>
        <time>2019-10-14T12:19:59Z</time>
      </trkpt>
      <trkpt lat="45.82442" lon="4.24694">
        <ele>520.9</ele>
        <time>2019-10-14T12:20:07Z</time>
      </trkpt>
      <trkpt lat="45.82446" lon="4.2469">
        <ele>520.9</ele>
        <time>2019-10-14T12:20:12Z</time>
      </trkpt>
      <trkpt lat="45.8245" lon="4.24686">
        <ele>520.9</ele>
        <time>2019-10-14T12:20:16Z</time>
      </trkpt>
      <trkpt lat="45.82455" lon="4.24682">
        <ele>520.9</ele>
        <time>2019-10-14T12:20:21Z</time>
      </trkpt>
      <trkpt lat="45.82459" lon="4.2468">
        <ele>520.9</ele>
        <time>2019-10-14T12:20:26Z</time>
      </trkpt>
      <trkpt lat="45.82464" lon="4.24677">
        <ele>520.9</ele>
        <time>2019-10-14T12:20:31Z</time>
      </trkpt>
      <trkpt lat="45.82468" lon="4.24675">
        <ele>520.9</ele>
        <time>2019-10-14T12:20:37Z</time>
      </trkpt>
      <trkpt lat="45.82472" lon="4.24672">
        <ele>520.9</ele>
        <time>2019-10-14T12:20:42Z</time>
      </trkpt>
      <trkpt lat="45.82476" lon="4.24667">
        <ele>521</ele>
        <time>2019-10-14T12:20:47Z</time>
      </trkpt>
      <trkpt lat="45.82481" lon="4.24663">
        <ele>521</ele>
        <time>2019-10-14T12:20:52Z</time>
      </trkpt>
      <trkpt lat="45.82484" lon="4.24658">
        <ele>521</ele>
        <time>2019-10-14T12:20:56Z</time>
      </trkpt>
      <trkpt lat="45.82488" lon="4.24653">
        <ele>521</ele>
        <time>2019-10-14T12:21:01Z</time>
      </trkpt>
      <trkpt lat="45.82492" lon="4.24649">
        <ele>521</ele>
        <time>2019-10-14T12:21:06Z</time>
      </trkpt>
      <trkpt lat="45.82496" lon="4.24645">
        <ele>521.1</ele>
        <time>2019-10-14T12:21:13Z</time>
      </trkpt>
      <trkpt lat="45.825" lon="4.2464">
        <ele>521.1</ele>
        <time>2019-10-14T12:21:17Z</time>
      </trkpt>
      <trkpt lat="45.82504" lon="4.24635">
        <ele>521.1</ele>
        <time>2019-10-14T12:21:23Z</time>
      </trkpt>
      <trkpt lat="45.82507" lon="4.24629">
        <ele>521.1</ele>
        <time>2019-10-14T12:21:31Z</time>
      </trkpt>
      <trkpt lat="45.82511" lon="4.24623">
        <ele>521.1</ele>
        <time>2019-10-14T12:21:36Z</time>
      </trkpt>
      <trkpt lat="45.82513" lon="4.24616">
        <ele>521.1</ele>
        <time>2019-10-14T12:21:40Z</time>
      </trkpt>
      <trkpt lat="45.82515" lon="4.2461">
        <ele>521.2</ele>
        <time>2019-10-14T12:21:44Z</time>
      </trkpt>
      <trkpt lat="45.82517" lon="4.24604">
        <ele>521.2</ele>
        <time>2019-10-14T12:21:50Z</time>
      </trkpt>
      <trkpt lat="45.82519" lon="4.24597">
        <ele>521.2</ele>
        <time>2019-10-14T12:21:55Z</time>
      </trkpt>
      <trkpt lat="45.82519" lon="4.2459">
        <ele>521.2</ele>
        <time>2019-10-14T12:22:00Z</time>
      </trkpt>
      <trkpt lat="45.82519" lon="4.24583">
        <ele>521.2</ele>
        <time>2019-10-14T12:22:05Z</time>
      </trkpt>
      <trkpt lat="45.82519" lon="4.24576">
        <ele>521.2</ele>
        <time>2019-10-14T12:22:11Z</time>
      </trkpt>
      <trkpt lat="45.82519" lon="4.24568">
        <ele>521.2</ele>
        <time>2019-10-14T12:22:17Z</time>
      </trkpt>
      <trkpt lat="45.8252" lon="4.24562">
        <ele>521.2</ele>
        <time>2019-10-14T12:22:21Z</time>
      </trkpt>
      <trkpt lat="45.82518" lon="4.24555">
        <ele>521.2</ele>
        <time>2019-10-14T12:22:25Z</time>
      </trkpt>
      <trkpt lat="45.82516" lon="4.24548">
        <ele>521.2</ele>
        <time>2019-10-14T12:22:29Z</time>
      </trkpt>
      <trkpt lat="45.82515" lon="4.24541">
        <ele>521.2</ele>
        <time>2019-10-14T12:22:33Z</time>
      </trkpt>
      <trkpt lat="45.82513" lon="4.24534">
        <ele>521.2</ele>
        <time>2019-10-14T12:22:37Z</time>
      </trkpt>
      <trkpt lat="45.82512" lon="4.24526">
        <ele>521.2</ele>
        <time>2019-10-14T12:22:42Z</time>
      </trkpt>
      <trkpt lat="45.82511" lon="4.2452">
        <ele>521.2</ele>
        <time>2019-10-14T12:22:46Z</time>
      </trkpt>
      <trkpt lat="45.82511" lon="4.24513">
        <ele>521.2</ele>
        <time>2019-10-14T12:22:50Z</time>
      </trkpt>
      <trkpt lat="45.8251" lon="4.24507">
        <ele>521.2</ele>
        <time>2019-10-14T12:22:54Z</time>
      </trkpt>
      <trkpt lat="45.8251" lon="4.245">
        <ele>521.2</ele>
        <time>2019-10-14T12:22:58Z</time>
      </trkpt>
      <trkpt lat="45.82509" lon="4.24493">
        <ele>521.2</ele>
        <time>2019-10-14T12:23:02Z</time>
      </trkpt>
      <trkpt lat="45.82509" lon="4.24487">
        <ele>521.2</ele>
        <time>2019-10-14T12:23:06Z</time>
      </trkpt>
      <trkpt lat="45.82509" lon="4.24479">
        <ele>521.3</ele>
        <time>2019-10-14T12:23:11Z</time>
      </trkpt>
      <trkpt lat="45.8251" lon="4.24472">
        <ele>521.3</ele>
        <time>2019-10-14T12:23:15Z</time>
      </trkpt>
      <trkpt lat="45.8251" lon="4.24464">
        <ele>521.3</ele>
        <time>2019-10-14T12:23:20Z</time>
      </trkpt>
      <trkpt lat="45.8251" lon="4.24457">
        <ele>521.3</ele>
        <time>2019-10-14T12:23:24Z</time>
      </trkpt>
      <trkpt lat="45.82511" lon="4.24449">
        <ele>521.3</ele>
        <time>2019-10-14T12:23:28Z</time>
      </trkpt>
      <trkpt lat="45.82511" lon="4.24441">
        <ele>521.3</ele>
        <time>2019-10-14T12:23:32Z</time>
      </trkpt>
      <trkpt lat="45.82511" lon="4.24434">
        <ele>521.3</ele>
        <time>2019-10-14T12:23:37Z</time>
      </trkpt>
      <trkpt lat="45.82511" lon="4.24427">
        <ele>521.3</ele>
        <time>2019-10-14T12:23:43Z</time>
      </trkpt>
      <trkpt lat="45.82511" lon="4.2442">
        <ele>521.3</ele>
        <time>2019-10-14T12:23:48Z</time>
      </trkpt>
      <trkpt lat="45.82512" lon="4.24414">
        <ele>521.3</ele>
        <time>2019-10-14T12:23:54Z</time>
      </trkpt>
      <trkpt lat="45.82513" lon="4.24407">
        <ele>521.3</ele>
        <time>2019-10-14T12:23:58Z</time>
      </trkpt>
      <trkpt lat="45.82514" lon="4.244">
        <ele>521.3</ele>
        <time>2019-10-14T12:24:02Z</time>
      </trkpt>
      <trkpt lat="45.82515" lon="4.24392">
        <ele>521.4</ele>
        <time>2019-10-14T12:24:07Z</time>
      </trkpt>
      <trkpt lat="45.82515" lon="4.24384">
        <ele>521.4</ele>
        <time>2019-10-14T12:24:12Z</time>
      </trkpt>
      <trkpt lat="45.82515" lon="4.24376">
        <ele>521.4</ele>
        <time>2019-10-14T12:24:17Z</time>
      </trkpt>
      <trkpt lat="45.82514" lon="4.24369">
        <ele>521.4</ele>
        <time>2019-10-14T12:24:23Z</time>
      </trkpt>
      <trkpt lat="45.82516" lon="4.24361">
        <ele>521.4</ele>
        <time>2019-10-14T12:24:27Z</time>
      </trkpt>
      <trkpt lat="45.82516" lon="4.24354">
        <ele>521.4</ele>
        <time>2019-10-14T12:24:30Z</time>
      </trkpt>
      <trkpt lat="45.82515" lon="4.24347">
        <ele>521.5</ele>
        <time>2019-10-14T12:24:34Z</time>
      </trkpt>
      <trkpt lat="45.82511" lon="4.24343">
        <ele>521.5</ele>
        <time>2019-10-14T12:24:40Z</time>
      </trkpt>
      <trkpt lat="45.82506" lon="4.24343">
        <ele>521.5</ele>
        <time>2019-10-14T12:24:45Z</time>
      </trkpt>
      <trkpt lat="45.825" lon="4.24344">
        <ele>521.5</ele>
        <time>2019-10-14T12:24:50Z</time>
      </trkpt>
      <trkpt lat="45.82496" lon="4.24344">
        <ele>521.6</ele>
        <time>2019-10-14T12:24:55Z</time>
      </trkpt>
      <trkpt lat="45.82491" lon="4.24342">
        <ele>521.6</ele>
        <time>2019-10-14T12:25:00Z</time>
      </trkpt>
      <trkpt lat="45.82486" lon="4.2434">
        <ele>521.6</ele>
        <time>2019-10-14T12:25:04Z</time>
      </trkpt>
      <trkpt lat="45.82482" lon="4.24339">
        <ele>521.7</ele>
        <time>2019-10-14T12:25:08Z</time>
      </trkpt>
      <trkpt lat="45.82477" lon="4.24337">
        <ele>521.7</ele>
        <time>2019-10-14T12:25:12Z</time>
      </trkpt>
      <trkpt lat="45.82472" lon="4.24334">
        <ele>521.7</ele>
        <time>2019-10-14T12:25:17Z</time>
      </trkpt>
      <trkpt lat="45.82467" lon="4.24332">
        <ele>521.8</ele>
        <time>2019-10-14T12:25:22Z</time>
      </trkpt>
      <trkpt lat="45.82461" lon="4.2433">
        <ele>521.8</ele>
        <time>2019-10-14T12:25:26Z</time>
      </trkpt>
      <trkpt lat="45.82456" lon="4.24327">
        <ele>521.8</ele>
        <time>2019-10-14T12:25:30Z</time>
      </trkpt>
      <trkpt lat="45.82452" lon="4.24325">
        <ele>521.9</ele>
        <time>2019-10-14T12:25:35Z</time>
      </trkpt>
      <trkpt lat="45.82447" lon="4.24321">
        <ele>521.9</ele>
        <time>2019-10-14T12:25:40Z</time>
      </trkpt>
      <trkpt lat="45.82443" lon="4.24317">
        <ele>521.9</ele>
        <time>2019-10-14T12:25:44Z</time>
      </trkpt>
      <trkpt lat="45.82439" lon="4.24315">
        <ele>522</ele>
        <time>2019-10-14T12:25:48Z</time>
      </trkpt>
      <trkpt lat="45.82435" lon="4.24312">
        <ele>522</ele>
        <time>2019-10-14T12:25:52Z</time>
      </trkpt>
      <trkpt lat="45.82431" lon="4.24308">
        <ele>522</ele>
        <time>2019-10-14T12:25:56Z</time>
      </trkpt>
      <trkpt lat="45.82427" lon="4.24304">
        <ele>522.1</ele>
        <time>2019-10-14T12:26:00Z</time>
      </trkpt>
      <trkpt lat="45.82423" lon="4.243">
        <ele>522.1</ele>
        <time>2019-10-14T12:26:04Z</time>
      </trkpt>
      <trkpt lat="45.82418" lon="4.24295">
        <ele>522.2</ele>
        <time>2019-10-14T12:26:09Z</time>
      </trkpt>
      <trkpt lat="45.82415" lon="4.2429">
        <ele>522.2</ele>
        <time>2019-10-14T12:26:13Z</time>
      </trkpt>
      <trkpt lat="45.82411" lon="4.24287">
        <ele>522.3</ele>
        <time>2019-10-14T12:26:17Z</time>
      </trkpt>
      <trkpt lat="45.82407" lon="4.24283">
        <ele>522.3</ele>
        <time>2019-10-14T12:26:22Z</time>
      </trkpt>
      <trkpt lat="45.82403" lon="4.24278">
        <ele>522.4</ele>
        <time>2019-10-14T12:26:26Z</time>
      </trkpt>
      <trkpt lat="45.82399" lon="4.24274">
        <ele>522.4</ele>
        <time>2019-10-14T12:26:30Z</time>
      </trkpt>
      <trkpt lat="45.82395" lon="4.2427">
        <ele>522.5</ele>
        <time>2019-10-14T12:26:35Z</time>
      </trkpt>
      <trkpt lat="45.82392" lon="4.24266">
        <ele>522.5</ele>
        <time>2019-10-14T12:26:40Z</time>
      </trkpt>
      <trkpt lat="45.82387" lon="4.24262">
        <ele>522.6</ele>
        <time>2019-10-14T12:26:45Z</time>
      </trkpt>
      <trkpt lat="45.82383" lon="4.24258">
        <ele>522.6</ele>
        <time>2019-10-14T12:26:50Z</time>
      </trkpt>
      <trkpt lat="45.82379" lon="4.24255">
        <ele>522.7</ele>
        <time>2019-10-14T12:26:54Z</time>
      </trkpt>
      <trkpt lat="45.82375" lon="4.24251">
        <ele>522.7</ele>
        <time>2019-10-14T12:26:58Z</time>
      </trkpt>
      <trkpt lat="45.82371" lon="4.24246">
        <ele>522.7</ele>
        <time>2019-10-14T12:27:02Z</time>
      </trkpt>
      <trkpt lat="45.82367" lon="4.24242">
        <ele>522.8</ele>
        <time>2019-10-14T12:27:06Z</time>
      </trkpt>
      <trkpt lat="45.82364" lon="4.24237">
        <ele>522.8</ele>
        <time>2019-10-14T12:27:10Z</time>
      </trkpt>
      <trkpt lat="45.82361" lon="4.2423">
        <ele>522.9</ele>
        <time>2019-10-14T12:27:15Z</time>
      </trkpt>
      <trkpt lat="45.82358" lon="4.24225">
        <ele>522.9</ele>
        <time>2019-10-14T12:27:19Z</time>
      </trkpt>
      <trkpt lat="45.82355" lon="4.2422">
        <ele>523</ele>
        <time>2019-10-14T12:27:23Z</time>
      </trkpt>
      <trkpt lat="45.82351" lon="4.24214">
        <ele>523</ele>
        <time>2019-10-14T12:27:28Z</time>
      </trkpt>
      <trkpt lat="45.82347" lon="4.24208">
        <ele>523.1</ele>
        <time>2019-10-14T12:27:33Z</time>
      </trkpt>
      <trkpt lat="45.82344" lon="4.24203">
        <ele>523.1</ele>
        <time>2019-10-14T12:27:38Z</time>
      </trkpt>
      <trkpt lat="45.82341" lon="4.24197">
        <ele>523.2</ele>
        <time>2019-10-14T12:27:43Z</time>
      </trkpt>
      <trkpt lat="45.82338" lon="4.24191">
        <ele>523.2</ele>
        <time>2019-10-14T12:27:47Z</time>
      </trkpt>
      <trkpt lat="45.82335" lon="4.24184">
        <ele>523.3</ele>
        <time>2019-10-14T12:27:51Z</time>
      </trkpt>
      <trkpt lat="45.82332" lon="4.24178">
        <ele>523.3</ele>
        <time>2019-10-14T12:27:55Z</time>
      </trkpt>
      <trkpt lat="45.82328" lon="4.24172">
        <ele>523.3</ele>
        <time>2019-10-14T12:27:59Z</time>
      </trkpt>
      <trkpt lat="45.82325" lon="4.24166">
        <ele>523.4</ele>
        <time>2019-10-14T12:28:03Z</time>
      </trkpt>
      <trkpt lat="45.82322" lon="4.2416">
        <ele>523.4</ele>
        <time>2019-10-14T12:28:08Z</time>
      </trkpt>
      <trkpt lat="45.82319" lon="4.24154">
        <ele>523.4</ele>
        <time>2019-10-14T12:28:12Z</time>
      </trkpt>
      <trkpt lat="45.82316" lon="4.24148">
        <ele>523.5</ele>
        <time>2019-10-14T12:28:17Z</time>
      </trkpt>
      <trkpt lat="45.82313" lon="4.24143">
        <ele>523.5</ele>
        <time>2019-10-14T12:28:21Z</time>
      </trkpt>
      <trkpt lat="45.8231" lon="4.24138">
        <ele>523.5</ele>
        <time>2019-10-14T12:28:25Z</time>
      </trkpt>
      <trkpt lat="45.82307" lon="4.24132">
        <ele>523.6</ele>
        <time>2019-10-14T12:28:30Z</time>
      </trkpt>
      <trkpt lat="45.82302" lon="4.24128">
        <ele>523.6</ele>
        <time>2019-10-14T12:28:35Z</time>
      </trkpt>
      <trkpt lat="45.82299" lon="4.24122">
        <ele>523.6</ele>
        <time>2019-10-14T12:28:39Z</time>
      </trkpt>
      <trkpt lat="45.82295" lon="4.24115">
        <ele>523.7</ele>
        <time>2019-10-14T12:28:43Z</time>
      </trkpt>
      <trkpt lat="45.82292" lon="4.24109">
        <ele>523.7</ele>
        <time>2019-10-14T12:28:47Z</time>
      </trkpt>
      <trkpt lat="45.82289" lon="4.24103">
        <ele>523.7</ele>
        <time>2019-10-14T12:28:52Z</time>
      </trkpt>
      <trkpt lat="45.82286" lon="4.24098">
        <ele>523.7</ele>
        <time>2019-10-14T12:28:56Z</time>
      </trkpt>
      <trkpt lat="45.82283" lon="4.24092">
        <ele>523.8</ele>
        <time>2019-10-14T12:29:01Z</time>
      </trkpt>
      <trkpt lat="45.8228" lon="4.24085">
        <ele>523.8</ele>
        <time>2019-10-14T12:29:06Z</time>
      </trkpt>
      <trkpt lat="45.82277" lon="4.24077">
        <ele>523.8</ele>
        <time>2019-10-14T12:29:10Z</time>
      </trkpt>
      <trkpt lat="45.82275" lon="4.24071">
        <ele>523.8</ele>
        <time>2019-10-14T12:29:14Z</time>
      </trkpt>
      <trkpt lat="45.82272" lon="4.24064">
        <ele>523.9</ele>
        <time>2019-10-14T12:29:19Z</time>
      </trkpt>
      <trkpt lat="45.82268" lon="4.24058">
        <ele>523.9</ele>
        <time>2019-10-14T12:29:24Z</time>
      </trkpt>
      <trkpt lat="45.82265" lon="4.24052">
        <ele>523.9</ele>
        <time>2019-10-14T12:29:28Z</time>
      </trkpt>
      <trkpt lat="45.82263" lon="4.24045">
        <ele>523.9</ele>
        <time>2019-10-14T12:29:32Z</time>
      </trkpt>
      <trkpt lat="45.8226" lon="4.24039">
        <ele>524</ele>
        <time>2019-10-14T12:29:36Z</time>
      </trkpt>
      <trkpt lat="45.82257" lon="4.24033">
        <ele>524</ele>
        <time>2019-10-14T12:29:40Z</time>
      </trkpt>
      <trkpt lat="45.82255" lon="4.24027">
        <ele>524</ele>
        <time>2019-10-14T12:29:44Z</time>
      </trkpt>
      <trkpt lat="45.82253" lon="4.2402">
        <ele>524</ele>
        <time>2019-10-14T12:29:48Z</time>
      </trkpt>
      <trkpt lat="45.82251" lon="4.24013">
        <ele>524</ele>
        <time>2019-10-14T12:29:52Z</time>
      </trkpt>
      <trkpt lat="45.82248" lon="4.24007">
        <ele>524</ele>
        <time>2019-10-14T12:29:56Z</time>
      </trkpt>
      <trkpt lat="45.82246" lon="4.24001">
        <ele>524.1</ele>
        <time>2019-10-14T12:30:01Z</time>
      </trkpt>
      <trkpt lat="45.82243" lon="4.23994">
        <ele>524.1</ele>
        <time>2019-10-14T12:30:06Z</time>
      </trkpt>
      <trkpt lat="45.82241" lon="4.23988">
        <ele>524.1</ele>
        <time>2019-10-14T12:30:10Z</time>
      </trkpt>
      <trkpt lat="45.8224" lon="4.23981">
        <ele>524.1</ele>
        <time>2019-10-14T12:30:14Z</time>
      </trkpt>
      <trkpt lat="45.82238" lon="4.23975">
        <ele>524.1</ele>
        <time>2019-10-14T12:30:19Z</time>
      </trkpt>
      <trkpt lat="45.82235" lon="4.23969">
        <ele>524.1</ele>
        <time>2019-10-14T12:30:24Z</time>
      </trkpt>
      <trkpt lat="45.82231" lon="4.23964">
        <ele>524.1</ele>
        <time>2019-10-14T12:30:29Z</time>
      </trkpt>
      <trkpt lat="45.82227" lon="4.23961">
        <ele>524.1</ele>
        <time>2019-10-14T12:30:33Z</time>
      </trkpt>
      <trkpt lat="45.82222" lon="4.2396">
        <ele>524.2</ele>
        <time>2019-10-14T12:30:37Z</time>
      </trkpt>
      <trkpt lat="45.82217" lon="4.23959">
        <ele>524.2</ele>
        <time>2019-10-14T12:30:42Z</time>
      </trkpt>
      <trkpt lat="45.82212" lon="4.2396">
        <ele>524.2</ele>
        <time>2019-10-14T12:30:47Z</time>
      </trkpt>
      <trkpt lat="45.82207" lon="4.23962">
        <ele>524.2</ele>
        <time>2019-10-14T12:30:51Z</time>
      </trkpt>
      <trkpt lat="45.82202" lon="4.23964">
        <ele>524.1</ele>
        <time>2019-10-14T12:30:55Z</time>
      </trkpt>
      <trkpt lat="45.82197" lon="4.23964">
        <ele>524.1</ele>
        <time>2019-10-14T12:31:00Z</time>
      </trkpt>
      <trkpt lat="45.82192" lon="4.23964">
        <ele>524.1</ele>
        <time>2019-10-14T12:31:07Z</time>
      </trkpt>
      <trkpt lat="45.82187" lon="4.23965">
        <ele>524.1</ele>
        <time>2019-10-14T12:31:14Z</time>
      </trkpt>
      <trkpt lat="45.82182" lon="4.23966">
        <ele>524.1</ele>
        <time>2019-10-14T12:31:19Z</time>
      </trkpt>
      <trkpt lat="45.82177" lon="4.23968">
        <ele>524</ele>
        <time>2019-10-14T12:31:24Z</time>
      </trkpt>
      <trkpt lat="45.82172" lon="4.23971">
        <ele>524</ele>
        <time>2019-10-14T12:31:29Z</time>
      </trkpt>
      <trkpt lat="45.82168" lon="4.23976">
        <ele>524</ele>
        <time>2019-10-14T12:31:34Z</time>
      </trkpt>
      <trkpt lat="45.82165" lon="4.23982">
        <ele>524</ele>
        <time>2019-10-14T12:31:38Z</time>
      </trkpt>
      <trkpt lat="45.82163" lon="4.23987">
        <ele>524</ele>
        <time>2019-10-14T12:31:42Z</time>
      </trkpt>
      <trkpt lat="45.82159" lon="4.23992">
        <ele>523.9</ele>
        <time>2019-10-14T12:31:46Z</time>
      </trkpt>
      <trkpt lat="45.82155" lon="4.23995">
        <ele>523.9</ele>
        <time>2019-10-14T12:31:50Z</time>
      </trkpt>
      <trkpt lat="45.8215" lon="4.23998">
        <ele>523.9</ele>
        <time>2019-10-14T12:31:55Z</time>
      </trkpt>
      <trkpt lat="45.82146" lon="4.24002">
        <ele>523.8</ele>
        <time>2019-10-14T12:31:59Z</time>
      </trkpt>
      <trkpt lat="45.82142" lon="4.24008">
        <ele>523.8</ele>
        <time>2019-10-14T12:32:03Z</time>
      </trkpt>
      <trkpt lat="45.82138" lon="4.24013">
        <ele>523.8</ele>
        <time>2019-10-14T12:32:09Z</time>
      </trkpt>
      <trkpt lat="45.82134" lon="4.24015">
        <ele>523.7</ele>
        <time>2019-10-14T12:32:19Z</time>
      </trkpt>
      <trkpt lat="45.82129" lon="4.24019">
        <ele>523.7</ele>
        <time>2019-10-14T12:32:25Z</time>
      </trkpt>
      <trkpt lat="45.82126" lon="4.24023">
        <ele>523.6</ele>
        <time>2019-10-14T12:32:30Z</time>
      </trkpt>
      <trkpt lat="45.82121" lon="4.24026">
        <ele>523.6</ele>
        <time>2019-10-14T12:32:35Z</time>
      </trkpt>
      <trkpt lat="45.82117" lon="4.24029">
        <ele>523.6</ele>
        <time>2019-10-14T12:32:39Z</time>
      </trkpt>
      <trkpt lat="45.82112" lon="4.24032">
        <ele>523.6</ele>
        <time>2019-10-14T12:32:43Z</time>
      </trkpt>
      <trkpt lat="45.82108" lon="4.24037">
        <ele>523.5</ele>
        <time>2019-10-14T12:32:48Z</time>
      </trkpt>
      <trkpt lat="45.82104" lon="4.2404">
        <ele>523.5</ele>
        <time>2019-10-14T12:32:52Z</time>
      </trkpt>
      <trkpt lat="45.821" lon="4.24044">
        <ele>523.5</ele>
        <time>2019-10-14T12:32:56Z</time>
      </trkpt>
      <trkpt lat="45.82095" lon="4.24048">
        <ele>523.5</ele>
        <time>2019-10-14T12:33:00Z</time>
      </trkpt>
      <trkpt lat="45.8209" lon="4.24052">
        <ele>523.4</ele>
        <time>2019-10-14T12:33:04Z</time>
      </trkpt>
      <trkpt lat="45.82086" lon="4.24054">
        <ele>523.4</ele>
        <time>2019-10-14T12:33:08Z</time>
      </trkpt>
      <trkpt lat="45.82081" lon="4.24056">
        <ele>523.4</ele>
        <time>2019-10-14T12:33:13Z</time>
      </trkpt>
      <trkpt lat="45.82077" lon="4.2406">
        <ele>523.3</ele>
        <time>2019-10-14T12:33:17Z</time>
      </trkpt>
      <trkpt lat="45.82073" lon="4.24064">
        <ele>523.3</ele>
        <time>2019-10-14T12:33:21Z</time>
      </trkpt>
      <trkpt lat="45.82068" lon="4.24068">
        <ele>523.3</ele>
        <time>2019-10-14T12:33:25Z</time>
      </trkpt>
      <trkpt lat="45.82064" lon="4.2407">
        <ele>523.3</ele>
        <time>2019-10-14T12:33:29Z</time>
      </trkpt>
      <trkpt lat="45.82059" lon="4.24071">
        <ele>523.2</ele>
        <time>2019-10-14T12:33:33Z</time>
      </trkpt>
      <trkpt lat="45.82054" lon="4.2407">
        <ele>523.2</ele>
        <time>2019-10-14T12:33:38Z</time>
      </trkpt>
      <trkpt lat="45.8205" lon="4.24064">
        <ele>523.2</ele>
        <time>2019-10-14T12:33:42Z</time>
      </trkpt>
      <trkpt lat="45.82047" lon="4.24057">
        <ele>523.2</ele>
        <time>2019-10-14T12:33:46Z</time>
      </trkpt>
      <trkpt lat="45.82046" lon="4.24051">
        <ele>523.1</ele>
        <time>2019-10-14T12:33:50Z</time>
      </trkpt>
      <trkpt lat="45.82043" lon="4.24045">
        <ele>523.1</ele>
        <time>2019-10-14T12:33:54Z</time>
      </trkpt>
      <trkpt lat="45.82041" lon="4.24039">
        <ele>523.1</ele>
        <time>2019-10-14T12:33:58Z</time>
      </trkpt>
      <trkpt lat="45.8204" lon="4.24033">
        <ele>523</ele>
        <time>2019-10-14T12:34:02Z</time>
      </trkpt>
      <trkpt lat="45.82038" lon="4.24026">
        <ele>523</ele>
        <time>2019-10-14T12:34:06Z</time>
      </trkpt>
      <trkpt lat="45.82036" lon="4.2402">
        <ele>523</ele>
        <time>2019-10-14T12:34:10Z</time>
      </trkpt>
      <trkpt lat="45.82033" lon="4.24014">
        <ele>522.9</ele>
        <time>2019-10-14T12:34:15Z</time>
      </trkpt>
      <trkpt lat="45.8203" lon="4.24007">
        <ele>522.9</ele>
        <time>2019-10-14T12:34:20Z</time>
      </trkpt>
      <trkpt lat="45.82028" lon="4.24001">
        <ele>522.8</ele>
        <time>2019-10-14T12:34:24Z</time>
      </trkpt>
      <trkpt lat="45.82025" lon="4.23994">
        <ele>522.8</ele>
        <time>2019-10-14T12:34:28Z</time>
      </trkpt>
      <trkpt lat="45.82023" lon="4.23988">
        <ele>522.8</ele>
        <time>2019-10-14T12:34:32Z</time>
      </trkpt>
      <trkpt lat="45.82021" lon="4.23982">
        <ele>522.7</ele>
        <time>2019-10-14T12:34:36Z</time>
      </trkpt>
      <trkpt lat="45.82019" lon="4.23975">
        <ele>522.7</ele>
        <time>2019-10-14T12:34:40Z</time>
      </trkpt>
      <trkpt lat="45.82017" lon="4.23968">
        <ele>522.7</ele>
        <time>2019-10-14T12:34:45Z</time>
      </trkpt>
      <trkpt lat="45.82014" lon="4.23962">
        <ele>522.6</ele>
        <time>2019-10-14T12:34:49Z</time>
      </trkpt>
      <trkpt lat="45.82013" lon="4.23955">
        <ele>522.6</ele>
        <time>2019-10-14T12:34:53Z</time>
      </trkpt>
      <trkpt lat="45.82011" lon="4.23947">
        <ele>522.6</ele>
        <time>2019-10-14T12:34:57Z</time>
      </trkpt>
      <trkpt lat="45.82008" lon="4.23942">
        <ele>522.6</ele>
        <time>2019-10-14T12:35:01Z</time>
      </trkpt>
      <trkpt lat="45.82004" lon="4.23936">
        <ele>522.5</ele>
        <time>2019-10-14T12:35:07Z</time>
      </trkpt>
      <trkpt lat="45.82002" lon="4.2393">
        <ele>522.5</ele>
        <time>2019-10-14T12:35:12Z</time>
      </trkpt>
      <trkpt lat="45.82" lon="4.23923">
        <ele>522.4</ele>
        <time>2019-10-14T12:35:16Z</time>
      </trkpt>
      <trkpt lat="45.81998" lon="4.23917">
        <ele>522.4</ele>
        <time>2019-10-14T12:35:20Z</time>
      </trkpt>
      <trkpt lat="45.81996" lon="4.23911">
        <ele>522.3</ele>
        <time>2019-10-14T12:35:24Z</time>
      </trkpt>
      <trkpt lat="45.81994" lon="4.23904">
        <ele>522.3</ele>
        <time>2019-10-14T12:35:29Z</time>
      </trkpt>
      <trkpt lat="45.81991" lon="4.23897">
        <ele>522.2</ele>
        <time>2019-10-14T12:35:34Z</time>
      </trkpt>
      <trkpt lat="45.81989" lon="4.23891">
        <ele>522.1</ele>
        <time>2019-10-14T12:35:38Z</time>
      </trkpt>
      <trkpt lat="45.81987" lon="4.23885">
        <ele>522.1</ele>
        <time>2019-10-14T12:35:42Z</time>
      </trkpt>
      <trkpt lat="45.81984" lon="4.23878">
        <ele>522</ele>
        <time>2019-10-14T12:35:47Z</time>
      </trkpt>
      <trkpt lat="45.81981" lon="4.23872">
        <ele>521.9</ele>
        <time>2019-10-14T12:35:51Z</time>
      </trkpt>
      <trkpt lat="45.81978" lon="4.23866">
        <ele>521.9</ele>
        <time>2019-10-14T12:35:56Z</time>
      </trkpt>
      <trkpt lat="45.81975" lon="4.23859">
        <ele>521.8</ele>
        <time>2019-10-14T12:36:01Z</time>
      </trkpt>
      <trkpt lat="45.81973" lon="4.23852">
        <ele>521.7</ele>
        <time>2019-10-14T12:36:05Z</time>
      </trkpt>
      <trkpt lat="45.8197" lon="4.23846">
        <ele>521.7</ele>
        <time>2019-10-14T12:36:10Z</time>
      </trkpt>
      <trkpt lat="45.81968" lon="4.2384">
        <ele>521.6</ele>
        <time>2019-10-14T12:36:15Z</time>
      </trkpt>
      <trkpt lat="45.81966" lon="4.23833">
        <ele>521.5</ele>
        <time>2019-10-14T12:36:20Z</time>
      </trkpt>
      <trkpt lat="45.81964" lon="4.23826">
        <ele>521.5</ele>
        <time>2019-10-14T12:36:24Z</time>
      </trkpt>
      <trkpt lat="45.81961" lon="4.23819">
        <ele>521.5</ele>
        <time>2019-10-14T12:36:28Z</time>
      </trkpt>
      <trkpt lat="45.81959" lon="4.23812">
        <ele>521.4</ele>
        <time>2019-10-14T12:36:33Z</time>
      </trkpt>
      <trkpt lat="45.81956" lon="4.23805">
        <ele>521.3</ele>
        <time>2019-10-14T12:36:38Z</time>
      </trkpt>
      <trkpt lat="45.81954" lon="4.23798">
        <ele>521.3</ele>
        <time>2019-10-14T12:36:42Z</time>
      </trkpt>
      <trkpt lat="45.81952" lon="4.23792">
        <ele>521.3</ele>
        <time>2019-10-14T12:36:45Z</time>
      </trkpt>
      <trkpt lat="45.8195" lon="4.23786">
        <ele>521.2</ele>
        <time>2019-10-14T12:36:49Z</time>
      </trkpt>
      <trkpt lat="45.81947" lon="4.2378">
        <ele>521.2</ele>
        <time>2019-10-14T12:36:53Z</time>
      </trkpt>
      <trkpt lat="45.81945" lon="4.23774">
        <ele>521.1</ele>
        <time>2019-10-14T12:36:58Z</time>
      </trkpt>
      <trkpt lat="45.81943" lon="4.23768">
        <ele>521.1</ele>
        <time>2019-10-14T12:37:02Z</time>
      </trkpt>
      <trkpt lat="45.8194" lon="4.23762">
        <ele>521.1</ele>
        <time>2019-10-14T12:37:06Z</time>
      </trkpt>
      <trkpt lat="45.81937" lon="4.23755">
        <ele>521</ele>
        <time>2019-10-14T12:37:11Z</time>
      </trkpt>
      <trkpt lat="45.81934" lon="4.23749">
        <ele>521</ele>
        <time>2019-10-14T12:37:16Z</time>
      </trkpt>
      <trkpt lat="45.81931" lon="4.23742">
        <ele>520.9</ele>
        <time>2019-10-14T12:37:20Z</time>
      </trkpt>
      <trkpt lat="45.81928" lon="4.23737">
        <ele>520.9</ele>
        <time>2019-10-14T12:37:24Z</time>
      </trkpt>
      <trkpt lat="45.81925" lon="4.23732">
        <ele>520.8</ele>
        <time>2019-10-14T12:37:28Z</time>
      </trkpt>
      <trkpt lat="45.81924" lon="4.23726">
        <ele>520.8</ele>
        <time>2019-10-14T12:37:32Z</time>
      </trkpt>
      <trkpt lat="45.81921" lon="4.23719">
        <ele>520.7</ele>
        <time>2019-10-14T12:37:37Z</time>
      </trkpt>
      <trkpt lat="45.81919" lon="4.23713">
        <ele>520.7</ele>
        <time>2019-10-14T12:37:41Z</time>
      </trkpt>
      <trkpt lat="45.81916" lon="4.23706">
        <ele>520.6</ele>
        <time>2019-10-14T12:37:46Z</time>
      </trkpt>
      <trkpt lat="45.81912" lon="4.23701">
        <ele>520.5</ele>
        <time>2019-10-14T12:37:51Z</time>
      </trkpt>
      <trkpt lat="45.81909" lon="4.23696">
        <ele>520.5</ele>
        <time>2019-10-14T12:37:55Z</time>
      </trkpt>
      <trkpt lat="45.81905" lon="4.23691">
        <ele>520.4</ele>
        <time>2019-10-14T12:38:00Z</time>
      </trkpt>
      <trkpt lat="45.81902" lon="4.23685">
        <ele>520.4</ele>
        <time>2019-10-14T12:38:05Z</time>
      </trkpt>
      <trkpt lat="45.819" lon="4.23679">
        <ele>520.3</ele>
        <time>2019-10-14T12:38:09Z</time>
      </trkpt>
      <trkpt lat="45.81898" lon="4.23673">
        <ele>520.3</ele>
        <time>2019-10-14T12:38:15Z</time>
      </trkpt>
      <trkpt lat="45.81896" lon="4.23666">
        <ele>520.2</ele>
        <time>2019-10-14T12:38:22Z</time>
      </trkpt>
      <trkpt lat="45.81892" lon="4.23661">
        <ele>520.1</ele>
        <time>2019-10-14T12:38:30Z</time>
      </trkpt>
      <trkpt lat="45.81889" lon="4.23655">
        <ele>520.1</ele>
        <time>2019-10-14T12:38:34Z</time>
      </trkpt>
      <trkpt lat="45.81886" lon="4.23649">
        <ele>520</ele>
        <time>2019-10-14T12:38:38Z</time>
      </trkpt>
      <trkpt lat="45.81882" lon="4.23644">
        <ele>520</ele>
        <time>2019-10-14T12:38:42Z</time>
      </trkpt>
      <trkpt lat="45.8188" lon="4.23638">
        <ele>520</ele>
        <time>2019-10-14T12:38:45Z</time>
      </trkpt>
      <trkpt lat="45.81876" lon="4.23632">
        <ele>519.9</ele>
        <time>2019-10-14T12:38:48Z</time>
      </trkpt>
      <trkpt lat="45.81874" lon="4.23626">
        <ele>519.9</ele>
        <time>2019-10-14T12:38:51Z</time>
      </trkpt>
      <trkpt lat="45.81871" lon="4.2362">
        <ele>519.9</ele>
        <time>2019-10-14T12:38:55Z</time>
      </trkpt>
      <trkpt lat="45.81869" lon="4.23613">
        <ele>519.9</ele>
        <time>2019-10-14T12:38:58Z</time>
      </trkpt>
      <trkpt lat="45.81866" lon="4.23606">
        <ele>519.8</ele>
        <time>2019-10-14T12:39:01Z</time>
      </trkpt>
      <trkpt lat="45.81865" lon="4.236">
        <ele>519.8</ele>
        <time>2019-10-14T12:39:06Z</time>
      </trkpt>
      <trkpt lat="45.81864" lon="4.23593">
        <ele>519.8</ele>
        <time>2019-10-14T12:39:12Z</time>
      </trkpt>
      <trkpt lat="45.81863" lon="4.23587">
        <ele>519.7</ele>
        <time>2019-10-14T12:39:58Z</time>
      </trkpt>
      <trkpt lat="45.81864" lon="4.2358">
        <ele>519.4</ele>
        <time>2019-10-14T12:40:37Z</time>
      </trkpt>
      <trkpt lat="45.81865" lon="4.23586">
        <ele>519</ele>
        <time>2019-10-14T12:40:58Z</time>
      </trkpt>
      <trkpt lat="45.81866" lon="4.23592">
        <ele>518.6</ele>
        <time>2019-10-14T12:41:11Z</time>
      </trkpt>
      <trkpt lat="45.81869" lon="4.23597">
        <ele>518</ele>
        <time>2019-10-14T12:41:47Z</time>
      </trkpt>
      <trkpt lat="45.81873" lon="4.236">
        <ele>517.7</ele>
        <time>2019-10-14T12:41:59Z</time>
      </trkpt>
      <trkpt lat="45.81874" lon="4.23594">
        <ele>515.8</ele>
        <time>2019-10-14T12:43:51Z</time>
      </trkpt>
      <trkpt lat="45.81871" lon="4.23588">
        <ele>515.6</ele>
        <time>2019-10-14T12:43:56Z</time>
      </trkpt>
      <trkpt lat="45.81868" lon="4.23582">
        <ele>515.3</ele>
        <time>2019-10-14T12:44:02Z</time>
      </trkpt>
      <trkpt lat="45.81865" lon="4.23576">
        <ele>515.1</ele>
        <time>2019-10-14T12:44:07Z</time>
      </trkpt>
      <trkpt lat="45.81863" lon="4.23569">
        <ele>514.9</ele>
        <time>2019-10-14T12:44:12Z</time>
      </trkpt>
      <trkpt lat="45.81861" lon="4.23562">
        <ele>514.7</ele>
        <time>2019-10-14T12:44:19Z</time>
      </trkpt>
      <trkpt lat="45.81859" lon="4.23556">
        <ele>514.5</ele>
        <time>2019-10-14T12:44:25Z</time>
      </trkpt>
      <trkpt lat="45.81859" lon="4.23549">
        <ele>514.3</ele>
        <time>2019-10-14T12:44:30Z</time>
      </trkpt>
      <trkpt lat="45.81857" lon="4.23542">
        <ele>514.1</ele>
        <time>2019-10-14T12:44:36Z</time>
      </trkpt>
      <trkpt lat="45.81854" lon="4.23535">
        <ele>514.1</ele>
        <time>2019-10-14T12:44:40Z</time>
      </trkpt>
      <trkpt lat="45.81853" lon="4.23529">
        <ele>514</ele>
        <time>2019-10-14T12:44:43Z</time>
      </trkpt>
      <trkpt lat="45.81851" lon="4.23522">
        <ele>513.9</ele>
        <time>2019-10-14T12:44:49Z</time>
      </trkpt>
      <trkpt lat="45.81849" lon="4.23515">
        <ele>513.7</ele>
        <time>2019-10-14T12:44:54Z</time>
      </trkpt>
      <trkpt lat="45.81849" lon="4.23507">
        <ele>513.6</ele>
        <time>2019-10-14T12:44:59Z</time>
      </trkpt>
      <trkpt lat="45.81848" lon="4.235">
        <ele>513.5</ele>
        <time>2019-10-14T12:45:04Z</time>
      </trkpt>
      <trkpt lat="45.81846" lon="4.23494">
        <ele>513.5</ele>
        <time>2019-10-14T12:45:07Z</time>
      </trkpt>
      <trkpt lat="45.81845" lon="4.23487">
        <ele>513.4</ele>
        <time>2019-10-14T12:45:11Z</time>
      </trkpt>
      <trkpt lat="45.81843" lon="4.2348">
        <ele>513.3</ele>
        <time>2019-10-14T12:45:15Z</time>
      </trkpt>
      <trkpt lat="45.81843" lon="4.23473">
        <ele>513.2</ele>
        <time>2019-10-14T12:45:20Z</time>
      </trkpt>
      <trkpt lat="45.81841" lon="4.23466">
        <ele>513.1</ele>
        <time>2019-10-14T12:45:25Z</time>
      </trkpt>
      <trkpt lat="45.8184" lon="4.2346">
        <ele>513.1</ele>
        <time>2019-10-14T12:45:30Z</time>
      </trkpt>
      <trkpt lat="45.81839" lon="4.23452">
        <ele>513</ele>
        <time>2019-10-14T12:45:35Z</time>
      </trkpt>
      <trkpt lat="45.8184" lon="4.23445">
        <ele>512.9</ele>
        <time>2019-10-14T12:45:38Z</time>
      </trkpt>
      <trkpt lat="45.81841" lon="4.23438">
        <ele>512.8</ele>
        <time>2019-10-14T12:45:43Z</time>
      </trkpt>
      <trkpt lat="45.81839" lon="4.23431">
        <ele>512.7</ele>
        <time>2019-10-14T12:45:48Z</time>
      </trkpt>
      <trkpt lat="45.81836" lon="4.23425">
        <ele>512.7</ele>
        <time>2019-10-14T12:45:51Z</time>
      </trkpt>
      <trkpt lat="45.81833" lon="4.23419">
        <ele>512.6</ele>
        <time>2019-10-14T12:45:55Z</time>
      </trkpt>
      <trkpt lat="45.8183" lon="4.23414">
        <ele>512.5</ele>
        <time>2019-10-14T12:46:00Z</time>
      </trkpt>
      <trkpt lat="45.81826" lon="4.23409">
        <ele>512.4</ele>
        <time>2019-10-14T12:46:04Z</time>
      </trkpt>
      <trkpt lat="45.81824" lon="4.23404">
        <ele>512.4</ele>
        <time>2019-10-14T12:46:08Z</time>
      </trkpt>
      <trkpt lat="45.81822" lon="4.23396">
        <ele>512.3</ele>
        <time>2019-10-14T12:46:12Z</time>
      </trkpt>
      <trkpt lat="45.8182" lon="4.23389">
        <ele>512.2</ele>
        <time>2019-10-14T12:46:16Z</time>
      </trkpt>
      <trkpt lat="45.81819" lon="4.23382">
        <ele>512.1</ele>
        <time>2019-10-14T12:46:20Z</time>
      </trkpt>
      <trkpt lat="45.8182" lon="4.23375">
        <ele>512</ele>
        <time>2019-10-14T12:46:25Z</time>
      </trkpt>
      <trkpt lat="45.81819" lon="4.23368">
        <ele>512</ele>
        <time>2019-10-14T12:46:29Z</time>
      </trkpt>
      <trkpt lat="45.81816" lon="4.23363">
        <ele>511.9</ele>
        <time>2019-10-14T12:46:33Z</time>
      </trkpt>
      <trkpt lat="45.81812" lon="4.23358">
        <ele>511.8</ele>
        <time>2019-10-14T12:46:37Z</time>
      </trkpt>
      <trkpt lat="45.81808" lon="4.23353">
        <ele>511.8</ele>
        <time>2019-10-14T12:46:41Z</time>
      </trkpt>
      <trkpt lat="45.81806" lon="4.23346">
        <ele>511.7</ele>
        <time>2019-10-14T12:46:46Z</time>
      </trkpt>
      <trkpt lat="45.81803" lon="4.2334">
        <ele>511.6</ele>
        <time>2019-10-14T12:46:51Z</time>
      </trkpt>
      <trkpt lat="45.81801" lon="4.23334">
        <ele>511.5</ele>
        <time>2019-10-14T12:46:55Z</time>
      </trkpt>
      <trkpt lat="45.81798" lon="4.23327">
        <ele>511.4</ele>
        <time>2019-10-14T12:46:59Z</time>
      </trkpt>
      <trkpt lat="45.81795" lon="4.23321">
        <ele>511.4</ele>
        <time>2019-10-14T12:47:03Z</time>
      </trkpt>
      <trkpt lat="45.81795" lon="4.23315">
        <ele>511.3</ele>
        <time>2019-10-14T12:47:07Z</time>
      </trkpt>
      <trkpt lat="45.81794" lon="4.23308">
        <ele>511.3</ele>
        <time>2019-10-14T12:47:12Z</time>
      </trkpt>
      <trkpt lat="45.81792" lon="4.23302">
        <ele>511.2</ele>
        <time>2019-10-14T12:47:16Z</time>
      </trkpt>
      <trkpt lat="45.8179" lon="4.23295">
        <ele>511.1</ele>
        <time>2019-10-14T12:47:20Z</time>
      </trkpt>
      <trkpt lat="45.81788" lon="4.23288">
        <ele>511.1</ele>
        <time>2019-10-14T12:47:24Z</time>
      </trkpt>
      <trkpt lat="45.81788" lon="4.23281">
        <ele>511</ele>
        <time>2019-10-14T12:47:28Z</time>
      </trkpt>
      <trkpt lat="45.81786" lon="4.23275">
        <ele>511</ele>
        <time>2019-10-14T12:47:33Z</time>
      </trkpt>
      <trkpt lat="45.81784" lon="4.23269">
        <ele>510.9</ele>
        <time>2019-10-14T12:47:38Z</time>
      </trkpt>
      <trkpt lat="45.81783" lon="4.23262">
        <ele>510.9</ele>
        <time>2019-10-14T12:47:42Z</time>
      </trkpt>
      <trkpt lat="45.81781" lon="4.23255">
        <ele>510.8</ele>
        <time>2019-10-14T12:47:46Z</time>
      </trkpt>
      <trkpt lat="45.81781" lon="4.23248">
        <ele>510.8</ele>
        <time>2019-10-14T12:47:50Z</time>
      </trkpt>
      <trkpt lat="45.81779" lon="4.23241">
        <ele>510.7</ele>
        <time>2019-10-14T12:47:55Z</time>
      </trkpt>
      <trkpt lat="45.81779" lon="4.23233">
        <ele>510.6</ele>
        <time>2019-10-14T12:48:01Z</time>
      </trkpt>
      <trkpt lat="45.81777" lon="4.23226">
        <ele>510.6</ele>
        <time>2019-10-14T12:48:08Z</time>
      </trkpt>
      <trkpt lat="45.81776" lon="4.23218">
        <ele>510.5</ele>
        <time>2019-10-14T12:48:14Z</time>
      </trkpt>
      <trkpt lat="45.81776" lon="4.23211">
        <ele>510.5</ele>
        <time>2019-10-14T12:48:17Z</time>
      </trkpt>
      <trkpt lat="45.81777" lon="4.23204">
        <ele>510.4</ele>
        <time>2019-10-14T12:48:21Z</time>
      </trkpt>
      <trkpt lat="45.81776" lon="4.23198">
        <ele>510.4</ele>
        <time>2019-10-14T12:48:26Z</time>
      </trkpt>
      <trkpt lat="45.81774" lon="4.23191">
        <ele>510.3</ele>
        <time>2019-10-14T12:48:32Z</time>
      </trkpt>
      <trkpt lat="45.81773" lon="4.23185">
        <ele>510.3</ele>
        <time>2019-10-14T12:48:39Z</time>
      </trkpt>
      <trkpt lat="45.81772" lon="4.23178">
        <ele>510.2</ele>
        <time>2019-10-14T12:48:45Z</time>
      </trkpt>
      <trkpt lat="45.81771" lon="4.23171">
        <ele>510.1</ele>
        <time>2019-10-14T12:48:50Z</time>
      </trkpt>
      <trkpt lat="45.81771" lon="4.23165">
        <ele>510.1</ele>
        <time>2019-10-14T12:48:55Z</time>
      </trkpt>
      <trkpt lat="45.81771" lon="4.23157">
        <ele>510</ele>
        <time>2019-10-14T12:48:59Z</time>
      </trkpt>
      <trkpt lat="45.81772" lon="4.23151">
        <ele>510</ele>
        <time>2019-10-14T12:49:03Z</time>
      </trkpt>
      <trkpt lat="45.8177" lon="4.23144">
        <ele>510</ele>
        <time>2019-10-14T12:49:08Z</time>
      </trkpt>
      <trkpt lat="45.81769" lon="4.23137">
        <ele>509.9</ele>
        <time>2019-10-14T12:49:12Z</time>
      </trkpt>
      <trkpt lat="45.81768" lon="4.23131">
        <ele>509.9</ele>
        <time>2019-10-14T12:49:17Z</time>
      </trkpt>
      <trkpt lat="45.81768" lon="4.23124">
        <ele>509.8</ele>
        <time>2019-10-14T12:49:22Z</time>
      </trkpt>
      <trkpt lat="45.81769" lon="4.23116">
        <ele>509.8</ele>
        <time>2019-10-14T12:49:26Z</time>
      </trkpt>
      <trkpt lat="45.81768" lon="4.23108">
        <ele>509.7</ele>
        <time>2019-10-14T12:49:31Z</time>
      </trkpt>
      <trkpt lat="45.81766" lon="4.231">
        <ele>509.7</ele>
        <time>2019-10-14T12:49:35Z</time>
      </trkpt>
      <trkpt lat="45.81765" lon="4.23093">
        <ele>509.6</ele>
        <time>2019-10-14T12:49:39Z</time>
      </trkpt>
      <trkpt lat="45.81762" lon="4.23087">
        <ele>509.5</ele>
        <time>2019-10-14T12:49:44Z</time>
      </trkpt>
      <trkpt lat="45.8176" lon="4.23081">
        <ele>509.5</ele>
        <time>2019-10-14T12:49:48Z</time>
      </trkpt>
      <trkpt lat="45.81758" lon="4.23074">
        <ele>509.4</ele>
        <time>2019-10-14T12:49:52Z</time>
      </trkpt>
      <trkpt lat="45.81756" lon="4.23067">
        <ele>509.3</ele>
        <time>2019-10-14T12:49:56Z</time>
      </trkpt>
      <trkpt lat="45.81752" lon="4.23061">
        <ele>509.2</ele>
        <time>2019-10-14T12:50:01Z</time>
      </trkpt>
      <trkpt lat="45.81749" lon="4.23058">
        <ele>509.1</ele>
        <time>2019-10-14T12:50:06Z</time>
      </trkpt>
      <trkpt lat="45.81745" lon="4.23053">
        <ele>508.9</ele>
        <time>2019-10-14T12:50:14Z</time>
      </trkpt>
      <trkpt lat="45.8174" lon="4.2305">
        <ele>508.8</ele>
        <time>2019-10-14T12:50:20Z</time>
      </trkpt>
      <trkpt lat="45.81736" lon="4.23046">
        <ele>508.7</ele>
        <time>2019-10-14T12:50:23Z</time>
      </trkpt>
      <trkpt lat="45.81732" lon="4.23042">
        <ele>508.6</ele>
        <time>2019-10-14T12:50:27Z</time>
      </trkpt>
      <trkpt lat="45.81727" lon="4.23038">
        <ele>508.5</ele>
        <time>2019-10-14T12:50:31Z</time>
      </trkpt>
      <trkpt lat="45.81722" lon="4.23035">
        <ele>508.4</ele>
        <time>2019-10-14T12:50:35Z</time>
      </trkpt>
      <trkpt lat="45.81717" lon="4.23031">
        <ele>508.3</ele>
        <time>2019-10-14T12:50:39Z</time>
      </trkpt>
      <trkpt lat="45.81713" lon="4.23026">
        <ele>508.1</ele>
        <time>2019-10-14T12:50:44Z</time>
      </trkpt>
      <trkpt lat="45.8171" lon="4.2302">
        <ele>508</ele>
        <time>2019-10-14T12:50:49Z</time>
      </trkpt>
      <trkpt lat="45.81706" lon="4.23016">
        <ele>507.8</ele>
        <time>2019-10-14T12:50:55Z</time>
      </trkpt>
      <trkpt lat="45.81702" lon="4.23012">
        <ele>507.7</ele>
        <time>2019-10-14T12:51:00Z</time>
      </trkpt>
      <trkpt lat="45.81698" lon="4.23008">
        <ele>507.6</ele>
        <time>2019-10-14T12:51:03Z</time>
      </trkpt>
      <trkpt lat="45.81694" lon="4.23003">
        <ele>507.5</ele>
        <time>2019-10-14T12:51:06Z</time>
      </trkpt>
      <trkpt lat="45.8169" lon="4.22998">
        <ele>507.4</ele>
        <time>2019-10-14T12:51:09Z</time>
      </trkpt>
      <trkpt lat="45.81686" lon="4.22993">
        <ele>507.3</ele>
        <time>2019-10-14T12:51:13Z</time>
      </trkpt>
      <trkpt lat="45.81682" lon="4.22988">
        <ele>507.1</ele>
        <time>2019-10-14T12:51:17Z</time>
      </trkpt>
      <trkpt lat="45.81679" lon="4.22982">
        <ele>507</ele>
        <time>2019-10-14T12:51:21Z</time>
      </trkpt>
      <trkpt lat="45.81676" lon="4.22976">
        <ele>506.8</ele>
        <time>2019-10-14T12:51:26Z</time>
      </trkpt>
      <trkpt lat="45.81673" lon="4.2297">
        <ele>506.6</ele>
        <time>2019-10-14T12:51:31Z</time>
      </trkpt>
      <trkpt lat="45.81672" lon="4.22963">
        <ele>506.5</ele>
        <time>2019-10-14T12:51:34Z</time>
      </trkpt>
      <trkpt lat="45.8167" lon="4.22957">
        <ele>506.4</ele>
        <time>2019-10-14T12:51:37Z</time>
      </trkpt>
      <trkpt lat="45.81666" lon="4.22952">
        <ele>506.2</ele>
        <time>2019-10-14T12:51:42Z</time>
      </trkpt>
      <trkpt lat="45.81666" lon="4.22945">
        <ele>505.8</ele>
        <time>2019-10-14T12:51:51Z</time>
      </trkpt>
      <trkpt lat="45.81665" lon="4.22938">
        <ele>505.6</ele>
        <time>2019-10-14T12:51:56Z</time>
      </trkpt>
      <trkpt lat="45.81663" lon="4.22931">
        <ele>505.4</ele>
        <time>2019-10-14T12:52:01Z</time>
      </trkpt>
      <trkpt lat="45.81661" lon="4.22923">
        <ele>505.1</ele>
        <time>2019-10-14T12:52:07Z</time>
      </trkpt>
      <trkpt lat="45.81659" lon="4.22917">
        <ele>504.9</ele>
        <time>2019-10-14T12:52:12Z</time>
      </trkpt>
      <trkpt lat="45.81656" lon="4.22909">
        <ele>504.7</ele>
        <time>2019-10-14T12:52:17Z</time>
      </trkpt>
      <trkpt lat="45.81654" lon="4.22903">
        <ele>504.5</ele>
        <time>2019-10-14T12:52:21Z</time>
      </trkpt>
      <trkpt lat="45.81652" lon="4.22897">
        <ele>504.3</ele>
        <time>2019-10-14T12:52:24Z</time>
      </trkpt>
      <trkpt lat="45.81651" lon="4.2289">
        <ele>504.2</ele>
        <time>2019-10-14T12:52:27Z</time>
      </trkpt>
      <trkpt lat="45.81649" lon="4.22882">
        <ele>503.9</ele>
        <time>2019-10-14T12:52:32Z</time>
      </trkpt>
      <trkpt lat="45.81647" lon="4.22875">
        <ele>503.7</ele>
        <time>2019-10-14T12:52:36Z</time>
      </trkpt>
      <trkpt lat="45.81645" lon="4.22868">
        <ele>503.4</ele>
        <time>2019-10-14T12:52:41Z</time>
      </trkpt>
      <trkpt lat="45.81642" lon="4.22861">
        <ele>503.2</ele>
        <time>2019-10-14T12:52:45Z</time>
      </trkpt>
      <trkpt lat="45.81639" lon="4.22856">
        <ele>503</ele>
        <time>2019-10-14T12:52:48Z</time>
      </trkpt>
      <trkpt lat="45.81637" lon="4.22849">
        <ele>502.7</ele>
        <time>2019-10-14T12:52:52Z</time>
      </trkpt>
      <trkpt lat="45.81636" lon="4.22843">
        <ele>502.4</ele>
        <time>2019-10-14T12:52:57Z</time>
      </trkpt>
      <trkpt lat="45.81635" lon="4.22837">
        <ele>502.1</ele>
        <time>2019-10-14T12:53:02Z</time>
      </trkpt>
      <trkpt lat="45.81632" lon="4.22831">
        <ele>501.6</ele>
        <time>2019-10-14T12:53:08Z</time>
      </trkpt>
      <trkpt lat="45.81628" lon="4.22826">
        <ele>501.2</ele>
        <time>2019-10-14T12:53:14Z</time>
      </trkpt>
      <trkpt lat="45.81624" lon="4.22821">
        <ele>500.8</ele>
        <time>2019-10-14T12:53:18Z</time>
      </trkpt>
      <trkpt lat="45.8162" lon="4.22817">
        <ele>500.5</ele>
        <time>2019-10-14T12:53:22Z</time>
      </trkpt>
      <trkpt lat="45.81617" lon="4.22813">
        <ele>500</ele>
        <time>2019-10-14T12:53:27Z</time>
      </trkpt>
      <trkpt lat="45.81612" lon="4.22807">
        <ele>499.6</ele>
        <time>2019-10-14T12:53:32Z</time>
      </trkpt>
      <trkpt lat="45.81608" lon="4.22803">
        <ele>499.1</ele>
        <time>2019-10-14T12:53:37Z</time>
      </trkpt>
      <trkpt lat="45.81603" lon="4.22799">
        <ele>498.9</ele>
        <time>2019-10-14T12:53:40Z</time>
      </trkpt>
      <trkpt lat="45.81598" lon="4.22795">
        <ele>498.6</ele>
        <time>2019-10-14T12:53:43Z</time>
      </trkpt>
      <trkpt lat="45.81594" lon="4.22792">
        <ele>498.4</ele>
        <time>2019-10-14T12:53:46Z</time>
      </trkpt>
      <trkpt lat="45.81589" lon="4.22788">
        <ele>498.1</ele>
        <time>2019-10-14T12:53:49Z</time>
      </trkpt>
      <trkpt lat="45.81585" lon="4.22783">
        <ele>497.8</ele>
        <time>2019-10-14T12:53:52Z</time>
      </trkpt>
      <trkpt lat="45.81582" lon="4.22778">
        <ele>497.5</ele>
        <time>2019-10-14T12:53:56Z</time>
      </trkpt>
      <trkpt lat="45.81578" lon="4.22772">
        <ele>497</ele>
        <time>2019-10-14T12:54:01Z</time>
      </trkpt>
      <trkpt lat="45.81574" lon="4.22767">
        <ele>496.6</ele>
        <time>2019-10-14T12:54:05Z</time>
      </trkpt>
      <trkpt lat="45.81571" lon="4.22762">
        <ele>496.1</ele>
        <time>2019-10-14T12:54:10Z</time>
      </trkpt>
      <trkpt lat="45.81568" lon="4.22756">
        <ele>495.6</ele>
        <time>2019-10-14T12:54:15Z</time>
      </trkpt>
      <trkpt lat="45.81565" lon="4.22751">
        <ele>495.2</ele>
        <time>2019-10-14T12:54:20Z</time>
      </trkpt>
      <trkpt lat="45.81562" lon="4.22745">
        <ele>494.6</ele>
        <time>2019-10-14T12:54:26Z</time>
      </trkpt>
      <trkpt lat="45.81559" lon="4.22738">
        <ele>494</ele>
        <time>2019-10-14T12:54:32Z</time>
      </trkpt>
      <trkpt lat="45.81556" lon="4.22731">
        <ele>493.8</ele>
        <time>2019-10-14T12:54:35Z</time>
      </trkpt>
      <trkpt lat="45.81553" lon="4.22725">
        <ele>493.4</ele>
        <time>2019-10-14T12:54:39Z</time>
      </trkpt>
      <trkpt lat="45.8155" lon="4.22718">
        <ele>493.1</ele>
        <time>2019-10-14T12:54:43Z</time>
      </trkpt>
      <trkpt lat="45.81546" lon="4.22713">
        <ele>492.6</ele>
        <time>2019-10-14T12:54:48Z</time>
      </trkpt>
      <trkpt lat="45.81542" lon="4.22709">
        <ele>492</ele>
        <time>2019-10-14T12:54:55Z</time>
      </trkpt>
      <trkpt lat="45.81537" lon="4.22705">
        <ele>491.6</ele>
        <time>2019-10-14T12:55:00Z</time>
      </trkpt>
      <trkpt lat="45.81532" lon="4.22701">
        <ele>491.2</ele>
        <time>2019-10-14T12:55:05Z</time>
      </trkpt>
      <trkpt lat="45.81527" lon="4.22696">
        <ele>490.8</ele>
        <time>2019-10-14T12:55:09Z</time>
      </trkpt>
      <trkpt lat="45.81523" lon="4.22691">
        <ele>490.6</ele>
        <time>2019-10-14T12:55:12Z</time>
      </trkpt>
      <trkpt lat="45.8152" lon="4.22685">
        <ele>490.3</ele>
        <time>2019-10-14T12:55:16Z</time>
      </trkpt>
      <trkpt lat="45.81517" lon="4.2268">
        <ele>490</ele>
        <time>2019-10-14T12:55:19Z</time>
      </trkpt>
      <trkpt lat="45.81514" lon="4.22675">
        <ele>489.7</ele>
        <time>2019-10-14T12:55:23Z</time>
      </trkpt>
      <trkpt lat="45.81511" lon="4.2267">
        <ele>489.4</ele>
        <time>2019-10-14T12:55:27Z</time>
      </trkpt>
      <trkpt lat="45.81508" lon="4.22664">
        <ele>489</ele>
        <time>2019-10-14T12:55:32Z</time>
      </trkpt>
      <trkpt lat="45.81505" lon="4.22659">
        <ele>488.7</ele>
        <time>2019-10-14T12:55:36Z</time>
      </trkpt>
      <trkpt lat="45.81501" lon="4.22653">
        <ele>488.4</ele>
        <time>2019-10-14T12:55:40Z</time>
      </trkpt>
      <trkpt lat="45.81498" lon="4.22647">
        <ele>488.1</ele>
        <time>2019-10-14T12:55:44Z</time>
      </trkpt>
      <trkpt lat="45.81495" lon="4.22641">
        <ele>487.8</ele>
        <time>2019-10-14T12:55:48Z</time>
      </trkpt>
      <trkpt lat="45.81491" lon="4.22637">
        <ele>487.5</ele>
        <time>2019-10-14T12:55:52Z</time>
      </trkpt>
      <trkpt lat="45.81487" lon="4.22632">
        <ele>487.2</ele>
        <time>2019-10-14T12:55:57Z</time>
      </trkpt>
      <trkpt lat="45.81483" lon="4.22627">
        <ele>486.9</ele>
        <time>2019-10-14T12:56:00Z</time>
      </trkpt>
      <trkpt lat="45.8148" lon="4.22621">
        <ele>486.7</ele>
        <time>2019-10-14T12:56:04Z</time>
      </trkpt>
      <trkpt lat="45.81478" lon="4.22614">
        <ele>486.4</ele>
        <time>2019-10-14T12:56:09Z</time>
      </trkpt>
      <trkpt lat="45.81475" lon="4.22608">
        <ele>486.1</ele>
        <time>2019-10-14T12:56:13Z</time>
      </trkpt>
      <trkpt lat="45.81473" lon="4.22601">
        <ele>485.9</ele>
        <time>2019-10-14T12:56:16Z</time>
      </trkpt>
      <trkpt lat="45.81469" lon="4.22596">
        <ele>485.7</ele>
        <time>2019-10-14T12:56:20Z</time>
      </trkpt>
      <trkpt lat="45.81465" lon="4.22592">
        <ele>485.5</ele>
        <time>2019-10-14T12:56:24Z</time>
      </trkpt>
      <trkpt lat="45.81461" lon="4.22586">
        <ele>485.2</ele>
        <time>2019-10-14T12:56:29Z</time>
      </trkpt>
      <trkpt lat="45.81458" lon="4.22581">
        <ele>484.9</ele>
        <time>2019-10-14T12:56:33Z</time>
      </trkpt>
      <trkpt lat="45.81455" lon="4.22576">
        <ele>484.7</ele>
        <time>2019-10-14T12:56:38Z</time>
      </trkpt>
      <trkpt lat="45.81452" lon="4.22569">
        <ele>484.4</ele>
        <time>2019-10-14T12:56:44Z</time>
      </trkpt>
      <trkpt lat="45.81448" lon="4.22563">
        <ele>484.2</ele>
        <time>2019-10-14T12:56:49Z</time>
      </trkpt>
      <trkpt lat="45.81444" lon="4.22559">
        <ele>484.1</ele>
        <time>2019-10-14T12:56:52Z</time>
      </trkpt>
      <trkpt lat="45.81441" lon="4.22554">
        <ele>483.9</ele>
        <time>2019-10-14T12:56:55Z</time>
      </trkpt>
      <trkpt lat="45.81438" lon="4.22549">
        <ele>483.8</ele>
        <time>2019-10-14T12:56:58Z</time>
      </trkpt>
      <trkpt lat="45.81435" lon="4.22543">
        <ele>483.6</ele>
        <time>2019-10-14T12:57:02Z</time>
      </trkpt>
      <trkpt lat="45.81432" lon="4.22537">
        <ele>483.4</ele>
        <time>2019-10-14T12:57:06Z</time>
      </trkpt>
      <trkpt lat="45.81429" lon="4.2253">
        <ele>483.2</ele>
        <time>2019-10-14T12:57:10Z</time>
      </trkpt>
      <trkpt lat="45.81429" lon="4.22523">
        <ele>483</ele>
        <time>2019-10-14T12:57:15Z</time>
      </trkpt>
      <trkpt lat="45.81428" lon="4.22516">
        <ele>482.7</ele>
        <time>2019-10-14T12:57:20Z</time>
      </trkpt>
      <trkpt lat="45.81428" lon="4.22509">
        <ele>482.5</ele>
        <time>2019-10-14T12:57:26Z</time>
      </trkpt>
      <trkpt lat="45.81429" lon="4.22502">
        <ele>482.3</ele>
        <time>2019-10-14T12:57:30Z</time>
      </trkpt>
      <trkpt lat="45.81431" lon="4.22495">
        <ele>482.1</ele>
        <time>2019-10-14T12:57:35Z</time>
      </trkpt>
      <trkpt lat="45.81432" lon="4.22488">
        <ele>481.9</ele>
        <time>2019-10-14T12:57:39Z</time>
      </trkpt>
      <trkpt lat="45.81433" lon="4.22481">
        <ele>481.8</ele>
        <time>2019-10-14T12:57:43Z</time>
      </trkpt>
      <trkpt lat="45.81434" lon="4.22475">
        <ele>481.6</ele>
        <time>2019-10-14T12:57:48Z</time>
      </trkpt>
      <trkpt lat="45.81434" lon="4.22468">
        <ele>481.5</ele>
        <time>2019-10-14T12:57:52Z</time>
      </trkpt>
      <trkpt lat="45.81434" lon="4.22461">
        <ele>481.4</ele>
        <time>2019-10-14T12:57:57Z</time>
      </trkpt>
      <trkpt lat="45.81433" lon="4.22454">
        <ele>481.2</ele>
        <time>2019-10-14T12:58:02Z</time>
      </trkpt>
      <trkpt lat="45.81432" lon="4.22447">
        <ele>481</ele>
        <time>2019-10-14T12:58:08Z</time>
      </trkpt>
      <trkpt lat="45.8143" lon="4.2244">
        <ele>480.9</ele>
        <time>2019-10-14T12:58:12Z</time>
      </trkpt>
      <trkpt lat="45.81429" lon="4.22434">
        <ele>480.8</ele>
        <time>2019-10-14T12:58:16Z</time>
      </trkpt>
      <trkpt lat="45.81427" lon="4.22428">
        <ele>480.7</ele>
        <time>2019-10-14T12:58:22Z</time>
      </trkpt>
      <trkpt lat="45.81427" lon="4.22421">
        <ele>480.2</ele>
        <time>2019-10-14T12:58:47Z</time>
      </trkpt>
      <trkpt lat="45.81426" lon="4.22415">
        <ele>478.6</ele>
        <time>2019-10-14T12:59:01Z</time>
      </trkpt>
      <trkpt lat="45.81426" lon="4.22408">
        <ele>477.7</ele>
        <time>2019-10-14T12:59:07Z</time>
      </trkpt>
      <trkpt lat="45.81426" lon="4.22401">
        <ele>476.8</ele>
        <time>2019-10-14T12:59:13Z</time>
      </trkpt>
      <trkpt lat="45.81424" lon="4.22395">
        <ele>476</ele>
        <time>2019-10-14T12:59:18Z</time>
      </trkpt>
      <trkpt lat="45.81421" lon="4.22388">
        <ele>475.2</ele>
        <time>2019-10-14T12:59:23Z</time>
      </trkpt>
      <trkpt lat="45.81418" lon="4.22382">
        <ele>474.5</ele>
        <time>2019-10-14T12:59:28Z</time>
      </trkpt>
      <trkpt lat="45.81415" lon="4.22376">
        <ele>473.9</ele>
        <time>2019-10-14T12:59:33Z</time>
      </trkpt>
      <trkpt lat="45.81413" lon="4.2237">
        <ele>473.2</ele>
        <time>2019-10-14T12:59:38Z</time>
      </trkpt>
      <trkpt lat="45.8141" lon="4.22364">
        <ele>472.5</ele>
        <time>2019-10-14T12:59:43Z</time>
      </trkpt>
      <trkpt lat="45.81407" lon="4.22358">
        <ele>471.9</ele>
        <time>2019-10-14T12:59:48Z</time>
      </trkpt>
      <trkpt lat="45.81406" lon="4.22352">
        <ele>471.3</ele>
        <time>2019-10-14T12:59:53Z</time>
      </trkpt>
      <trkpt lat="45.81405" lon="4.22345">
        <ele>470</ele>
        <time>2019-10-14T13:00:09Z</time>
      </trkpt>
      <trkpt lat="45.81407" lon="4.22339">
        <ele>466.2</ele>
        <time>2019-10-14T13:01:56Z</time>
      </trkpt>
      <trkpt lat="45.81408" lon="4.22333">
        <ele>464.9</ele>
        <time>2019-10-14T13:02:14Z</time>
      </trkpt>
      <trkpt lat="45.81409" lon="4.22327">
        <ele>463.7</ele>
        <time>2019-10-14T13:02:20Z</time>
      </trkpt>
      <trkpt lat="45.81411" lon="4.2232">
        <ele>462.6</ele>
        <time>2019-10-14T13:02:25Z</time>
      </trkpt>
      <trkpt lat="45.81414" lon="4.22314">
        <ele>461.6</ele>
        <time>2019-10-14T13:02:30Z</time>
      </trkpt>
      <trkpt lat="45.81417" lon="4.22307">
        <ele>460.6</ele>
        <time>2019-10-14T13:02:35Z</time>
      </trkpt>
      <trkpt lat="45.81418" lon="4.22301">
        <ele>459.7</ele>
        <time>2019-10-14T13:02:40Z</time>
      </trkpt>
      <trkpt lat="45.8142" lon="4.22293">
        <ele>458.7</ele>
        <time>2019-10-14T13:02:46Z</time>
      </trkpt>
      <trkpt lat="45.81421" lon="4.22286">
        <ele>457.8</ele>
        <time>2019-10-14T13:02:52Z</time>
      </trkpt>
      <trkpt lat="45.81422" lon="4.22279">
        <ele>456.9</ele>
        <time>2019-10-14T13:02:58Z</time>
      </trkpt>
      <trkpt lat="45.81422" lon="4.22271">
        <ele>456</ele>
        <time>2019-10-14T13:03:04Z</time>
      </trkpt>
      <trkpt lat="45.81421" lon="4.22264">
        <ele>455.5</ele>
        <time>2019-10-14T13:03:08Z</time>
      </trkpt>
      <trkpt lat="45.81418" lon="4.22258">
        <ele>454.7</ele>
        <time>2019-10-14T13:03:13Z</time>
      </trkpt>
      <trkpt lat="45.81415" lon="4.22253">
        <ele>454.2</ele>
        <time>2019-10-14T13:03:17Z</time>
      </trkpt>
      <trkpt lat="45.81412" lon="4.22248">
        <ele>453.4</ele>
        <time>2019-10-14T13:03:22Z</time>
      </trkpt>
      <trkpt lat="45.81409" lon="4.22243">
        <ele>452.9</ele>
        <time>2019-10-14T13:03:26Z</time>
      </trkpt>
      <trkpt lat="45.81407" lon="4.22237">
        <ele>452.2</ele>
        <time>2019-10-14T13:03:31Z</time>
      </trkpt>
      <trkpt lat="45.81404" lon="4.2223">
        <ele>451.3</ele>
        <time>2019-10-14T13:03:37Z</time>
      </trkpt>
      <trkpt lat="45.814" lon="4.22225">
        <ele>450.8</ele>
        <time>2019-10-14T13:03:41Z</time>
      </trkpt>
      <trkpt lat="45.81396" lon="4.22221">
        <ele>450.3</ele>
        <time>2019-10-14T13:03:45Z</time>
      </trkpt>
      <trkpt lat="45.81392" lon="4.22217">
        <ele>449.8</ele>
        <time>2019-10-14T13:03:49Z</time>
      </trkpt>
      <trkpt lat="45.81388" lon="4.22213">
        <ele>449.3</ele>
        <time>2019-10-14T13:03:53Z</time>
      </trkpt>
      <trkpt lat="45.81383" lon="4.2221">
        <ele>448.8</ele>
        <time>2019-10-14T13:03:57Z</time>
      </trkpt>
      <trkpt lat="45.81378" lon="4.22209">
        <ele>448.4</ele>
        <time>2019-10-14T13:04:00Z</time>
      </trkpt>
      <trkpt lat="45.81373" lon="4.22205">
        <ele>447.9</ele>
        <time>2019-10-14T13:04:04Z</time>
      </trkpt>
      <trkpt lat="45.81369" lon="4.22201">
        <ele>447.2</ele>
        <time>2019-10-14T13:04:09Z</time>
      </trkpt>
      <trkpt lat="45.81365" lon="4.22199">
        <ele>446.1</ele>
        <time>2019-10-14T13:04:16Z</time>
      </trkpt>
      <trkpt lat="45.8136" lon="4.22195">
        <ele>445.3</ele>
        <time>2019-10-14T13:04:22Z</time>
      </trkpt>
      <trkpt lat="45.81356" lon="4.22192">
        <ele>444.7</ele>
        <time>2019-10-14T13:04:26Z</time>
      </trkpt>
      <trkpt lat="45.81351" lon="4.2219">
        <ele>444.1</ele>
        <time>2019-10-14T13:04:30Z</time>
      </trkpt>
      <trkpt lat="45.81347" lon="4.22188">
        <ele>443.5</ele>
        <time>2019-10-14T13:04:34Z</time>
      </trkpt>
      <trkpt lat="45.81342" lon="4.22185">
        <ele>442.9</ele>
        <time>2019-10-14T13:04:38Z</time>
      </trkpt>
      <trkpt lat="45.81338" lon="4.22183">
        <ele>442.3</ele>
        <time>2019-10-14T13:04:42Z</time>
      </trkpt>
      <trkpt lat="45.81333" lon="4.2218">
        <ele>441.5</ele>
        <time>2019-10-14T13:04:47Z</time>
      </trkpt>
      <trkpt lat="45.81328" lon="4.22178">
        <ele>440.9</ele>
        <time>2019-10-14T13:04:51Z</time>
      </trkpt>
      <trkpt lat="45.81323" lon="4.22176">
        <ele>440.4</ele>
        <time>2019-10-14T13:04:54Z</time>
      </trkpt>
      <trkpt lat="45.81317" lon="4.22174">
        <ele>439.8</ele>
        <time>2019-10-14T13:04:58Z</time>
      </trkpt>
      <trkpt lat="45.81312" lon="4.22171">
        <ele>439.2</ele>
        <time>2019-10-14T13:05:02Z</time>
      </trkpt>
      <trkpt lat="45.81307" lon="4.22168">
        <ele>438.5</ele>
        <time>2019-10-14T13:05:06Z</time>
      </trkpt>
      <trkpt lat="45.81302" lon="4.22166">
        <ele>437.9</ele>
        <time>2019-10-14T13:05:10Z</time>
      </trkpt>
      <trkpt lat="45.81297" lon="4.22165">
        <ele>437.1</ele>
        <time>2019-10-14T13:05:15Z</time>
      </trkpt>
      <trkpt lat="45.81292" lon="4.22164">
        <ele>436.4</ele>
        <time>2019-10-14T13:05:19Z</time>
      </trkpt>
      <trkpt lat="45.81287" lon="4.22162">
        <ele>435.8</ele>
        <time>2019-10-14T13:05:23Z</time>
      </trkpt>
      <trkpt lat="45.81281" lon="4.2216">
        <ele>435.2</ele>
        <time>2019-10-14T13:05:27Z</time>
      </trkpt>
      <trkpt lat="45.81276" lon="4.22159">
        <ele>434.1</ele>
        <time>2019-10-14T13:05:34Z</time>
      </trkpt>
      <trkpt lat="45.81271" lon="4.22157">
        <ele>433.5</ele>
        <time>2019-10-14T13:05:38Z</time>
      </trkpt>
      <trkpt lat="45.81265" lon="4.22156">
        <ele>432.8</ele>
        <time>2019-10-14T13:05:43Z</time>
      </trkpt>
      <trkpt lat="45.8126" lon="4.22156">
        <ele>432</ele>
        <time>2019-10-14T13:05:48Z</time>
      </trkpt>
      <trkpt lat="45.81254" lon="4.22155">
        <ele>431.4</ele>
        <time>2019-10-14T13:05:53Z</time>
      </trkpt>
      <trkpt lat="45.8125" lon="4.22154">
        <ele>430.8</ele>
        <time>2019-10-14T13:05:57Z</time>
      </trkpt>
      <trkpt lat="45.81244" lon="4.22153">
        <ele>430.3</ele>
        <time>2019-10-14T13:06:01Z</time>
      </trkpt>
      <trkpt lat="45.8124" lon="4.22152">
        <ele>429.5</ele>
        <time>2019-10-14T13:06:08Z</time>
      </trkpt>
      <trkpt lat="45.81234" lon="4.22152">
        <ele>429</ele>
        <time>2019-10-14T13:06:12Z</time>
      </trkpt>
      <trkpt lat="45.81229" lon="4.22151">
        <ele>428.5</ele>
        <time>2019-10-14T13:06:16Z</time>
      </trkpt>
      <trkpt lat="45.81224" lon="4.22151">
        <ele>428</ele>
        <time>2019-10-14T13:06:21Z</time>
      </trkpt>
      <trkpt lat="45.81219" lon="4.22151">
        <ele>427.6</ele>
        <time>2019-10-14T13:06:25Z</time>
      </trkpt>
      <trkpt lat="45.81213" lon="4.22148">
        <ele>427.2</ele>
        <time>2019-10-14T13:06:29Z</time>
      </trkpt>
      <trkpt lat="45.81208" lon="4.22143">
        <ele>426.9</ele>
        <time>2019-10-14T13:06:32Z</time>
      </trkpt>
      <trkpt lat="45.81203" lon="4.22141">
        <ele>426.6</ele>
        <time>2019-10-14T13:06:35Z</time>
      </trkpt>
      <trkpt lat="45.81198" lon="4.22138">
        <ele>426.3</ele>
        <time>2019-10-14T13:06:38Z</time>
      </trkpt>
      <trkpt lat="45.81193" lon="4.22135">
        <ele>425.9</ele>
        <time>2019-10-14T13:06:42Z</time>
      </trkpt>
      <trkpt lat="45.81189" lon="4.22132">
        <ele>425.2</ele>
        <time>2019-10-14T13:06:49Z</time>
      </trkpt>
      <trkpt lat="45.81184" lon="4.2213">
        <ele>424.7</ele>
        <time>2019-10-14T13:06:54Z</time>
      </trkpt>
      <trkpt lat="45.8118" lon="4.22128">
        <ele>424</ele>
        <time>2019-10-14T13:07:03Z</time>
      </trkpt>
      <trkpt lat="45.81176" lon="4.22125">
        <ele>423.6</ele>
        <time>2019-10-14T13:07:08Z</time>
      </trkpt>
      <trkpt lat="45.81171" lon="4.22124">
        <ele>423.3</ele>
        <time>2019-10-14T13:07:13Z</time>
      </trkpt>
      <trkpt lat="45.81167" lon="4.22121">
        <ele>422.8</ele>
        <time>2019-10-14T13:07:19Z</time>
      </trkpt>
      <trkpt lat="45.81162" lon="4.22118">
        <ele>422.5</ele>
        <time>2019-10-14T13:07:24Z</time>
      </trkpt>
      <trkpt lat="45.81156" lon="4.22115">
        <ele>422.2</ele>
        <time>2019-10-14T13:07:28Z</time>
      </trkpt>
      <trkpt lat="45.81152" lon="4.22112">
        <ele>421.9</ele>
        <time>2019-10-14T13:07:32Z</time>
      </trkpt>
      <trkpt lat="45.81147" lon="4.2211">
        <ele>421.5</ele>
        <time>2019-10-14T13:07:37Z</time>
      </trkpt>
      <trkpt lat="45.81142" lon="4.22109">
        <ele>421.2</ele>
        <time>2019-10-14T13:07:42Z</time>
      </trkpt>
      <trkpt lat="45.81137" lon="4.22108">
        <ele>420.8</ele>
        <time>2019-10-14T13:07:47Z</time>
      </trkpt>
      <trkpt lat="45.81133" lon="4.22108">
        <ele>420.5</ele>
        <time>2019-10-14T13:07:51Z</time>
      </trkpt>
      <trkpt lat="45.81127" lon="4.22108">
        <ele>420.1</ele>
        <time>2019-10-14T13:07:56Z</time>
      </trkpt>
      <trkpt lat="45.81122" lon="4.22106">
        <ele>419.9</ele>
        <time>2019-10-14T13:07:59Z</time>
      </trkpt>
      <trkpt lat="45.81117" lon="4.22103">
        <ele>419.6</ele>
        <time>2019-10-14T13:08:03Z</time>
      </trkpt>
      <trkpt lat="45.81112" lon="4.22103">
        <ele>419.3</ele>
        <time>2019-10-14T13:08:07Z</time>
      </trkpt>
      <trkpt lat="45.81107" lon="4.22101">
        <ele>419</ele>
        <time>2019-10-14T13:08:11Z</time>
      </trkpt>
      <trkpt lat="45.81102" lon="4.22098">
        <ele>418.7</ele>
        <time>2019-10-14T13:08:15Z</time>
      </trkpt>
      <trkpt lat="45.81097" lon="4.22095">
        <ele>418.4</ele>
        <time>2019-10-14T13:08:19Z</time>
      </trkpt>
      <trkpt lat="45.81093" lon="4.22092">
        <ele>418.2</ele>
        <time>2019-10-14T13:08:22Z</time>
      </trkpt>
      <trkpt lat="45.81089" lon="4.2209">
        <ele>418</ele>
        <time>2019-10-14T13:08:25Z</time>
      </trkpt>
      <trkpt lat="45.81085" lon="4.22087">
        <ele>417.8</ele>
        <time>2019-10-14T13:08:28Z</time>
      </trkpt>
      <trkpt lat="45.8108" lon="4.22085">
        <ele>417.5</ele>
        <time>2019-10-14T13:08:32Z</time>
      </trkpt>
      <trkpt lat="45.81075" lon="4.22083">
        <ele>417.2</ele>
        <time>2019-10-14T13:08:37Z</time>
      </trkpt>
      <trkpt lat="45.8107" lon="4.22081">
        <ele>416.8</ele>
        <time>2019-10-14T13:08:42Z</time>
      </trkpt>
      <trkpt lat="45.81066" lon="4.22078">
        <ele>416.6</ele>
        <time>2019-10-14T13:08:45Z</time>
      </trkpt>
      <trkpt lat="45.81062" lon="4.22074">
        <ele>416.4</ele>
        <time>2019-10-14T13:08:48Z</time>
      </trkpt>
      <trkpt lat="45.81058" lon="4.22071">
        <ele>416.1</ele>
        <time>2019-10-14T13:08:51Z</time>
      </trkpt>
      <trkpt lat="45.81053" lon="4.22073">
        <ele>415.5</ele>
        <time>2019-10-14T13:08:58Z</time>
      </trkpt>
      <trkpt lat="45.81049" lon="4.22076">
        <ele>414.7</ele>
        <time>2019-10-14T13:09:07Z</time>
      </trkpt>
      <trkpt lat="45.81045" lon="4.22082">
        <ele>414.3</ele>
        <time>2019-10-14T13:09:12Z</time>
      </trkpt>
      <trkpt lat="45.8104" lon="4.22086">
        <ele>413.9</ele>
        <time>2019-10-14T13:09:17Z</time>
      </trkpt>
      <trkpt lat="45.81037" lon="4.22091">
        <ele>413.5</ele>
        <time>2019-10-14T13:09:21Z</time>
      </trkpt>
      <trkpt lat="45.81034" lon="4.22097">
        <ele>413.3</ele>
        <time>2019-10-14T13:09:24Z</time>
      </trkpt>
      <trkpt lat="45.81031" lon="4.22102">
        <ele>413</ele>
        <time>2019-10-14T13:09:27Z</time>
      </trkpt>
      <trkpt lat="45.81027" lon="4.22107">
        <ele>412.6</ele>
        <time>2019-10-14T13:09:31Z</time>
      </trkpt>
      <trkpt lat="45.81022" lon="4.22112">
        <ele>412.3</ele>
        <time>2019-10-14T13:09:34Z</time>
      </trkpt>
      <trkpt lat="45.81018" lon="4.22117">
        <ele>412.1</ele>
        <time>2019-10-14T13:09:37Z</time>
      </trkpt>
      <trkpt lat="45.81014" lon="4.22121">
        <ele>411.7</ele>
        <time>2019-10-14T13:09:41Z</time>
      </trkpt>
      <trkpt lat="45.81009" lon="4.22123">
        <ele>411.4</ele>
        <time>2019-10-14T13:09:45Z</time>
      </trkpt>
      <trkpt lat="45.81003" lon="4.22126">
        <ele>411.1</ele>
        <time>2019-10-14T13:09:49Z</time>
      </trkpt>
      <trkpt lat="45.80999" lon="4.22126">
        <ele>410.7</ele>
        <time>2019-10-14T13:09:53Z</time>
      </trkpt>
      <trkpt lat="45.80993" lon="4.22125">
        <ele>410.3</ele>
        <time>2019-10-14T13:09:58Z</time>
      </trkpt>
      <trkpt lat="45.80988" lon="4.22127">
        <ele>409.9</ele>
        <time>2019-10-14T13:10:04Z</time>
      </trkpt>
      <trkpt lat="45.80984" lon="4.22127">
        <ele>409.6</ele>
        <time>2019-10-14T13:10:08Z</time>
      </trkpt>
      <trkpt lat="45.80979" lon="4.22126">
        <ele>409.3</ele>
        <time>2019-10-14T13:10:12Z</time>
      </trkpt>
      <trkpt lat="45.80974" lon="4.22125">
        <ele>409</ele>
        <time>2019-10-14T13:10:16Z</time>
      </trkpt>
      <trkpt lat="45.8097" lon="4.22124">
        <ele>408.8</ele>
        <time>2019-10-14T13:10:19Z</time>
      </trkpt>
      <trkpt lat="45.80965" lon="4.22124">
        <ele>408.5</ele>
        <time>2019-10-14T13:10:23Z</time>
      </trkpt>
      <trkpt lat="45.8096" lon="4.22123">
        <ele>408.3</ele>
        <time>2019-10-14T13:10:27Z</time>
      </trkpt>
      <trkpt lat="45.80955" lon="4.22122">
        <ele>408.1</ele>
        <time>2019-10-14T13:10:30Z</time>
      </trkpt>
      <trkpt lat="45.8095" lon="4.2212">
        <ele>407.9</ele>
        <time>2019-10-14T13:10:33Z</time>
      </trkpt>
      <trkpt lat="45.80946" lon="4.22118">
        <ele>407.7</ele>
        <time>2019-10-14T13:10:36Z</time>
      </trkpt>
      <trkpt lat="45.80941" lon="4.22117">
        <ele>407.5</ele>
        <time>2019-10-14T13:10:40Z</time>
      </trkpt>
      <trkpt lat="45.80936" lon="4.22117">
        <ele>407.2</ele>
        <time>2019-10-14T13:10:44Z</time>
      </trkpt>
      <trkpt lat="45.80932" lon="4.22123">
        <ele>407</ele>
        <time>2019-10-14T13:10:49Z</time>
      </trkpt>
      <trkpt lat="45.80931" lon="4.2213">
        <ele>406.7</ele>
        <time>2019-10-14T13:10:54Z</time>
      </trkpt>
      <trkpt lat="45.80932" lon="4.22137">
        <ele>406.3</ele>
        <time>2019-10-14T13:10:59Z</time>
      </trkpt>
      <trkpt lat="45.80932" lon="4.22144">
        <ele>406.1</ele>
        <time>2019-10-14T13:11:03Z</time>
      </trkpt>
      <trkpt lat="45.80932" lon="4.22151">
        <ele>405.8</ele>
        <time>2019-10-14T13:11:07Z</time>
      </trkpt>
      <trkpt lat="45.80932" lon="4.22159">
        <ele>405.5</ele>
        <time>2019-10-14T13:11:11Z</time>
      </trkpt>
      <trkpt lat="45.80933" lon="4.22166">
        <ele>405</ele>
        <time>2019-10-14T13:11:16Z</time>
      </trkpt>
      <trkpt lat="45.80933" lon="4.22172">
        <ele>404.3</ele>
        <time>2019-10-14T13:11:23Z</time>
      </trkpt>
      <trkpt lat="45.80934" lon="4.2218">
        <ele>403.9</ele>
        <time>2019-10-14T13:11:28Z</time>
      </trkpt>
      <trkpt lat="45.80934" lon="4.22187">
        <ele>403.4</ele>
        <time>2019-10-14T13:11:33Z</time>
      </trkpt>
      <trkpt lat="45.80935" lon="4.22194">
        <ele>402.9</ele>
        <time>2019-10-14T13:11:38Z</time>
      </trkpt>
      <trkpt lat="45.80936" lon="4.222">
        <ele>402.2</ele>
        <time>2019-10-14T13:11:46Z</time>
      </trkpt>
      <trkpt lat="45.80938" lon="4.22206">
        <ele>401.7</ele>
        <time>2019-10-14T13:11:52Z</time>
      </trkpt>
      <trkpt lat="45.8094" lon="4.22213">
        <ele>401.2</ele>
        <time>2019-10-14T13:11:58Z</time>
      </trkpt>
      <trkpt lat="45.80942" lon="4.2222">
        <ele>400.8</ele>
        <time>2019-10-14T13:12:03Z</time>
      </trkpt>
      <trkpt lat="45.80944" lon="4.22228">
        <ele>400.4</ele>
        <time>2019-10-14T13:12:08Z</time>
      </trkpt>
      <trkpt lat="45.80945" lon="4.22235">
        <ele>399.9</ele>
        <time>2019-10-14T13:12:14Z</time>
      </trkpt>
      <trkpt lat="45.80946" lon="4.22242">
        <ele>399.5</ele>
        <time>2019-10-14T13:12:20Z</time>
      </trkpt>
      <trkpt lat="45.80947" lon="4.22249">
        <ele>399.2</ele>
        <time>2019-10-14T13:12:24Z</time>
      </trkpt>
      <trkpt lat="45.80948" lon="4.22256">
        <ele>398.9</ele>
        <time>2019-10-14T13:12:28Z</time>
      </trkpt>
      <trkpt lat="45.80949" lon="4.22263">
        <ele>398.6</ele>
        <time>2019-10-14T13:12:33Z</time>
      </trkpt>
      <trkpt lat="45.8095" lon="4.2227">
        <ele>398.3</ele>
        <time>2019-10-14T13:12:37Z</time>
      </trkpt>
      <trkpt lat="45.80952" lon="4.22277">
        <ele>398.1</ele>
        <time>2019-10-14T13:12:41Z</time>
      </trkpt>
      <trkpt lat="45.80954" lon="4.22283">
        <ele>397.8</ele>
        <time>2019-10-14T13:12:45Z</time>
      </trkpt>
      <trkpt lat="45.80956" lon="4.2229">
        <ele>397.5</ele>
        <time>2019-10-14T13:12:50Z</time>
      </trkpt>
      <trkpt lat="45.80957" lon="4.22297">
        <ele>397.3</ele>
        <time>2019-10-14T13:12:54Z</time>
      </trkpt>
      <trkpt lat="45.80959" lon="4.22303">
        <ele>397.1</ele>
        <time>2019-10-14T13:12:59Z</time>
      </trkpt>
      <trkpt lat="45.80962" lon="4.22309">
        <ele>396.9</ele>
        <time>2019-10-14T13:13:03Z</time>
      </trkpt>
      <trkpt lat="45.80965" lon="4.22314">
        <ele>396.8</ele>
        <time>2019-10-14T13:13:07Z</time>
      </trkpt>
      <trkpt lat="45.80969" lon="4.22319">
        <ele>396.6</ele>
        <time>2019-10-14T13:13:12Z</time>
      </trkpt>
      <trkpt lat="45.80972" lon="4.22325">
        <ele>396.4</ele>
        <time>2019-10-14T13:13:16Z</time>
      </trkpt>
      <trkpt lat="45.80975" lon="4.22331">
        <ele>396.3</ele>
        <time>2019-10-14T13:13:21Z</time>
      </trkpt>
      <trkpt lat="45.80978" lon="4.22336">
        <ele>396.1</ele>
        <time>2019-10-14T13:13:26Z</time>
      </trkpt>
      <trkpt lat="45.8098" lon="4.22342">
        <ele>396</ele>
        <time>2019-10-14T13:13:31Z</time>
      </trkpt>
      <trkpt lat="45.80982" lon="4.22349">
        <ele>395.9</ele>
        <time>2019-10-14T13:13:36Z</time>
      </trkpt>
      <trkpt lat="45.80981" lon="4.22357">
        <ele>395.8</ele>
        <time>2019-10-14T13:13:42Z</time>
      </trkpt>
      <trkpt lat="45.80982" lon="4.22364">
        <ele>395.8</ele>
        <time>2019-10-14T13:13:47Z</time>
      </trkpt>
      <trkpt lat="45.80983" lon="4.2237">
        <ele>395.7</ele>
        <time>2019-10-14T13:13:51Z</time>
      </trkpt>
      <trkpt lat="45.80984" lon="4.22378">
        <ele>395.7</ele>
        <time>2019-10-14T13:13:56Z</time>
      </trkpt>
      <trkpt lat="45.80985" lon="4.22385">
        <ele>395.6</ele>
        <time>2019-10-14T13:14:01Z</time>
      </trkpt>
      <trkpt lat="45.80985" lon="4.22392">
        <ele>395.6</ele>
        <time>2019-10-14T13:14:05Z</time>
      </trkpt>
      <trkpt lat="45.80985" lon="4.224">
        <ele>395.6</ele>
        <time>2019-10-14T13:14:10Z</time>
      </trkpt>
      <trkpt lat="45.80986" lon="4.22408">
        <ele>395.5</ele>
        <time>2019-10-14T13:14:14Z</time>
      </trkpt>
      <trkpt lat="45.80986" lon="4.22415">
        <ele>395.5</ele>
        <time>2019-10-14T13:14:18Z</time>
      </trkpt>
      <trkpt lat="45.80987" lon="4.22421">
        <ele>395.4</ele>
        <time>2019-10-14T13:14:23Z</time>
      </trkpt>
      <trkpt lat="45.80988" lon="4.22428">
        <ele>395.4</ele>
        <time>2019-10-14T13:14:29Z</time>
      </trkpt>
      <trkpt lat="45.80988" lon="4.22436">
        <ele>395.4</ele>
        <time>2019-10-14T13:14:34Z</time>
      </trkpt>
      <trkpt lat="45.80989" lon="4.22443">
        <ele>395.3</ele>
        <time>2019-10-14T13:14:38Z</time>
      </trkpt>
      <trkpt lat="45.80991" lon="4.2245">
        <ele>395.3</ele>
        <time>2019-10-14T13:14:42Z</time>
      </trkpt>
      <trkpt lat="45.80992" lon="4.22457">
        <ele>395.2</ele>
        <time>2019-10-14T13:14:47Z</time>
      </trkpt>
      <trkpt lat="45.80994" lon="4.22464">
        <ele>395.2</ele>
        <time>2019-10-14T13:14:51Z</time>
      </trkpt>
      <trkpt lat="45.80995" lon="4.2247">
        <ele>395.2</ele>
        <time>2019-10-14T13:14:55Z</time>
      </trkpt>
      <trkpt lat="45.80996" lon="4.22477">
        <ele>395.2</ele>
        <time>2019-10-14T13:14:59Z</time>
      </trkpt>
      <trkpt lat="45.80997" lon="4.22484">
        <ele>395.2</ele>
        <time>2019-10-14T13:15:04Z</time>
      </trkpt>
      <trkpt lat="45.80998" lon="4.22491">
        <ele>395.2</ele>
        <time>2019-10-14T13:15:08Z</time>
      </trkpt>
      <trkpt lat="45.81" lon="4.22499">
        <ele>395.2</ele>
        <time>2019-10-14T13:15:12Z</time>
      </trkpt>
      <trkpt lat="45.81002" lon="4.22505">
        <ele>395.2</ele>
        <time>2019-10-14T13:15:16Z</time>
      </trkpt>
      <trkpt lat="45.81003" lon="4.22513">
        <ele>395.3</ele>
        <time>2019-10-14T13:15:21Z</time>
      </trkpt>
      <trkpt lat="45.81004" lon="4.2252">
        <ele>395.3</ele>
        <time>2019-10-14T13:15:26Z</time>
      </trkpt>
      <trkpt lat="45.81006" lon="4.22527">
        <ele>395.3</ele>
        <time>2019-10-14T13:15:30Z</time>
      </trkpt>
      <trkpt lat="45.81007" lon="4.22534">
        <ele>395.4</ele>
        <time>2019-10-14T13:15:34Z</time>
      </trkpt>
      <trkpt lat="45.81009" lon="4.2254">
        <ele>395.4</ele>
        <time>2019-10-14T13:15:38Z</time>
      </trkpt>
      <trkpt lat="45.81011" lon="4.22546">
        <ele>395.5</ele>
        <time>2019-10-14T13:15:42Z</time>
      </trkpt>
      <trkpt lat="45.81012" lon="4.22553">
        <ele>395.5</ele>
        <time>2019-10-14T13:15:46Z</time>
      </trkpt>
      <trkpt lat="45.81014" lon="4.22561">
        <ele>395.6</ele>
        <time>2019-10-14T13:15:51Z</time>
      </trkpt>
      <trkpt lat="45.81015" lon="4.22567">
        <ele>395.6</ele>
        <time>2019-10-14T13:15:55Z</time>
      </trkpt>
      <trkpt lat="45.81016" lon="4.22574">
        <ele>395.7</ele>
        <time>2019-10-14T13:16:03Z</time>
      </trkpt>
      <trkpt lat="45.81016" lon="4.22581">
        <ele>395.8</ele>
        <time>2019-10-14T13:16:08Z</time>
      </trkpt>
      <trkpt lat="45.81016" lon="4.22588">
        <ele>395.8</ele>
        <time>2019-10-14T13:16:12Z</time>
      </trkpt>
      <trkpt lat="45.81017" lon="4.22596">
        <ele>395.9</ele>
        <time>2019-10-14T13:16:17Z</time>
      </trkpt>
      <trkpt lat="45.81018" lon="4.22602">
        <ele>395.9</ele>
        <time>2019-10-14T13:16:21Z</time>
      </trkpt>
      <trkpt lat="45.81018" lon="4.22609">
        <ele>396</ele>
        <time>2019-10-14T13:16:25Z</time>
      </trkpt>
      <trkpt lat="45.81018" lon="4.22616">
        <ele>396.1</ele>
        <time>2019-10-14T13:16:31Z</time>
      </trkpt>
      <trkpt lat="45.81019" lon="4.22624">
        <ele>396.1</ele>
        <time>2019-10-14T13:16:36Z</time>
      </trkpt>
      <trkpt lat="45.8102" lon="4.22632">
        <ele>396.2</ele>
        <time>2019-10-14T13:16:40Z</time>
      </trkpt>
      <trkpt lat="45.81021" lon="4.22639">
        <ele>396.2</ele>
        <time>2019-10-14T13:16:43Z</time>
      </trkpt>
      <trkpt lat="45.81022" lon="4.22645">
        <ele>396.3</ele>
        <time>2019-10-14T13:16:46Z</time>
      </trkpt>
      <trkpt lat="45.81023" lon="4.22653">
        <ele>396.3</ele>
        <time>2019-10-14T13:16:50Z</time>
      </trkpt>
      <trkpt lat="45.81024" lon="4.2266">
        <ele>396.4</ele>
        <time>2019-10-14T13:16:54Z</time>
      </trkpt>
      <trkpt lat="45.81024" lon="4.22666">
        <ele>396.5</ele>
        <time>2019-10-14T13:16:58Z</time>
      </trkpt>
      <trkpt lat="45.81024" lon="4.22674">
        <ele>396.5</ele>
        <time>2019-10-14T13:17:03Z</time>
      </trkpt>
      <trkpt lat="45.81025" lon="4.22681">
        <ele>396.6</ele>
        <time>2019-10-14T13:17:09Z</time>
      </trkpt>
      <trkpt lat="45.81027" lon="4.22688">
        <ele>396.7</ele>
        <time>2019-10-14T13:17:14Z</time>
      </trkpt>
      <trkpt lat="45.81028" lon="4.22694">
        <ele>396.7</ele>
        <time>2019-10-14T13:17:19Z</time>
      </trkpt>
      <trkpt lat="45.81029" lon="4.22702">
        <ele>396.8</ele>
        <time>2019-10-14T13:17:25Z</time>
      </trkpt>
      <trkpt lat="45.81029" lon="4.22709">
        <ele>396.8</ele>
        <time>2019-10-14T13:17:32Z</time>
      </trkpt>
      <trkpt lat="45.81028" lon="4.22716">
        <ele>396.8</ele>
        <time>2019-10-14T13:17:42Z</time>
      </trkpt>
      <trkpt lat="45.81028" lon="4.22722">
        <ele>396.9</ele>
        <time>2019-10-14T13:17:59Z</time>
      </trkpt>
      <trkpt lat="45.81028" lon="4.22729">
        <ele>397.3</ele>
        <time>2019-10-14T13:18:51Z</time>
      </trkpt>
      <trkpt lat="45.81026" lon="4.22735">
        <ele>397.4</ele>
        <time>2019-10-14T13:18:58Z</time>
      </trkpt>
      <trkpt lat="45.81025" lon="4.22743">
        <ele>397.5</ele>
        <time>2019-10-14T13:19:04Z</time>
      </trkpt>
      <trkpt lat="45.81025" lon="4.2275">
        <ele>397.5</ele>
        <time>2019-10-14T13:19:10Z</time>
      </trkpt>
      <trkpt lat="45.81024" lon="4.22757">
        <ele>397.6</ele>
        <time>2019-10-14T13:19:15Z</time>
      </trkpt>
      <trkpt lat="45.81023" lon="4.22763">
        <ele>397.6</ele>
        <time>2019-10-14T13:19:19Z</time>
      </trkpt>
      <trkpt lat="45.81021" lon="4.2277">
        <ele>397.7</ele>
        <time>2019-10-14T13:19:24Z</time>
      </trkpt>
      <trkpt lat="45.8102" lon="4.22777">
        <ele>397.7</ele>
        <time>2019-10-14T13:19:29Z</time>
      </trkpt>
      <trkpt lat="45.81021" lon="4.22784">
        <ele>397.7</ele>
        <time>2019-10-14T13:19:33Z</time>
      </trkpt>
      <trkpt lat="45.81022" lon="4.22791">
        <ele>397.8</ele>
        <time>2019-10-14T13:19:37Z</time>
      </trkpt>
      <trkpt lat="45.81022" lon="4.22799">
        <ele>397.9</ele>
        <time>2019-10-14T13:19:42Z</time>
      </trkpt>
      <trkpt lat="45.81023" lon="4.22806">
        <ele>397.9</ele>
        <time>2019-10-14T13:19:46Z</time>
      </trkpt>
      <trkpt lat="45.81023" lon="4.22812">
        <ele>398</ele>
        <time>2019-10-14T13:19:51Z</time>
      </trkpt>
      <trkpt lat="45.81024" lon="4.22819">
        <ele>398.1</ele>
        <time>2019-10-14T13:19:57Z</time>
      </trkpt>
      <trkpt lat="45.81024" lon="4.22826">
        <ele>398.1</ele>
        <time>2019-10-14T13:20:03Z</time>
      </trkpt>
      <trkpt lat="45.81023" lon="4.22833">
        <ele>398.2</ele>
        <time>2019-10-14T13:20:08Z</time>
      </trkpt>
      <trkpt lat="45.81022" lon="4.2284">
        <ele>398.3</ele>
        <time>2019-10-14T13:20:13Z</time>
      </trkpt>
      <trkpt lat="45.81022" lon="4.22847">
        <ele>398.3</ele>
        <time>2019-10-14T13:20:19Z</time>
      </trkpt>
      <trkpt lat="45.81022" lon="4.22856">
        <ele>398.4</ele>
        <time>2019-10-14T13:20:25Z</time>
      </trkpt>
      <trkpt lat="45.81022" lon="4.22863">
        <ele>398.5</ele>
        <time>2019-10-14T13:20:30Z</time>
      </trkpt>
      <trkpt lat="45.81023" lon="4.22871">
        <ele>398.5</ele>
        <time>2019-10-14T13:20:35Z</time>
      </trkpt>
      <trkpt lat="45.81023" lon="4.22877">
        <ele>398.5</ele>
        <time>2019-10-14T13:20:40Z</time>
      </trkpt>
      <trkpt lat="45.81023" lon="4.22885">
        <ele>398.6</ele>
        <time>2019-10-14T13:20:45Z</time>
      </trkpt>
      <trkpt lat="45.81023" lon="4.22893">
        <ele>398.6</ele>
        <time>2019-10-14T13:20:49Z</time>
      </trkpt>
      <trkpt lat="45.81023" lon="4.229">
        <ele>398.6</ele>
        <time>2019-10-14T13:20:54Z</time>
      </trkpt>
      <trkpt lat="45.81024" lon="4.22907">
        <ele>398.7</ele>
        <time>2019-10-14T13:20:58Z</time>
      </trkpt>
      <trkpt lat="45.81025" lon="4.22914">
        <ele>398.7</ele>
        <time>2019-10-14T13:21:03Z</time>
      </trkpt>
      <trkpt lat="45.81026" lon="4.22922">
        <ele>398.8</ele>
        <time>2019-10-14T13:21:08Z</time>
      </trkpt>
      <trkpt lat="45.81026" lon="4.22928">
        <ele>398.9</ele>
        <time>2019-10-14T13:21:16Z</time>
      </trkpt>
      <trkpt lat="45.81027" lon="4.22936">
        <ele>399</ele>
        <time>2019-10-14T13:21:22Z</time>
      </trkpt>
      <trkpt lat="45.81026" lon="4.22942">
        <ele>399</ele>
        <time>2019-10-14T13:21:27Z</time>
      </trkpt>
      <trkpt lat="45.81025" lon="4.22949">
        <ele>399.1</ele>
        <time>2019-10-14T13:21:32Z</time>
      </trkpt>
      <trkpt lat="45.81024" lon="4.22956">
        <ele>399.2</ele>
        <time>2019-10-14T13:21:38Z</time>
      </trkpt>
      <trkpt lat="45.81024" lon="4.22963">
        <ele>399.3</ele>
        <time>2019-10-14T13:21:43Z</time>
      </trkpt>
      <trkpt lat="45.81024" lon="4.2297">
        <ele>399.3</ele>
        <time>2019-10-14T13:21:48Z</time>
      </trkpt>
      <trkpt lat="45.81023" lon="4.22977">
        <ele>399.4</ele>
        <time>2019-10-14T13:21:53Z</time>
      </trkpt>
      <trkpt lat="45.81021" lon="4.22985">
        <ele>399.5</ele>
        <time>2019-10-14T13:21:58Z</time>
      </trkpt>
      <trkpt lat="45.8102" lon="4.22992">
        <ele>399.6</ele>
        <time>2019-10-14T13:22:03Z</time>
      </trkpt>
      <trkpt lat="45.81018" lon="4.22999">
        <ele>399.7</ele>
        <time>2019-10-14T13:22:09Z</time>
      </trkpt>
      <trkpt lat="45.81017" lon="4.23006">
        <ele>399.8</ele>
        <time>2019-10-14T13:22:14Z</time>
      </trkpt>
      <trkpt lat="45.81015" lon="4.23012">
        <ele>399.9</ele>
        <time>2019-10-14T13:22:21Z</time>
      </trkpt>
      <trkpt lat="45.81012" lon="4.23018">
        <ele>400.1</ele>
        <time>2019-10-14T13:22:27Z</time>
      </trkpt>
      <trkpt lat="45.8101" lon="4.23024">
        <ele>400.3</ele>
        <time>2019-10-14T13:22:32Z</time>
      </trkpt>
      <trkpt lat="45.81008" lon="4.23031">
        <ele>400.4</ele>
        <time>2019-10-14T13:22:37Z</time>
      </trkpt>
      <trkpt lat="45.81007" lon="4.23037">
        <ele>400.5</ele>
        <time>2019-10-14T13:22:42Z</time>
      </trkpt>
      <trkpt lat="45.81006" lon="4.23044">
        <ele>400.6</ele>
        <time>2019-10-14T13:22:47Z</time>
      </trkpt>
      <trkpt lat="45.81005" lon="4.23051">
        <ele>400.8</ele>
        <time>2019-10-14T13:22:54Z</time>
      </trkpt>
      <trkpt lat="45.81005" lon="4.23057">
        <ele>400.9</ele>
        <time>2019-10-14T13:22:59Z</time>
      </trkpt>
      <trkpt lat="45.81005" lon="4.23064">
        <ele>401</ele>
        <time>2019-10-14T13:23:04Z</time>
      </trkpt>
      <trkpt lat="45.81005" lon="4.23071">
        <ele>401.1</ele>
        <time>2019-10-14T13:23:09Z</time>
      </trkpt>
      <trkpt lat="45.81004" lon="4.23078">
        <ele>401.2</ele>
        <time>2019-10-14T13:23:15Z</time>
      </trkpt>
      <trkpt lat="45.81004" lon="4.23086">
        <ele>401.3</ele>
        <time>2019-10-14T13:23:21Z</time>
      </trkpt>
      <trkpt lat="45.81004" lon="4.23093">
        <ele>401.4</ele>
        <time>2019-10-14T13:23:25Z</time>
      </trkpt>
      <trkpt lat="45.81004" lon="4.231">
        <ele>401.5</ele>
        <time>2019-10-14T13:23:30Z</time>
      </trkpt>
      <trkpt lat="45.81004" lon="4.23108">
        <ele>401.5</ele>
        <time>2019-10-14T13:23:34Z</time>
      </trkpt>
      <trkpt lat="45.81005" lon="4.23115">
        <ele>401.6</ele>
        <time>2019-10-14T13:23:37Z</time>
      </trkpt>
      <trkpt lat="45.81005" lon="4.23123">
        <ele>401.6</ele>
        <time>2019-10-14T13:23:41Z</time>
      </trkpt>
      <trkpt lat="45.81005" lon="4.2313">
        <ele>401.7</ele>
        <time>2019-10-14T13:23:45Z</time>
      </trkpt>
      <trkpt lat="45.81005" lon="4.23137">
        <ele>401.8</ele>
        <time>2019-10-14T13:23:50Z</time>
      </trkpt>
      <trkpt lat="45.81005" lon="4.23145">
        <ele>402</ele>
        <time>2019-10-14T13:23:55Z</time>
      </trkpt>
      <trkpt lat="45.81006" lon="4.23151">
        <ele>402.1</ele>
        <time>2019-10-14T13:24:00Z</time>
      </trkpt>
      <trkpt lat="45.81006" lon="4.23158">
        <ele>402.2</ele>
        <time>2019-10-14T13:24:04Z</time>
      </trkpt>
      <trkpt lat="45.81005" lon="4.23164">
        <ele>402.4</ele>
        <time>2019-10-14T13:24:08Z</time>
      </trkpt>
      <trkpt lat="45.81004" lon="4.23171">
        <ele>402.5</ele>
        <time>2019-10-14T13:24:13Z</time>
      </trkpt>
      <trkpt lat="45.81004" lon="4.23178">
        <ele>402.6</ele>
        <time>2019-10-14T13:24:17Z</time>
      </trkpt>
      <trkpt lat="45.81003" lon="4.23186">
        <ele>402.8</ele>
        <time>2019-10-14T13:24:21Z</time>
      </trkpt>
      <trkpt lat="45.81002" lon="4.23192">
        <ele>403</ele>
        <time>2019-10-14T13:24:26Z</time>
      </trkpt>
      <trkpt lat="45.81002" lon="4.232">
        <ele>403.2</ele>
        <time>2019-10-14T13:24:32Z</time>
      </trkpt>
      <trkpt lat="45.81" lon="4.23207">
        <ele>403.5</ele>
        <time>2019-10-14T13:24:40Z</time>
      </trkpt>
      <trkpt lat="45.81" lon="4.23214">
        <ele>403.7</ele>
        <time>2019-10-14T13:24:45Z</time>
      </trkpt>
      <trkpt lat="45.81" lon="4.23221">
        <ele>403.9</ele>
        <time>2019-10-14T13:24:50Z</time>
      </trkpt>
      <trkpt lat="45.81" lon="4.23229">
        <ele>404.1</ele>
        <time>2019-10-14T13:24:55Z</time>
      </trkpt>
      <trkpt lat="45.80999" lon="4.23235">
        <ele>404.4</ele>
        <time>2019-10-14T13:25:04Z</time>
      </trkpt>
      <trkpt lat="45.81" lon="4.23242">
        <ele>404.6</ele>
        <time>2019-10-14T13:25:09Z</time>
      </trkpt>
      <trkpt lat="45.80999" lon="4.23249">
        <ele>404.9</ele>
        <time>2019-10-14T13:25:16Z</time>
      </trkpt>
      <trkpt lat="45.80999" lon="4.23256">
        <ele>405.2</ele>
        <time>2019-10-14T13:25:26Z</time>
      </trkpt>
      <trkpt lat="45.81001" lon="4.23263">
        <ele>405.3</ele>
        <time>2019-10-14T13:25:29Z</time>
      </trkpt>
      <trkpt lat="45.81003" lon="4.2327">
        <ele>405.5</ele>
        <time>2019-10-14T13:25:32Z</time>
      </trkpt>
      <trkpt lat="45.81003" lon="4.23277">
        <ele>405.8</ele>
        <time>2019-10-14T13:25:40Z</time>
      </trkpt>
      <trkpt lat="45.81003" lon="4.23285">
        <ele>406.1</ele>
        <time>2019-10-14T13:25:47Z</time>
      </trkpt>
      <trkpt lat="45.81004" lon="4.23291">
        <ele>406.2</ele>
        <time>2019-10-14T13:25:51Z</time>
      </trkpt>
      <trkpt lat="45.81004" lon="4.23298">
        <ele>406.5</ele>
        <time>2019-10-14T13:25:58Z</time>
      </trkpt>
      <trkpt lat="45.81004" lon="4.23306">
        <ele>406.8</ele>
        <time>2019-10-14T13:26:04Z</time>
      </trkpt>
      <trkpt lat="45.81003" lon="4.23313">
        <ele>407</ele>
        <time>2019-10-14T13:26:09Z</time>
      </trkpt>
      <trkpt lat="45.81002" lon="4.2332">
        <ele>407.2</ele>
        <time>2019-10-14T13:26:14Z</time>
      </trkpt>
      <trkpt lat="45.81003" lon="4.23327">
        <ele>407.4</ele>
        <time>2019-10-14T13:26:19Z</time>
      </trkpt>
      <trkpt lat="45.81003" lon="4.23335">
        <ele>407.6</ele>
        <time>2019-10-14T13:26:24Z</time>
      </trkpt>
      <trkpt lat="45.81003" lon="4.23342">
        <ele>407.7</ele>
        <time>2019-10-14T13:26:28Z</time>
      </trkpt>
      <trkpt lat="45.81003" lon="4.2335">
        <ele>407.9</ele>
        <time>2019-10-14T13:26:32Z</time>
      </trkpt>
      <trkpt lat="45.81004" lon="4.23357">
        <ele>408.1</ele>
        <time>2019-10-14T13:26:37Z</time>
      </trkpt>
      <trkpt lat="45.81005" lon="4.23364">
        <ele>408.2</ele>
        <time>2019-10-14T13:26:42Z</time>
      </trkpt>
      <trkpt lat="45.81006" lon="4.2337">
        <ele>408.3</ele>
        <time>2019-10-14T13:26:44Z</time>
      </trkpt>
      <trkpt lat="45.81007" lon="4.23378">
        <ele>408.4</ele>
        <time>2019-10-14T13:26:47Z</time>
      </trkpt>
      <trkpt lat="45.81008" lon="4.23385">
        <ele>408.5</ele>
        <time>2019-10-14T13:26:50Z</time>
      </trkpt>
      <trkpt lat="45.81009" lon="4.23392">
        <ele>408.6</ele>
        <time>2019-10-14T13:26:53Z</time>
      </trkpt>
      <trkpt lat="45.8101" lon="4.234">
        <ele>408.8</ele>
        <time>2019-10-14T13:26:58Z</time>
      </trkpt>
      <trkpt lat="45.81011" lon="4.23407">
        <ele>409</ele>
        <time>2019-10-14T13:27:03Z</time>
      </trkpt>
      <trkpt lat="45.8101" lon="4.23413">
        <ele>409.7</ele>
        <time>2019-10-14T13:27:16Z</time>
      </trkpt>
      <trkpt lat="45.81009" lon="4.23419">
        <ele>410</ele>
        <time>2019-10-14T13:27:22Z</time>
      </trkpt>
      <trkpt lat="45.81008" lon="4.23426">
        <ele>410.3</ele>
        <time>2019-10-14T13:27:29Z</time>
      </trkpt>
      <trkpt lat="45.81007" lon="4.23433">
        <ele>410.5</ele>
        <time>2019-10-14T13:27:35Z</time>
      </trkpt>
      <trkpt lat="45.81007" lon="4.2344">
        <ele>410.8</ele>
        <time>2019-10-14T13:27:42Z</time>
      </trkpt>
      <trkpt lat="45.81007" lon="4.23447">
        <ele>411</ele>
        <time>2019-10-14T13:27:47Z</time>
      </trkpt>
      <trkpt lat="45.81007" lon="4.23455">
        <ele>411.2</ele>
        <time>2019-10-14T13:27:51Z</time>
      </trkpt>
      <trkpt lat="45.81007" lon="4.23463">
        <ele>411.4</ele>
        <time>2019-10-14T13:27:55Z</time>
      </trkpt>
      <trkpt lat="45.81008" lon="4.2347">
        <ele>411.5</ele>
        <time>2019-10-14T13:27:59Z</time>
      </trkpt>
      <trkpt lat="45.81007" lon="4.23477">
        <ele>411.7</ele>
        <time>2019-10-14T13:28:03Z</time>
      </trkpt>
      <trkpt lat="45.81007" lon="4.23485">
        <ele>411.9</ele>
        <time>2019-10-14T13:28:08Z</time>
      </trkpt>
      <trkpt lat="45.81008" lon="4.23492">
        <ele>412.1</ele>
        <time>2019-10-14T13:28:13Z</time>
      </trkpt>
      <trkpt lat="45.8101" lon="4.23498">
        <ele>412.2</ele>
        <time>2019-10-14T13:28:17Z</time>
      </trkpt>
      <trkpt lat="45.81012" lon="4.23505">
        <ele>412.5</ele>
        <time>2019-10-14T13:28:23Z</time>
      </trkpt>
      <trkpt lat="45.81014" lon="4.23511">
        <ele>412.7</ele>
        <time>2019-10-14T13:28:27Z</time>
      </trkpt>
      <trkpt lat="45.81016" lon="4.23517">
        <ele>413</ele>
        <time>2019-10-14T13:28:32Z</time>
      </trkpt>
      <trkpt lat="45.81019" lon="4.23523">
        <ele>413.2</ele>
        <time>2019-10-14T13:28:37Z</time>
      </trkpt>
      <trkpt lat="45.81022" lon="4.23528">
        <ele>413.5</ele>
        <time>2019-10-14T13:28:41Z</time>
      </trkpt>
      <trkpt lat="45.81025" lon="4.23534">
        <ele>413.9</ele>
        <time>2019-10-14T13:28:47Z</time>
      </trkpt>
      <trkpt lat="45.81028" lon="4.23538">
        <ele>414.3</ele>
        <time>2019-10-14T13:28:52Z</time>
      </trkpt>
      <trkpt lat="45.81031" lon="4.23545">
        <ele>414.8</ele>
        <time>2019-10-14T13:28:57Z</time>
      </trkpt>
      <trkpt lat="45.81034" lon="4.23551">
        <ele>415.3</ele>
        <time>2019-10-14T13:29:03Z</time>
      </trkpt>
      <trkpt lat="45.81036" lon="4.23558">
        <ele>415.7</ele>
        <time>2019-10-14T13:29:08Z</time>
      </trkpt>
      <trkpt lat="45.81039" lon="4.23564">
        <ele>416.3</ele>
        <time>2019-10-14T13:29:13Z</time>
      </trkpt>
      <trkpt lat="45.81041" lon="4.23569">
        <ele>416.7</ele>
        <time>2019-10-14T13:29:17Z</time>
      </trkpt>
      <trkpt lat="45.81044" lon="4.23574">
        <ele>417.5</ele>
        <time>2019-10-14T13:29:24Z</time>
      </trkpt>
      <trkpt lat="45.81047" lon="4.2358">
        <ele>418</ele>
        <time>2019-10-14T13:29:29Z</time>
      </trkpt>
      <trkpt lat="45.81049" lon="4.23586">
        <ele>418.4</ele>
        <time>2019-10-14T13:29:32Z</time>
      </trkpt>
      <trkpt lat="45.81052" lon="4.23591">
        <ele>418.7</ele>
        <time>2019-10-14T13:29:35Z</time>
      </trkpt>
      <trkpt lat="45.81055" lon="4.23598">
        <ele>419</ele>
        <time>2019-10-14T13:29:38Z</time>
      </trkpt>
      <trkpt lat="45.81058" lon="4.23603">
        <ele>420.7</ele>
        <time>2019-10-14T13:29:53Z</time>
      </trkpt>
      <trkpt lat="45.81062" lon="4.23607">
        <ele>424.9</ele>
        <time>2019-10-14T13:31:22Z</time>
      </trkpt>
      <trkpt lat="45.81066" lon="4.23613">
        <ele>425.7</ele>
        <time>2019-10-14T13:31:26Z</time>
      </trkpt>
      <trkpt lat="45.8107" lon="4.23618">
        <ele>426.3</ele>
        <time>2019-10-14T13:31:29Z</time>
      </trkpt>
      <trkpt lat="45.81073" lon="4.23624">
        <ele>428</ele>
        <time>2019-10-14T13:31:37Z</time>
      </trkpt>
      <trkpt lat="45.81076" lon="4.2363">
        <ele>428.8</ele>
        <time>2019-10-14T13:31:41Z</time>
      </trkpt>
      <trkpt lat="45.81079" lon="4.23635">
        <ele>429.6</ele>
        <time>2019-10-14T13:31:45Z</time>
      </trkpt>
      <trkpt lat="45.81081" lon="4.23642">
        <ele>430.3</ele>
        <time>2019-10-14T13:31:49Z</time>
      </trkpt>
      <trkpt lat="45.81084" lon="4.23647">
        <ele>431</ele>
        <time>2019-10-14T13:31:53Z</time>
      </trkpt>
      <trkpt lat="45.81087" lon="4.23654">
        <ele>431.8</ele>
        <time>2019-10-14T13:31:58Z</time>
      </trkpt>
      <trkpt lat="45.81089" lon="4.2366">
        <ele>432.4</ele>
        <time>2019-10-14T13:32:02Z</time>
      </trkpt>
      <trkpt lat="45.81091" lon="4.23667">
        <ele>433</ele>
        <time>2019-10-14T13:32:06Z</time>
      </trkpt>
      <trkpt lat="45.81093" lon="4.23674">
        <ele>433.8</ele>
        <time>2019-10-14T13:32:11Z</time>
      </trkpt>
      <trkpt lat="45.81096" lon="4.23678">
        <ele>434.6</ele>
        <time>2019-10-14T13:32:17Z</time>
      </trkpt>
      <trkpt lat="45.811" lon="4.23683">
        <ele>435.7</ele>
        <time>2019-10-14T13:32:26Z</time>
      </trkpt>
      <trkpt lat="45.81103" lon="4.23688">
        <ele>436.4</ele>
        <time>2019-10-14T13:32:32Z</time>
      </trkpt>
      <trkpt lat="45.81106" lon="4.23693">
        <ele>436.8</ele>
        <time>2019-10-14T13:32:36Z</time>
      </trkpt>
      <trkpt lat="45.8111" lon="4.23698">
        <ele>437.2</ele>
        <time>2019-10-14T13:32:40Z</time>
      </trkpt>
      <trkpt lat="45.81113" lon="4.23702">
        <ele>437.6</ele>
        <time>2019-10-14T13:32:44Z</time>
      </trkpt>
      <trkpt lat="45.81117" lon="4.23707">
        <ele>438</ele>
        <time>2019-10-14T13:32:48Z</time>
      </trkpt>
      <trkpt lat="45.81121" lon="4.23711">
        <ele>438.3</ele>
        <time>2019-10-14T13:32:52Z</time>
      </trkpt>
      <trkpt lat="45.81124" lon="4.23716">
        <ele>438.7</ele>
        <time>2019-10-14T13:32:56Z</time>
      </trkpt>
      <trkpt lat="45.81128" lon="4.2372">
        <ele>439</ele>
        <time>2019-10-14T13:33:00Z</time>
      </trkpt>
      <trkpt lat="45.81131" lon="4.23726">
        <ele>439.3</ele>
        <time>2019-10-14T13:33:05Z</time>
      </trkpt>
      <trkpt lat="45.81134" lon="4.23732">
        <ele>439.6</ele>
        <time>2019-10-14T13:33:09Z</time>
      </trkpt>
      <trkpt lat="45.81137" lon="4.23738">
        <ele>439.9</ele>
        <time>2019-10-14T13:33:13Z</time>
      </trkpt>
      <trkpt lat="45.81141" lon="4.23743">
        <ele>440.2</ele>
        <time>2019-10-14T13:33:18Z</time>
      </trkpt>
      <trkpt lat="45.81144" lon="4.23748">
        <ele>440.5</ele>
        <time>2019-10-14T13:33:22Z</time>
      </trkpt>
      <trkpt lat="45.81148" lon="4.23753">
        <ele>440.7</ele>
        <time>2019-10-14T13:33:26Z</time>
      </trkpt>
      <trkpt lat="45.81151" lon="4.23757">
        <ele>441</ele>
        <time>2019-10-14T13:33:30Z</time>
      </trkpt>
      <trkpt lat="45.81154" lon="4.23762">
        <ele>441.3</ele>
        <time>2019-10-14T13:33:35Z</time>
      </trkpt>
      <trkpt lat="45.81157" lon="4.23768">
        <ele>441.5</ele>
        <time>2019-10-14T13:33:40Z</time>
      </trkpt>
      <trkpt lat="45.81161" lon="4.23773">
        <ele>441.8</ele>
        <time>2019-10-14T13:33:45Z</time>
      </trkpt>
      <trkpt lat="45.81165" lon="4.23778">
        <ele>442.1</ele>
        <time>2019-10-14T13:33:50Z</time>
      </trkpt>
      <trkpt lat="45.81168" lon="4.23783">
        <ele>442.4</ele>
        <time>2019-10-14T13:33:55Z</time>
      </trkpt>
      <trkpt lat="45.81171" lon="4.23788">
        <ele>442.6</ele>
        <time>2019-10-14T13:33:59Z</time>
      </trkpt>
      <trkpt lat="45.81174" lon="4.23793">
        <ele>442.9</ele>
        <time>2019-10-14T13:34:03Z</time>
      </trkpt>
      <trkpt lat="45.81178" lon="4.23799">
        <ele>443.2</ele>
        <time>2019-10-14T13:34:09Z</time>
      </trkpt>
      <trkpt lat="45.81182" lon="4.23805">
        <ele>443.5</ele>
        <time>2019-10-14T13:34:14Z</time>
      </trkpt>
      <trkpt lat="45.81187" lon="4.23809">
        <ele>443.9</ele>
        <time>2019-10-14T13:34:19Z</time>
      </trkpt>
      <trkpt lat="45.81191" lon="4.23809">
        <ele>444.1</ele>
        <time>2019-10-14T13:34:23Z</time>
      </trkpt>
      <trkpt lat="45.81196" lon="4.23807">
        <ele>444.4</ele>
        <time>2019-10-14T13:34:27Z</time>
      </trkpt>
      <trkpt lat="45.81202" lon="4.23807">
        <ele>444.5</ele>
        <time>2019-10-14T13:34:30Z</time>
      </trkpt>
      <trkpt lat="45.81207" lon="4.23804">
        <ele>444.8</ele>
        <time>2019-10-14T13:34:34Z</time>
      </trkpt>
      <trkpt lat="45.81212" lon="4.23802">
        <ele>445</ele>
        <time>2019-10-14T13:34:37Z</time>
      </trkpt>
      <trkpt lat="45.81216" lon="4.23799">
        <ele>445.2</ele>
        <time>2019-10-14T13:34:40Z</time>
      </trkpt>
      <trkpt lat="45.81221" lon="4.23796">
        <ele>445.4</ele>
        <time>2019-10-14T13:34:45Z</time>
      </trkpt>
      <trkpt lat="45.81225" lon="4.23795">
        <ele>445.6</ele>
        <time>2019-10-14T13:34:49Z</time>
      </trkpt>
      <trkpt lat="45.8123" lon="4.23793">
        <ele>445.9</ele>
        <time>2019-10-14T13:34:54Z</time>
      </trkpt>
      <trkpt lat="45.81235" lon="4.23791">
        <ele>446.2</ele>
        <time>2019-10-14T13:34:59Z</time>
      </trkpt>
      <trkpt lat="45.81241" lon="4.23788">
        <ele>446.4</ele>
        <time>2019-10-14T13:35:03Z</time>
      </trkpt>
      <trkpt lat="45.81246" lon="4.2379">
        <ele>446.7</ele>
        <time>2019-10-14T13:35:10Z</time>
      </trkpt>
      <trkpt lat="45.8125" lon="4.2379">
        <ele>446.9</ele>
        <time>2019-10-14T13:35:15Z</time>
      </trkpt>
      <trkpt lat="45.81255" lon="4.2379">
        <ele>447.2</ele>
        <time>2019-10-14T13:35:21Z</time>
      </trkpt>
      <trkpt lat="45.8126" lon="4.23791">
        <ele>447.5</ele>
        <time>2019-10-14T13:35:25Z</time>
      </trkpt>
      <trkpt lat="45.81265" lon="4.23789">
        <ele>447.7</ele>
        <time>2019-10-14T13:35:29Z</time>
      </trkpt>
      <trkpt lat="45.81269" lon="4.23786">
        <ele>448</ele>
        <time>2019-10-14T13:35:33Z</time>
      </trkpt>
      <trkpt lat="45.81276" lon="4.23786">
        <ele>448.3</ele>
        <time>2019-10-14T13:35:37Z</time>
      </trkpt>
      <trkpt lat="45.8128" lon="4.23783">
        <ele>448.9</ele>
        <time>2019-10-14T13:35:43Z</time>
      </trkpt>
      <trkpt lat="45.81285" lon="4.23782">
        <ele>449.3</ele>
        <time>2019-10-14T13:35:48Z</time>
      </trkpt>
      <trkpt lat="45.8129" lon="4.23786">
        <ele>450.2</ele>
        <time>2019-10-14T13:35:56Z</time>
      </trkpt>
      <trkpt lat="45.81293" lon="4.23791">
        <ele>450.7</ele>
        <time>2019-10-14T13:36:01Z</time>
      </trkpt>
      <trkpt lat="45.81297" lon="4.23796">
        <ele>451.1</ele>
        <time>2019-10-14T13:36:05Z</time>
      </trkpt>
      <trkpt lat="45.813" lon="4.23801">
        <ele>451.8</ele>
        <time>2019-10-14T13:36:11Z</time>
      </trkpt>
      <trkpt lat="45.81304" lon="4.23805">
        <ele>452.5</ele>
        <time>2019-10-14T13:36:16Z</time>
      </trkpt>
      <trkpt lat="45.81308" lon="4.2381">
        <ele>453</ele>
        <time>2019-10-14T13:36:20Z</time>
      </trkpt>
      <trkpt lat="45.81312" lon="4.23815">
        <ele>453.6</ele>
        <time>2019-10-14T13:36:25Z</time>
      </trkpt>
      <trkpt lat="45.81316" lon="4.23819">
        <ele>454.4</ele>
        <time>2019-10-14T13:36:30Z</time>
      </trkpt>
      <trkpt lat="45.8132" lon="4.23824">
        <ele>455</ele>
        <time>2019-10-14T13:36:34Z</time>
      </trkpt>
      <trkpt lat="45.81323" lon="4.23829">
        <ele>455.6</ele>
        <time>2019-10-14T13:36:38Z</time>
      </trkpt>
      <trkpt lat="45.81327" lon="4.23834">
        <ele>456.3</ele>
        <time>2019-10-14T13:36:42Z</time>
      </trkpt>
      <trkpt lat="45.81331" lon="4.23837">
        <ele>456.9</ele>
        <time>2019-10-14T13:36:46Z</time>
      </trkpt>
      <trkpt lat="45.81335" lon="4.23842">
        <ele>457.7</ele>
        <time>2019-10-14T13:36:51Z</time>
      </trkpt>
      <trkpt lat="45.81339" lon="4.23847">
        <ele>458.7</ele>
        <time>2019-10-14T13:36:57Z</time>
      </trkpt>
      <trkpt lat="45.81344" lon="4.23851">
        <ele>459.6</ele>
        <time>2019-10-14T13:37:03Z</time>
      </trkpt>
      <trkpt lat="45.81348" lon="4.23855">
        <ele>460.5</ele>
        <time>2019-10-14T13:37:09Z</time>
      </trkpt>
      <trkpt lat="45.81352" lon="4.23859">
        <ele>461.3</ele>
        <time>2019-10-14T13:37:15Z</time>
      </trkpt>
      <trkpt lat="45.81357" lon="4.23861">
        <ele>462</ele>
        <time>2019-10-14T13:37:20Z</time>
      </trkpt>
      <trkpt lat="45.81361" lon="4.23865">
        <ele>462.7</ele>
        <time>2019-10-14T13:37:25Z</time>
      </trkpt>
      <trkpt lat="45.81365" lon="4.23871">
        <ele>463.4</ele>
        <time>2019-10-14T13:37:30Z</time>
      </trkpt>
      <trkpt lat="45.81369" lon="4.23873">
        <ele>464.4</ele>
        <time>2019-10-14T13:37:37Z</time>
      </trkpt>
      <trkpt lat="45.81375" lon="4.23876">
        <ele>465.2</ele>
        <time>2019-10-14T13:37:43Z</time>
      </trkpt>
      <trkpt lat="45.81379" lon="4.23879">
        <ele>465.7</ele>
        <time>2019-10-14T13:37:47Z</time>
      </trkpt>
      <trkpt lat="45.81385" lon="4.23881">
        <ele>466.3</ele>
        <time>2019-10-14T13:37:52Z</time>
      </trkpt>
      <trkpt lat="45.81389" lon="4.23883">
        <ele>466.9</ele>
        <time>2019-10-14T13:37:56Z</time>
      </trkpt>
      <trkpt lat="45.81394" lon="4.23886">
        <ele>467.6</ele>
        <time>2019-10-14T13:38:02Z</time>
      </trkpt>
      <trkpt lat="45.81397" lon="4.23892">
        <ele>468.1</ele>
        <time>2019-10-14T13:38:06Z</time>
      </trkpt>
      <trkpt lat="45.81401" lon="4.23897">
        <ele>468.6</ele>
        <time>2019-10-14T13:38:10Z</time>
      </trkpt>
      <trkpt lat="45.81403" lon="4.23903">
        <ele>469</ele>
        <time>2019-10-14T13:38:13Z</time>
      </trkpt>
      <trkpt lat="45.81405" lon="4.23909">
        <ele>469.5</ele>
        <time>2019-10-14T13:38:17Z</time>
      </trkpt>
      <trkpt lat="45.81409" lon="4.23914">
        <ele>470.2</ele>
        <time>2019-10-14T13:38:22Z</time>
      </trkpt>
      <trkpt lat="45.81412" lon="4.2392">
        <ele>471.1</ele>
        <time>2019-10-14T13:38:29Z</time>
      </trkpt>
      <trkpt lat="45.81416" lon="4.23925">
        <ele>472.1</ele>
        <time>2019-10-14T13:38:36Z</time>
      </trkpt>
      <trkpt lat="45.81419" lon="4.2393">
        <ele>472.8</ele>
        <time>2019-10-14T13:38:41Z</time>
      </trkpt>
      <trkpt lat="45.81422" lon="4.23935">
        <ele>473.4</ele>
        <time>2019-10-14T13:38:46Z</time>
      </trkpt>
      <trkpt lat="45.81424" lon="4.23942">
        <ele>474.2</ele>
        <time>2019-10-14T13:38:52Z</time>
      </trkpt>
      <trkpt lat="45.81424" lon="4.23949">
        <ele>474.9</ele>
        <time>2019-10-14T13:38:58Z</time>
      </trkpt>
      <trkpt lat="45.81425" lon="4.23941">
        <ele>475.3</ele>
        <time>2019-10-14T13:39:01Z</time>
      </trkpt>
      <trkpt lat="45.81429" lon="4.2394">
        <ele>475.9</ele>
        <time>2019-10-14T13:39:06Z</time>
      </trkpt>
      <trkpt lat="45.81435" lon="4.23942">
        <ele>476.4</ele>
        <time>2019-10-14T13:39:11Z</time>
      </trkpt>
      <trkpt lat="45.81438" lon="4.23948">
        <ele>476.9</ele>
        <time>2019-10-14T13:39:15Z</time>
      </trkpt>
      <trkpt lat="45.8144" lon="4.23954">
        <ele>477.4</ele>
        <time>2019-10-14T13:39:20Z</time>
      </trkpt>
      <trkpt lat="45.81443" lon="4.23961">
        <ele>478.1</ele>
        <time>2019-10-14T13:39:26Z</time>
      </trkpt>
      <trkpt lat="45.81444" lon="4.23968">
        <ele>478.5</ele>
        <time>2019-10-14T13:39:30Z</time>
      </trkpt>
      <trkpt lat="45.81446" lon="4.23976">
        <ele>478.8</ele>
        <time>2019-10-14T13:39:34Z</time>
      </trkpt>
      <trkpt lat="45.81447" lon="4.23983">
        <ele>479.2</ele>
        <time>2019-10-14T13:39:38Z</time>
      </trkpt>
      <trkpt lat="45.81449" lon="4.2399">
        <ele>479.7</ele>
        <time>2019-10-14T13:39:43Z</time>
      </trkpt>
      <trkpt lat="45.81452" lon="4.23997">
        <ele>480.1</ele>
        <time>2019-10-14T13:39:47Z</time>
      </trkpt>
      <trkpt lat="45.81453" lon="4.24003">
        <ele>480.5</ele>
        <time>2019-10-14T13:39:51Z</time>
      </trkpt>
      <trkpt lat="45.81455" lon="4.24011">
        <ele>480.8</ele>
        <time>2019-10-14T13:39:56Z</time>
      </trkpt>
      <trkpt lat="45.81458" lon="4.24018">
        <ele>481.2</ele>
        <time>2019-10-14T13:40:00Z</time>
      </trkpt>
      <trkpt lat="45.8146" lon="4.24024">
        <ele>481.5</ele>
        <time>2019-10-14T13:40:04Z</time>
      </trkpt>
      <trkpt lat="45.81461" lon="4.2403">
        <ele>481.8</ele>
        <time>2019-10-14T13:40:09Z</time>
      </trkpt>
      <trkpt lat="45.81463" lon="4.24037">
        <ele>482.2</ele>
        <time>2019-10-14T13:40:14Z</time>
      </trkpt>
      <trkpt lat="45.81465" lon="4.24043">
        <ele>482.4</ele>
        <time>2019-10-14T13:40:18Z</time>
      </trkpt>
      <trkpt lat="45.81468" lon="4.24049">
        <ele>482.7</ele>
        <time>2019-10-14T13:40:22Z</time>
      </trkpt>
      <trkpt lat="45.81469" lon="4.24056">
        <ele>482.9</ele>
        <time>2019-10-14T13:40:25Z</time>
      </trkpt>
      <trkpt lat="45.81471" lon="4.24062">
        <ele>483.1</ele>
        <time>2019-10-14T13:40:28Z</time>
      </trkpt>
      <trkpt lat="45.81472" lon="4.24068">
        <ele>483.3</ele>
        <time>2019-10-14T13:40:31Z</time>
      </trkpt>
      <trkpt lat="45.81474" lon="4.24074">
        <ele>483.5</ele>
        <time>2019-10-14T13:40:35Z</time>
      </trkpt>
      <trkpt lat="45.81477" lon="4.24081">
        <ele>483.8</ele>
        <time>2019-10-14T13:40:40Z</time>
      </trkpt>
      <trkpt lat="45.8148" lon="4.24085">
        <ele>484.1</ele>
        <time>2019-10-14T13:40:45Z</time>
      </trkpt>
      <trkpt lat="45.81483" lon="4.24091">
        <ele>484.5</ele>
        <time>2019-10-14T13:40:51Z</time>
      </trkpt>
      <trkpt lat="45.81486" lon="4.24096">
        <ele>484.8</ele>
        <time>2019-10-14T13:40:55Z</time>
      </trkpt>
      <trkpt lat="45.81489" lon="4.24102">
        <ele>485</ele>
        <time>2019-10-14T13:40:59Z</time>
      </trkpt>
      <trkpt lat="45.81492" lon="4.24108">
        <ele>485.3</ele>
        <time>2019-10-14T13:41:03Z</time>
      </trkpt>
      <trkpt lat="45.81494" lon="4.24115">
        <ele>485.5</ele>
        <time>2019-10-14T13:41:07Z</time>
      </trkpt>
      <trkpt lat="45.81496" lon="4.24122">
        <ele>485.8</ele>
        <time>2019-10-14T13:41:11Z</time>
      </trkpt>
      <trkpt lat="45.81498" lon="4.24128">
        <ele>486</ele>
        <time>2019-10-14T13:41:15Z</time>
      </trkpt>
      <trkpt lat="45.815" lon="4.24135">
        <ele>486.3</ele>
        <time>2019-10-14T13:41:19Z</time>
      </trkpt>
      <trkpt lat="45.81502" lon="4.24142">
        <ele>486.5</ele>
        <time>2019-10-14T13:41:23Z</time>
      </trkpt>
      <trkpt lat="45.81503" lon="4.24151">
        <ele>486.7</ele>
        <time>2019-10-14T13:41:26Z</time>
      </trkpt>
      <trkpt lat="45.81505" lon="4.24157">
        <ele>486.9</ele>
        <time>2019-10-14T13:41:29Z</time>
      </trkpt>
      <trkpt lat="45.81507" lon="4.24164">
        <ele>487.2</ele>
        <time>2019-10-14T13:41:33Z</time>
      </trkpt>
      <trkpt lat="45.8151" lon="4.24171">
        <ele>487.5</ele>
        <time>2019-10-14T13:41:39Z</time>
      </trkpt>
      <trkpt lat="45.81512" lon="4.24179">
        <ele>487.8</ele>
        <time>2019-10-14T13:41:44Z</time>
      </trkpt>
      <trkpt lat="45.81514" lon="4.24186">
        <ele>488.1</ele>
        <time>2019-10-14T13:41:48Z</time>
      </trkpt>
      <trkpt lat="45.81516" lon="4.24192">
        <ele>488.4</ele>
        <time>2019-10-14T13:41:54Z</time>
      </trkpt>
      <trkpt lat="45.81516" lon="4.24199">
        <ele>488.7</ele>
        <time>2019-10-14T13:41:59Z</time>
      </trkpt>
      <trkpt lat="45.81513" lon="4.24195">
        <ele>489.9</ele>
        <time>2019-10-14T13:42:39Z</time>
      </trkpt>
      <trkpt lat="45.81508" lon="4.24193">
        <ele>490.5</ele>
        <time>2019-10-14T13:42:49Z</time>
      </trkpt>
      <trkpt lat="45.81503" lon="4.24193">
        <ele>490.7</ele>
        <time>2019-10-14T13:42:54Z</time>
      </trkpt>
      <trkpt lat="45.81499" lon="4.24193">
        <ele>491</ele>
        <time>2019-10-14T13:42:58Z</time>
      </trkpt>
      <trkpt lat="45.81494" lon="4.24194">
        <ele>491.1</ele>
        <time>2019-10-14T13:43:02Z</time>
      </trkpt>
      <trkpt lat="45.81489" lon="4.24196">
        <ele>491.3</ele>
        <time>2019-10-14T13:43:06Z</time>
      </trkpt>
      <trkpt lat="45.81484" lon="4.24198">
        <ele>491.5</ele>
        <time>2019-10-14T13:43:10Z</time>
      </trkpt>
      <trkpt lat="45.81479" lon="4.242">
        <ele>491.7</ele>
        <time>2019-10-14T13:43:14Z</time>
      </trkpt>
      <trkpt lat="45.81474" lon="4.24202">
        <ele>491.8</ele>
        <time>2019-10-14T13:43:18Z</time>
      </trkpt>
      <trkpt lat="45.81469" lon="4.24203">
        <ele>491.9</ele>
        <time>2019-10-14T13:43:21Z</time>
      </trkpt>
      <trkpt lat="45.81464" lon="4.24204">
        <ele>492.1</ele>
        <time>2019-10-14T13:43:25Z</time>
      </trkpt>
      <trkpt lat="45.81459" lon="4.24205">
        <ele>492.2</ele>
        <time>2019-10-14T13:43:29Z</time>
      </trkpt>
      <trkpt lat="45.81454" lon="4.24207">
        <ele>492.3</ele>
        <time>2019-10-14T13:43:33Z</time>
      </trkpt>
      <trkpt lat="45.81449" lon="4.24209">
        <ele>492.5</ele>
        <time>2019-10-14T13:43:37Z</time>
      </trkpt>
      <trkpt lat="45.81444" lon="4.24211">
        <ele>492.6</ele>
        <time>2019-10-14T13:43:41Z</time>
      </trkpt>
      <trkpt lat="45.8144" lon="4.24214">
        <ele>492.7</ele>
        <time>2019-10-14T13:43:45Z</time>
      </trkpt>
      <trkpt lat="45.81435" lon="4.24217">
        <ele>492.8</ele>
        <time>2019-10-14T13:43:49Z</time>
      </trkpt>
      <trkpt lat="45.81431" lon="4.2422">
        <ele>492.9</ele>
        <time>2019-10-14T13:43:53Z</time>
      </trkpt>
      <trkpt lat="45.81426" lon="4.24222">
        <ele>493.1</ele>
        <time>2019-10-14T13:43:57Z</time>
      </trkpt>
      <trkpt lat="45.81421" lon="4.24224">
        <ele>493.2</ele>
        <time>2019-10-14T13:44:01Z</time>
      </trkpt>
      <trkpt lat="45.81417" lon="4.24227">
        <ele>493.3</ele>
        <time>2019-10-14T13:44:06Z</time>
      </trkpt>
      <trkpt lat="45.81412" lon="4.24231">
        <ele>493.4</ele>
        <time>2019-10-14T13:44:11Z</time>
      </trkpt>
      <trkpt lat="45.81407" lon="4.24234">
        <ele>493.5</ele>
        <time>2019-10-14T13:44:15Z</time>
      </trkpt>
      <trkpt lat="45.81402" lon="4.24236">
        <ele>493.6</ele>
        <time>2019-10-14T13:44:19Z</time>
      </trkpt>
      <trkpt lat="45.81398" lon="4.24238">
        <ele>493.7</ele>
        <time>2019-10-14T13:44:23Z</time>
      </trkpt>
      <trkpt lat="45.81393" lon="4.24239">
        <ele>493.8</ele>
        <time>2019-10-14T13:44:27Z</time>
      </trkpt>
      <trkpt lat="45.81389" lon="4.24241">
        <ele>493.9</ele>
        <time>2019-10-14T13:44:31Z</time>
      </trkpt>
      <trkpt lat="45.81385" lon="4.24243">
        <ele>494</ele>
        <time>2019-10-14T13:44:35Z</time>
      </trkpt>
      <trkpt lat="45.8138" lon="4.24245">
        <ele>494.1</ele>
        <time>2019-10-14T13:44:39Z</time>
      </trkpt>
      <trkpt lat="45.81375" lon="4.24248">
        <ele>494.2</ele>
        <time>2019-10-14T13:44:44Z</time>
      </trkpt>
      <trkpt lat="45.8137" lon="4.24251">
        <ele>494.3</ele>
        <time>2019-10-14T13:44:48Z</time>
      </trkpt>
      <trkpt lat="45.81366" lon="4.24254">
        <ele>494.3</ele>
        <time>2019-10-14T13:44:52Z</time>
      </trkpt>
      <trkpt lat="45.81361" lon="4.24257">
        <ele>494.4</ele>
        <time>2019-10-14T13:44:56Z</time>
      </trkpt>
      <trkpt lat="45.81357" lon="4.24259">
        <ele>494.5</ele>
        <time>2019-10-14T13:45:00Z</time>
      </trkpt>
      <trkpt lat="45.81352" lon="4.24261">
        <ele>494.5</ele>
        <time>2019-10-14T13:45:05Z</time>
      </trkpt>
      <trkpt lat="45.81347" lon="4.24263">
        <ele>494.6</ele>
        <time>2019-10-14T13:45:11Z</time>
      </trkpt>
      <trkpt lat="45.81342" lon="4.24266">
        <ele>494.7</ele>
        <time>2019-10-14T13:45:16Z</time>
      </trkpt>
      <trkpt lat="45.81337" lon="4.2427">
        <ele>494.7</ele>
        <time>2019-10-14T13:45:21Z</time>
      </trkpt>
      <trkpt lat="45.81332" lon="4.24273">
        <ele>494.7</ele>
        <time>2019-10-14T13:45:27Z</time>
      </trkpt>
      <trkpt lat="45.81328" lon="4.24275">
        <ele>494.8</ele>
        <time>2019-10-14T13:45:31Z</time>
      </trkpt>
      <trkpt lat="45.81322" lon="4.24276">
        <ele>494.8</ele>
        <time>2019-10-14T13:45:35Z</time>
      </trkpt>
      <trkpt lat="45.81317" lon="4.24276">
        <ele>494.8</ele>
        <time>2019-10-14T13:45:39Z</time>
      </trkpt>
      <trkpt lat="45.81312" lon="4.24276">
        <ele>494.8</ele>
        <time>2019-10-14T13:45:43Z</time>
      </trkpt>
      <trkpt lat="45.81307" lon="4.24276">
        <ele>494.8</ele>
        <time>2019-10-14T13:45:48Z</time>
      </trkpt>
      <trkpt lat="45.81302" lon="4.24276">
        <ele>494.8</ele>
        <time>2019-10-14T13:45:52Z</time>
      </trkpt>
      <trkpt lat="45.81297" lon="4.24276">
        <ele>494.9</ele>
        <time>2019-10-14T13:45:57Z</time>
      </trkpt>
      <trkpt lat="45.81292" lon="4.24274">
        <ele>494.9</ele>
        <time>2019-10-14T13:46:01Z</time>
      </trkpt>
      <trkpt lat="45.81287" lon="4.24274">
        <ele>494.9</ele>
        <time>2019-10-14T13:46:05Z</time>
      </trkpt>
      <trkpt lat="45.81282" lon="4.24273">
        <ele>494.9</ele>
        <time>2019-10-14T13:46:09Z</time>
      </trkpt>
      <trkpt lat="45.81278" lon="4.24273">
        <ele>495</ele>
        <time>2019-10-14T13:46:13Z</time>
      </trkpt>
      <trkpt lat="45.81273" lon="4.24271">
        <ele>495</ele>
        <time>2019-10-14T13:46:17Z</time>
      </trkpt>
      <trkpt lat="45.81269" lon="4.24269">
        <ele>495</ele>
        <time>2019-10-14T13:46:22Z</time>
      </trkpt>
      <trkpt lat="45.81264" lon="4.24266">
        <ele>495</ele>
        <time>2019-10-14T13:46:27Z</time>
      </trkpt>
      <trkpt lat="45.81259" lon="4.24264">
        <ele>495</ele>
        <time>2019-10-14T13:46:32Z</time>
      </trkpt>
      <trkpt lat="45.81254" lon="4.2426">
        <ele>495.1</ele>
        <time>2019-10-14T13:46:36Z</time>
      </trkpt>
      <trkpt lat="45.8125" lon="4.24258">
        <ele>495.1</ele>
        <time>2019-10-14T13:46:40Z</time>
      </trkpt>
      <trkpt lat="45.81245" lon="4.24255">
        <ele>495.1</ele>
        <time>2019-10-14T13:46:47Z</time>
      </trkpt>
      <trkpt lat="45.8124" lon="4.24253">
        <ele>495.1</ele>
        <time>2019-10-14T13:46:52Z</time>
      </trkpt>
      <trkpt lat="45.81235" lon="4.24252">
        <ele>495.1</ele>
        <time>2019-10-14T13:46:57Z</time>
      </trkpt>
      <trkpt lat="45.8123" lon="4.2425">
        <ele>495.1</ele>
        <time>2019-10-14T13:47:01Z</time>
      </trkpt>
      <trkpt lat="45.81225" lon="4.2425">
        <ele>495.1</ele>
        <time>2019-10-14T13:47:05Z</time>
      </trkpt>
      <trkpt lat="45.8122" lon="4.2425">
        <ele>495.1</ele>
        <time>2019-10-14T13:47:09Z</time>
      </trkpt>
      <trkpt lat="45.81215" lon="4.2425">
        <ele>495.1</ele>
        <time>2019-10-14T13:47:14Z</time>
      </trkpt>
      <trkpt lat="45.8121" lon="4.2425">
        <ele>495.1</ele>
        <time>2019-10-14T13:47:18Z</time>
      </trkpt>
      <trkpt lat="45.81205" lon="4.2425">
        <ele>495.1</ele>
        <time>2019-10-14T13:47:22Z</time>
      </trkpt>
      <trkpt lat="45.81201" lon="4.2425">
        <ele>495.1</ele>
        <time>2019-10-14T13:47:26Z</time>
      </trkpt>
      <trkpt lat="45.81196" lon="4.2425">
        <ele>495.1</ele>
        <time>2019-10-14T13:47:30Z</time>
      </trkpt>
      <trkpt lat="45.81191" lon="4.24249">
        <ele>495.1</ele>
        <time>2019-10-14T13:47:34Z</time>
      </trkpt>
      <trkpt lat="45.81186" lon="4.24247">
        <ele>495</ele>
        <time>2019-10-14T13:47:38Z</time>
      </trkpt>
      <trkpt lat="45.81181" lon="4.24246">
        <ele>495</ele>
        <time>2019-10-14T13:47:43Z</time>
      </trkpt>
      <trkpt lat="45.81176" lon="4.24246">
        <ele>495</ele>
        <time>2019-10-14T13:47:47Z</time>
      </trkpt>
      <trkpt lat="45.81171" lon="4.24246">
        <ele>494.9</ele>
        <time>2019-10-14T13:47:51Z</time>
      </trkpt>
      <trkpt lat="45.81166" lon="4.24246">
        <ele>494.9</ele>
        <time>2019-10-14T13:47:56Z</time>
      </trkpt>
      <trkpt lat="45.81161" lon="4.24247">
        <ele>494.9</ele>
        <time>2019-10-14T13:48:00Z</time>
      </trkpt>
      <trkpt lat="45.81156" lon="4.24247">
        <ele>494.8</ele>
        <time>2019-10-14T13:48:04Z</time>
      </trkpt>
      <trkpt lat="45.8115" lon="4.24247">
        <ele>494.8</ele>
        <time>2019-10-14T13:48:08Z</time>
      </trkpt>
      <trkpt lat="45.81145" lon="4.24247">
        <ele>494.8</ele>
        <time>2019-10-14T13:48:12Z</time>
      </trkpt>
      <trkpt lat="45.8114" lon="4.24247">
        <ele>494.8</ele>
        <time>2019-10-14T13:48:16Z</time>
      </trkpt>
      <trkpt lat="45.81135" lon="4.24247">
        <ele>494.7</ele>
        <time>2019-10-14T13:48:21Z</time>
      </trkpt>
      <trkpt lat="45.81129" lon="4.24247">
        <ele>494.7</ele>
        <time>2019-10-14T13:48:26Z</time>
      </trkpt>
      <trkpt lat="45.81125" lon="4.24247">
        <ele>494.7</ele>
        <time>2019-10-14T13:48:30Z</time>
      </trkpt>
      <trkpt lat="45.81119" lon="4.24246">
        <ele>494.6</ele>
        <time>2019-10-14T13:48:34Z</time>
      </trkpt>
      <trkpt lat="45.81115" lon="4.24246">
        <ele>494.6</ele>
        <time>2019-10-14T13:48:38Z</time>
      </trkpt>
      <trkpt lat="45.8111" lon="4.24245">
        <ele>494.6</ele>
        <time>2019-10-14T13:48:43Z</time>
      </trkpt>
      <trkpt lat="45.81105" lon="4.24245">
        <ele>494.6</ele>
        <time>2019-10-14T13:48:48Z</time>
      </trkpt>
      <trkpt lat="45.811" lon="4.24246">
        <ele>494.5</ele>
        <time>2019-10-14T13:48:53Z</time>
      </trkpt>
      <trkpt lat="45.81095" lon="4.24247">
        <ele>494.5</ele>
        <time>2019-10-14T13:48:58Z</time>
      </trkpt>
      <trkpt lat="45.81089" lon="4.24247">
        <ele>494.5</ele>
        <time>2019-10-14T13:49:02Z</time>
      </trkpt>
      <trkpt lat="45.81084" lon="4.24247">
        <ele>494.5</ele>
        <time>2019-10-14T13:49:06Z</time>
      </trkpt>
      <trkpt lat="45.81079" lon="4.24248">
        <ele>494.4</ele>
        <time>2019-10-14T13:49:10Z</time>
      </trkpt>
      <trkpt lat="45.81075" lon="4.24248">
        <ele>494.4</ele>
        <time>2019-10-14T13:49:14Z</time>
      </trkpt>
      <trkpt lat="45.8107" lon="4.24247">
        <ele>494.4</ele>
        <time>2019-10-14T13:49:19Z</time>
      </trkpt>
      <trkpt lat="45.81065" lon="4.24247">
        <ele>494.4</ele>
        <time>2019-10-14T13:49:23Z</time>
      </trkpt>
      <trkpt lat="45.81059" lon="4.24247">
        <ele>494.4</ele>
        <time>2019-10-14T13:49:27Z</time>
      </trkpt>
      <trkpt lat="45.81053" lon="4.24246">
        <ele>494.4</ele>
        <time>2019-10-14T13:49:31Z</time>
      </trkpt>
      <trkpt lat="45.81048" lon="4.24246">
        <ele>494.4</ele>
        <time>2019-10-14T13:49:35Z</time>
      </trkpt>
      <trkpt lat="45.81042" lon="4.24245">
        <ele>494.3</ele>
        <time>2019-10-14T13:49:40Z</time>
      </trkpt>
      <trkpt lat="45.81037" lon="4.24244">
        <ele>494.3</ele>
        <time>2019-10-14T13:49:46Z</time>
      </trkpt>
      <trkpt lat="45.81032" lon="4.24244">
        <ele>494.3</ele>
        <time>2019-10-14T13:49:52Z</time>
      </trkpt>
      <trkpt lat="45.81027" lon="4.24245">
        <ele>494.3</ele>
        <time>2019-10-14T13:49:57Z</time>
      </trkpt>
      <trkpt lat="45.81022" lon="4.24244">
        <ele>494.2</ele>
        <time>2019-10-14T13:50:02Z</time>
      </trkpt>
      <trkpt lat="45.81017" lon="4.24244">
        <ele>494.2</ele>
        <time>2019-10-14T13:50:06Z</time>
      </trkpt>
      <trkpt lat="45.81012" lon="4.24244">
        <ele>494.2</ele>
        <time>2019-10-14T13:50:10Z</time>
      </trkpt>
      <trkpt lat="45.81007" lon="4.24244">
        <ele>494.2</ele>
        <time>2019-10-14T13:50:14Z</time>
      </trkpt>
      <trkpt lat="45.81001" lon="4.24244">
        <ele>494.2</ele>
        <time>2019-10-14T13:50:18Z</time>
      </trkpt>
      <trkpt lat="45.80996" lon="4.24246">
        <ele>494.1</ele>
        <time>2019-10-14T13:50:22Z</time>
      </trkpt>
      <trkpt lat="45.80992" lon="4.2425">
        <ele>494.1</ele>
        <time>2019-10-14T13:50:26Z</time>
      </trkpt>
      <trkpt lat="45.80992" lon="4.24257">
        <ele>494.1</ele>
        <time>2019-10-14T13:50:32Z</time>
      </trkpt>
      <trkpt lat="45.80995" lon="4.24264">
        <ele>494.1</ele>
        <time>2019-10-14T13:50:37Z</time>
      </trkpt>
      <trkpt lat="45.80998" lon="4.2427">
        <ele>494.1</ele>
        <time>2019-10-14T13:50:42Z</time>
      </trkpt>
      <trkpt lat="45.81001" lon="4.24277">
        <ele>494</ele>
        <time>2019-10-14T13:50:47Z</time>
      </trkpt>
      <trkpt lat="45.81004" lon="4.24282">
        <ele>494</ele>
        <time>2019-10-14T13:50:51Z</time>
      </trkpt>
      <trkpt lat="45.81006" lon="4.24288">
        <ele>494.1</ele>
        <time>2019-10-14T13:50:55Z</time>
      </trkpt>
      <trkpt lat="45.81008" lon="4.24294">
        <ele>494.1</ele>
        <time>2019-10-14T13:51:01Z</time>
      </trkpt>
      <trkpt lat="45.8101" lon="4.24301">
        <ele>494.1</ele>
        <time>2019-10-14T13:51:07Z</time>
      </trkpt>
      <trkpt lat="45.81012" lon="4.24308">
        <ele>494.1</ele>
        <time>2019-10-14T13:51:13Z</time>
      </trkpt>
      <trkpt lat="45.81014" lon="4.24314">
        <ele>494.1</ele>
        <time>2019-10-14T13:51:19Z</time>
      </trkpt>
      <trkpt lat="45.81016" lon="4.2432">
        <ele>494.1</ele>
        <time>2019-10-14T13:51:26Z</time>
      </trkpt>
      <trkpt lat="45.81018" lon="4.24327">
        <ele>494.1</ele>
        <time>2019-10-14T13:51:32Z</time>
      </trkpt>
      <trkpt lat="45.81019" lon="4.24333">
        <ele>494.1</ele>
        <time>2019-10-14T13:51:37Z</time>
      </trkpt>
      <trkpt lat="45.81021" lon="4.24339">
        <ele>494.1</ele>
        <time>2019-10-14T13:51:43Z</time>
      </trkpt>
      <trkpt lat="45.81023" lon="4.24346">
        <ele>494.2</ele>
        <time>2019-10-14T13:51:49Z</time>
      </trkpt>
      <trkpt lat="45.81026" lon="4.24351">
        <ele>494.2</ele>
        <time>2019-10-14T13:51:54Z</time>
      </trkpt>
      <trkpt lat="45.81029" lon="4.24357">
        <ele>494.2</ele>
        <time>2019-10-14T13:51:59Z</time>
      </trkpt>
      <trkpt lat="45.81031" lon="4.24364">
        <ele>494.2</ele>
        <time>2019-10-14T13:52:04Z</time>
      </trkpt>
      <trkpt lat="45.81034" lon="4.24369">
        <ele>494.2</ele>
        <time>2019-10-14T13:52:10Z</time>
      </trkpt>
      <trkpt lat="45.81036" lon="4.24375">
        <ele>494.2</ele>
        <time>2019-10-14T13:52:16Z</time>
      </trkpt>
      <trkpt lat="45.81039" lon="4.2438">
        <ele>494.2</ele>
        <time>2019-10-14T13:52:21Z</time>
      </trkpt>
      <trkpt lat="45.81043" lon="4.24385">
        <ele>494.2</ele>
        <time>2019-10-14T13:52:27Z</time>
      </trkpt>
      <trkpt lat="45.81047" lon="4.2439">
        <ele>494.1</ele>
        <time>2019-10-14T13:52:33Z</time>
      </trkpt>
      <trkpt lat="45.81051" lon="4.24395">
        <ele>494.1</ele>
        <time>2019-10-14T13:52:40Z</time>
      </trkpt>
      <trkpt lat="45.81055" lon="4.244">
        <ele>494.1</ele>
        <time>2019-10-14T13:52:46Z</time>
      </trkpt>
      <trkpt lat="45.81058" lon="4.24404">
        <ele>494.1</ele>
        <time>2019-10-14T13:52:52Z</time>
      </trkpt>
      <trkpt lat="45.81063" lon="4.24408">
        <ele>494.1</ele>
        <time>2019-10-14T13:52:58Z</time>
      </trkpt>
      <trkpt lat="45.81067" lon="4.24413">
        <ele>494.1</ele>
        <time>2019-10-14T13:53:02Z</time>
      </trkpt>
      <trkpt lat="45.81071" lon="4.24417">
        <ele>494</ele>
        <time>2019-10-14T13:53:07Z</time>
      </trkpt>
      <trkpt lat="45.81075" lon="4.24422">
        <ele>494</ele>
        <time>2019-10-14T13:53:13Z</time>
      </trkpt>
      <trkpt lat="45.81078" lon="4.24428">
        <ele>494</ele>
        <time>2019-10-14T13:53:18Z</time>
      </trkpt>
      <trkpt lat="45.81081" lon="4.24434">
        <ele>493.9</ele>
        <time>2019-10-14T13:53:23Z</time>
      </trkpt>
      <trkpt lat="45.81082" lon="4.2444">
        <ele>493.9</ele>
        <time>2019-10-14T13:53:30Z</time>
      </trkpt>
      <trkpt lat="45.81084" lon="4.24447">
        <ele>493.8</ele>
        <time>2019-10-14T13:53:35Z</time>
      </trkpt>
      <trkpt lat="45.81086" lon="4.24454">
        <ele>493.8</ele>
        <time>2019-10-14T13:53:39Z</time>
      </trkpt>
      <trkpt lat="45.81088" lon="4.2446">
        <ele>493.7</ele>
        <time>2019-10-14T13:53:43Z</time>
      </trkpt>
      <trkpt lat="45.81089" lon="4.24467">
        <ele>493.7</ele>
        <time>2019-10-14T13:53:47Z</time>
      </trkpt>
      <trkpt lat="45.8109" lon="4.24476">
        <ele>493.6</ele>
        <time>2019-10-14T13:53:51Z</time>
      </trkpt>
      <trkpt lat="45.8109" lon="4.24483">
        <ele>493.6</ele>
        <time>2019-10-14T13:53:55Z</time>
      </trkpt>
      <trkpt lat="45.81089" lon="4.24489">
        <ele>493.5</ele>
        <time>2019-10-14T13:53:59Z</time>
      </trkpt>
      <trkpt lat="45.81088" lon="4.24496">
        <ele>493.5</ele>
        <time>2019-10-14T13:54:04Z</time>
      </trkpt>
      <trkpt lat="45.81086" lon="4.24503">
        <ele>493.4</ele>
        <time>2019-10-14T13:54:09Z</time>
      </trkpt>
      <trkpt lat="45.81082" lon="4.24508">
        <ele>493.4</ele>
        <time>2019-10-14T13:54:14Z</time>
      </trkpt>
      <trkpt lat="45.81078" lon="4.24511">
        <ele>493.3</ele>
        <time>2019-10-14T13:54:20Z</time>
      </trkpt>
      <trkpt lat="45.81073" lon="4.24514">
        <ele>493.2</ele>
        <time>2019-10-14T13:54:25Z</time>
      </trkpt>
      <trkpt lat="45.81068" lon="4.24516">
        <ele>493.2</ele>
        <time>2019-10-14T13:54:30Z</time>
      </trkpt>
      <trkpt lat="45.81063" lon="4.24518">
        <ele>493.2</ele>
        <time>2019-10-14T13:54:33Z</time>
      </trkpt>
      <trkpt lat="45.81059" lon="4.24521">
        <ele>493.1</ele>
        <time>2019-10-14T13:54:37Z</time>
      </trkpt>
      <trkpt lat="45.81055" lon="4.24525">
        <ele>493.1</ele>
        <time>2019-10-14T13:54:42Z</time>
      </trkpt>
      <trkpt lat="45.81051" lon="4.2453">
        <ele>493</ele>
        <time>2019-10-14T13:54:47Z</time>
      </trkpt>
      <trkpt lat="45.81047" lon="4.24536">
        <ele>493</ele>
        <time>2019-10-14T13:54:51Z</time>
      </trkpt>
      <trkpt lat="45.81043" lon="4.24541">
        <ele>492.9</ele>
        <time>2019-10-14T13:54:55Z</time>
      </trkpt>
      <trkpt lat="45.8104" lon="4.24546">
        <ele>492.9</ele>
        <time>2019-10-14T13:54:59Z</time>
      </trkpt>
      <trkpt lat="45.81037" lon="4.24551">
        <ele>492.8</ele>
        <time>2019-10-14T13:55:05Z</time>
      </trkpt>
      <trkpt lat="45.81033" lon="4.24555">
        <ele>492.7</ele>
        <time>2019-10-14T13:55:11Z</time>
      </trkpt>
      <trkpt lat="45.81028" lon="4.24558">
        <ele>492.6</ele>
        <time>2019-10-14T13:55:16Z</time>
      </trkpt>
      <trkpt lat="45.81023" lon="4.2456">
        <ele>492.6</ele>
        <time>2019-10-14T13:55:20Z</time>
      </trkpt>
      <trkpt lat="45.81018" lon="4.24562">
        <ele>492.5</ele>
        <time>2019-10-14T13:55:23Z</time>
      </trkpt>
      <trkpt lat="45.81014" lon="4.24566">
        <ele>492.5</ele>
        <time>2019-10-14T13:55:27Z</time>
      </trkpt>
      <trkpt lat="45.81009" lon="4.24569">
        <ele>492.4</ele>
        <time>2019-10-14T13:55:31Z</time>
      </trkpt>
      <trkpt lat="45.81004" lon="4.24571">
        <ele>492.3</ele>
        <time>2019-10-14T13:55:36Z</time>
      </trkpt>
      <trkpt lat="45.81" lon="4.24574">
        <ele>492.2</ele>
        <time>2019-10-14T13:55:43Z</time>
      </trkpt>
      <trkpt lat="45.80995" lon="4.24574">
        <ele>492.2</ele>
        <time>2019-10-14T13:55:47Z</time>
      </trkpt>
      <trkpt lat="45.80991" lon="4.24573">
        <ele>492.1</ele>
        <time>2019-10-14T13:55:52Z</time>
      </trkpt>
      <trkpt lat="45.80985" lon="4.24572">
        <ele>492</ele>
        <time>2019-10-14T13:55:57Z</time>
      </trkpt>
      <trkpt lat="45.80981" lon="4.24567">
        <ele>491.9</ele>
        <time>2019-10-14T13:56:03Z</time>
      </trkpt>
      <trkpt lat="45.80977" lon="4.24561">
        <ele>491.9</ele>
        <time>2019-10-14T13:56:06Z</time>
      </trkpt>
      <trkpt lat="45.80973" lon="4.24558">
        <ele>491.6</ele>
        <time>2019-10-14T13:56:25Z</time>
      </trkpt>
      <trkpt lat="45.80967" lon="4.24556">
        <ele>491.5</ele>
        <time>2019-10-14T13:56:29Z</time>
      </trkpt>
      <trkpt lat="45.80962" lon="4.24555">
        <ele>491.4</ele>
        <time>2019-10-14T13:56:33Z</time>
      </trkpt>
      <trkpt lat="45.80956" lon="4.24556">
        <ele>491.3</ele>
        <time>2019-10-14T13:56:38Z</time>
      </trkpt>
      <trkpt lat="45.8095" lon="4.24557">
        <ele>491.2</ele>
        <time>2019-10-14T13:56:41Z</time>
      </trkpt>
      <trkpt lat="45.80944" lon="4.24557">
        <ele>491.1</ele>
        <time>2019-10-14T13:56:46Z</time>
      </trkpt>
      <trkpt lat="45.80939" lon="4.24555">
        <ele>491.1</ele>
        <time>2019-10-14T13:56:50Z</time>
      </trkpt>
      <trkpt lat="45.80934" lon="4.24555">
        <ele>490.9</ele>
        <time>2019-10-14T13:56:57Z</time>
      </trkpt>
      <trkpt lat="45.8093" lon="4.24558">
        <ele>490.8</ele>
        <time>2019-10-14T13:57:03Z</time>
      </trkpt>
      <trkpt lat="45.80926" lon="4.24563">
        <ele>490.7</ele>
        <time>2019-10-14T13:57:08Z</time>
      </trkpt>
      <trkpt lat="45.80922" lon="4.24567">
        <ele>490.7</ele>
        <time>2019-10-14T13:57:13Z</time>
      </trkpt>
      <trkpt lat="45.80921" lon="4.24576">
        <ele>490.6</ele>
        <time>2019-10-14T13:57:19Z</time>
      </trkpt>
      <trkpt lat="45.8092" lon="4.24582">
        <ele>490.5</ele>
        <time>2019-10-14T13:57:24Z</time>
      </trkpt>
      <trkpt lat="45.80919" lon="4.2459">
        <ele>490.4</ele>
        <time>2019-10-14T13:57:29Z</time>
      </trkpt>
      <trkpt lat="45.80918" lon="4.24597">
        <ele>490.4</ele>
        <time>2019-10-14T13:57:33Z</time>
      </trkpt>
      <trkpt lat="45.80918" lon="4.24604">
        <ele>490.3</ele>
        <time>2019-10-14T13:57:38Z</time>
      </trkpt>
      <trkpt lat="45.80919" lon="4.24611">
        <ele>490.2</ele>
        <time>2019-10-14T13:57:44Z</time>
      </trkpt>
      <trkpt lat="45.8092" lon="4.24619">
        <ele>490.2</ele>
        <time>2019-10-14T13:57:51Z</time>
      </trkpt>
      <trkpt lat="45.8092" lon="4.24625">
        <ele>490.1</ele>
        <time>2019-10-14T13:57:57Z</time>
      </trkpt>
      <trkpt lat="45.8092" lon="4.24632">
        <ele>490</ele>
        <time>2019-10-14T13:58:06Z</time>
      </trkpt>
      <trkpt lat="45.80923" lon="4.24638">
        <ele>489.9</ele>
        <time>2019-10-14T13:58:14Z</time>
      </trkpt>
      <trkpt lat="45.80924" lon="4.24645">
        <ele>489.8</ele>
        <time>2019-10-14T13:58:20Z</time>
      </trkpt>
      <trkpt lat="45.80925" lon="4.24653">
        <ele>489.8</ele>
        <time>2019-10-14T13:58:26Z</time>
      </trkpt>
      <trkpt lat="45.80927" lon="4.24659">
        <ele>489.7</ele>
        <time>2019-10-14T13:58:31Z</time>
      </trkpt>
      <trkpt lat="45.80929" lon="4.24664">
        <ele>489.6</ele>
        <time>2019-10-14T13:58:38Z</time>
      </trkpt>
      <trkpt lat="45.80933" lon="4.24668">
        <ele>489.5</ele>
        <time>2019-10-14T13:58:46Z</time>
      </trkpt>
      <trkpt lat="45.80938" lon="4.24672">
        <ele>489.5</ele>
        <time>2019-10-14T13:58:52Z</time>
      </trkpt>
      <trkpt lat="45.80942" lon="4.24676">
        <ele>489.4</ele>
        <time>2019-10-14T13:58:56Z</time>
      </trkpt>
      <trkpt lat="45.80946" lon="4.24681">
        <ele>489.4</ele>
        <time>2019-10-14T13:59:01Z</time>
      </trkpt>
      <trkpt lat="45.80948" lon="4.24687">
        <ele>489.3</ele>
        <time>2019-10-14T13:59:09Z</time>
      </trkpt>
      <trkpt lat="45.80952" lon="4.24691">
        <ele>489.2</ele>
        <time>2019-10-14T13:59:15Z</time>
      </trkpt>
      <trkpt lat="45.80957" lon="4.24696">
        <ele>489.2</ele>
        <time>2019-10-14T13:59:21Z</time>
      </trkpt>
      <trkpt lat="45.80961" lon="4.24699">
        <ele>489.1</ele>
        <time>2019-10-14T13:59:28Z</time>
      </trkpt>
      <trkpt lat="45.80963" lon="4.24704">
        <ele>489</ele>
        <time>2019-10-14T13:59:36Z</time>
      </trkpt>
      <trkpt lat="45.80967" lon="4.24709">
        <ele>489</ele>
        <time>2019-10-14T13:59:43Z</time>
      </trkpt>
      <trkpt lat="45.80971" lon="4.24713">
        <ele>488.9</ele>
        <time>2019-10-14T13:59:49Z</time>
      </trkpt>
      <trkpt lat="45.80976" lon="4.24716">
        <ele>488.8</ele>
        <time>2019-10-14T13:59:54Z</time>
      </trkpt>
      <trkpt lat="45.80981" lon="4.24719">
        <ele>488.8</ele>
        <time>2019-10-14T14:00:00Z</time>
      </trkpt>
      <trkpt lat="45.80983" lon="4.24725">
        <ele>488.7</ele>
        <time>2019-10-14T14:00:05Z</time>
      </trkpt>
      <trkpt lat="45.80988" lon="4.24729">
        <ele>488.7</ele>
        <time>2019-10-14T14:00:11Z</time>
      </trkpt>
      <trkpt lat="45.80991" lon="4.24733">
        <ele>488.6</ele>
        <time>2019-10-14T14:00:17Z</time>
      </trkpt>
      <trkpt lat="45.80994" lon="4.24738">
        <ele>488.5</ele>
        <time>2019-10-14T14:00:26Z</time>
      </trkpt>
      <trkpt lat="45.80998" lon="4.24741">
        <ele>488.4</ele>
        <time>2019-10-14T14:00:37Z</time>
      </trkpt>
      <trkpt lat="45.81003" lon="4.24744">
        <ele>488.3</ele>
        <time>2019-10-14T14:00:43Z</time>
      </trkpt>
      <trkpt lat="45.81007" lon="4.24746">
        <ele>488.2</ele>
        <time>2019-10-14T14:00:47Z</time>
      </trkpt>
      <trkpt lat="45.81012" lon="4.24748">
        <ele>488.2</ele>
        <time>2019-10-14T14:00:50Z</time>
      </trkpt>
      <trkpt lat="45.81017" lon="4.2475">
        <ele>488.2</ele>
        <time>2019-10-14T14:00:53Z</time>
      </trkpt>
      <trkpt lat="45.81022" lon="4.24753">
        <ele>488.1</ele>
        <time>2019-10-14T14:00:57Z</time>
      </trkpt>
      <trkpt lat="45.81026" lon="4.24757">
        <ele>488</ele>
        <time>2019-10-14T14:01:08Z</time>
      </trkpt>
      <trkpt lat="45.81029" lon="4.24763">
        <ele>487.8</ele>
        <time>2019-10-14T14:01:19Z</time>
      </trkpt>
      <trkpt lat="45.81033" lon="4.24767">
        <ele>487.7</ele>
        <time>2019-10-14T14:01:26Z</time>
      </trkpt>
      <trkpt lat="45.81038" lon="4.24772">
        <ele>487.7</ele>
        <time>2019-10-14T14:01:31Z</time>
      </trkpt>
      <trkpt lat="45.81042" lon="4.24775">
        <ele>487.6</ele>
        <time>2019-10-14T14:01:35Z</time>
      </trkpt>
      <trkpt lat="45.81048" lon="4.24775">
        <ele>487.5</ele>
        <time>2019-10-14T14:01:40Z</time>
      </trkpt>
      <trkpt lat="45.81052" lon="4.24776">
        <ele>487.4</ele>
        <time>2019-10-14T14:01:49Z</time>
      </trkpt>
      <trkpt lat="45.81057" lon="4.24774">
        <ele>487.3</ele>
        <time>2019-10-14T14:01:55Z</time>
      </trkpt>
      <trkpt lat="45.81062" lon="4.24775">
        <ele>487.3</ele>
        <time>2019-10-14T14:01:59Z</time>
      </trkpt>
      <trkpt lat="45.81067" lon="4.24777">
        <ele>487.1</ele>
        <time>2019-10-14T14:02:05Z</time>
      </trkpt>
      <trkpt lat="45.81072" lon="4.24775">
        <ele>487</ele>
        <time>2019-10-14T14:02:12Z</time>
      </trkpt>
      <trkpt lat="45.81073" lon="4.24768">
        <ele>486.8</ele>
        <time>2019-10-14T14:02:18Z</time>
      </trkpt>
      <trkpt lat="45.81078" lon="4.24763">
        <ele>486.7</ele>
        <time>2019-10-14T14:02:24Z</time>
      </trkpt>
      <trkpt lat="45.81082" lon="4.2476">
        <ele>486.6</ele>
        <time>2019-10-14T14:02:29Z</time>
      </trkpt>
      <trkpt lat="45.81085" lon="4.24755">
        <ele>486.4</ele>
        <time>2019-10-14T14:02:37Z</time>
      </trkpt>
      <trkpt lat="45.81088" lon="4.2475">
        <ele>486.2</ele>
        <time>2019-10-14T14:03:03Z</time>
      </trkpt>
      <trkpt lat="45.81092" lon="4.24746">
        <ele>485</ele>
        <time>2019-10-14T14:03:39Z</time>
      </trkpt>
      <trkpt lat="45.8109" lon="4.24752">
        <ele>483.8</ele>
        <time>2019-10-14T14:04:04Z</time>
      </trkpt>
      <trkpt lat="45.81092" lon="4.24747">
        <ele>481.9</ele>
        <time>2019-10-14T14:04:36Z</time>
      </trkpt>
      <trkpt lat="45.81097" lon="4.24745">
        <ele>481.6</ele>
        <time>2019-10-14T14:04:42Z</time>
      </trkpt>
      <trkpt lat="45.81102" lon="4.24746">
        <ele>481.3</ele>
        <time>2019-10-14T14:04:46Z</time>
      </trkpt>
      <trkpt lat="45.81107" lon="4.24746">
        <ele>481.1</ele>
        <time>2019-10-14T14:04:49Z</time>
      </trkpt>
      <trkpt lat="45.81112" lon="4.24747">
        <ele>480.9</ele>
        <time>2019-10-14T14:04:52Z</time>
      </trkpt>
      <trkpt lat="45.81117" lon="4.24749">
        <ele>480.6</ele>
        <time>2019-10-14T14:04:58Z</time>
      </trkpt>
      <trkpt lat="45.81122" lon="4.24749">
        <ele>480.2</ele>
        <time>2019-10-14T14:05:04Z</time>
      </trkpt>
      <trkpt lat="45.81127" lon="4.24748">
        <ele>479.9</ele>
        <time>2019-10-14T14:05:10Z</time>
      </trkpt>
      <trkpt lat="45.81132" lon="4.24747">
        <ele>479.5</ele>
        <time>2019-10-14T14:05:16Z</time>
      </trkpt>
      <trkpt lat="45.81137" lon="4.24745">
        <ele>479.3</ele>
        <time>2019-10-14T14:05:21Z</time>
      </trkpt>
      <trkpt lat="45.81141" lon="4.24744">
        <ele>479</ele>
        <time>2019-10-14T14:05:26Z</time>
      </trkpt>
      <trkpt lat="45.81146" lon="4.24742">
        <ele>478.6</ele>
        <time>2019-10-14T14:05:33Z</time>
      </trkpt>
      <trkpt lat="45.81151" lon="4.24741">
        <ele>478.4</ele>
        <time>2019-10-14T14:05:38Z</time>
      </trkpt>
      <trkpt lat="45.81157" lon="4.24739">
        <ele>478.1</ele>
        <time>2019-10-14T14:05:43Z</time>
      </trkpt>
      <trkpt lat="45.81162" lon="4.24735">
        <ele>477.9</ele>
        <time>2019-10-14T14:05:47Z</time>
      </trkpt>
      <trkpt lat="45.81166" lon="4.24731">
        <ele>477.7</ele>
        <time>2019-10-14T14:05:52Z</time>
      </trkpt>
      <trkpt lat="45.8117" lon="4.24727">
        <ele>477.4</ele>
        <time>2019-10-14T14:05:58Z</time>
      </trkpt>
      <trkpt lat="45.81173" lon="4.24723">
        <ele>477.2</ele>
        <time>2019-10-14T14:06:03Z</time>
      </trkpt>
      <trkpt lat="45.81178" lon="4.24722">
        <ele>476.9</ele>
        <time>2019-10-14T14:06:08Z</time>
      </trkpt>
      <trkpt lat="45.81182" lon="4.24719">
        <ele>476.6</ele>
        <time>2019-10-14T14:06:14Z</time>
      </trkpt>
      <trkpt lat="45.81188" lon="4.24718">
        <ele>476.3</ele>
        <time>2019-10-14T14:06:19Z</time>
      </trkpt>
      <trkpt lat="45.81193" lon="4.24717">
        <ele>476.1</ele>
        <time>2019-10-14T14:06:22Z</time>
      </trkpt>
      <trkpt lat="45.81198" lon="4.24714">
        <ele>475.9</ele>
        <time>2019-10-14T14:06:26Z</time>
      </trkpt>
      <trkpt lat="45.81203" lon="4.24711">
        <ele>475.7</ele>
        <time>2019-10-14T14:06:30Z</time>
      </trkpt>
      <trkpt lat="45.81208" lon="4.2471">
        <ele>475.4</ele>
        <time>2019-10-14T14:06:35Z</time>
      </trkpt>
      <trkpt lat="45.81212" lon="4.24707">
        <ele>475</ele>
        <time>2019-10-14T14:06:43Z</time>
      </trkpt>
      <trkpt lat="45.81216" lon="4.24704">
        <ele>474.8</ele>
        <time>2019-10-14T14:06:47Z</time>
      </trkpt>
      <trkpt lat="45.8122" lon="4.24701">
        <ele>474.6</ele>
        <time>2019-10-14T14:06:51Z</time>
      </trkpt>
      <trkpt lat="45.81225" lon="4.24696">
        <ele>474.4</ele>
        <time>2019-10-14T14:06:57Z</time>
      </trkpt>
      <trkpt lat="45.8123" lon="4.24692">
        <ele>474.1</ele>
        <time>2019-10-14T14:07:01Z</time>
      </trkpt>
      <trkpt lat="45.81235" lon="4.24688">
        <ele>473.9</ele>
        <time>2019-10-14T14:07:05Z</time>
      </trkpt>
      <trkpt lat="45.8124" lon="4.24687">
        <ele>473.7</ele>
        <time>2019-10-14T14:07:08Z</time>
      </trkpt>
      <trkpt lat="45.81244" lon="4.24685">
        <ele>473.5</ele>
        <time>2019-10-14T14:07:12Z</time>
      </trkpt>
      <trkpt lat="45.8125" lon="4.24683">
        <ele>473.2</ele>
        <time>2019-10-14T14:07:18Z</time>
      </trkpt>
      <trkpt lat="45.81255" lon="4.24683">
        <ele>472.9</ele>
        <time>2019-10-14T14:07:22Z</time>
      </trkpt>
      <trkpt lat="45.8126" lon="4.24682">
        <ele>472.7</ele>
        <time>2019-10-14T14:07:26Z</time>
      </trkpt>
      <trkpt lat="45.81265" lon="4.24679">
        <ele>472.3</ele>
        <time>2019-10-14T14:07:33Z</time>
      </trkpt>
      <trkpt lat="45.81269" lon="4.24676">
        <ele>472.1</ele>
        <time>2019-10-14T14:07:37Z</time>
      </trkpt>
      <trkpt lat="45.81274" lon="4.24675">
        <ele>471.8</ele>
        <time>2019-10-14T14:07:42Z</time>
      </trkpt>
      <trkpt lat="45.81277" lon="4.2467">
        <ele>471.5</ele>
        <time>2019-10-14T14:07:48Z</time>
      </trkpt>
      <trkpt lat="45.81281" lon="4.24667">
        <ele>471.3</ele>
        <time>2019-10-14T14:07:53Z</time>
      </trkpt>
      <trkpt lat="45.81287" lon="4.24665">
        <ele>471.1</ele>
        <time>2019-10-14T14:07:58Z</time>
      </trkpt>
      <trkpt lat="45.81292" lon="4.24667">
        <ele>470.9</ele>
        <time>2019-10-14T14:08:03Z</time>
      </trkpt>
      <trkpt lat="45.81297" lon="4.2467">
        <ele>470.7</ele>
        <time>2019-10-14T14:08:08Z</time>
      </trkpt>
      <trkpt lat="45.81302" lon="4.24672">
        <ele>470.5</ele>
        <time>2019-10-14T14:08:12Z</time>
      </trkpt>
      <trkpt lat="45.81307" lon="4.24673">
        <ele>470.4</ele>
        <time>2019-10-14T14:08:17Z</time>
      </trkpt>
      <trkpt lat="45.81312" lon="4.24673">
        <ele>470.1</ele>
        <time>2019-10-14T14:08:24Z</time>
      </trkpt>
      <trkpt lat="45.81318" lon="4.24672">
        <ele>469.9</ele>
        <time>2019-10-14T14:08:30Z</time>
      </trkpt>
      <trkpt lat="45.81322" lon="4.24672">
        <ele>469.8</ele>
        <time>2019-10-14T14:08:35Z</time>
      </trkpt>
      <trkpt lat="45.81327" lon="4.24669">
        <ele>469.6</ele>
        <time>2019-10-14T14:08:40Z</time>
      </trkpt>
      <trkpt lat="45.81331" lon="4.24669">
        <ele>469.4</ele>
        <time>2019-10-14T14:08:46Z</time>
      </trkpt>
      <trkpt lat="45.81336" lon="4.24672">
        <ele>469.2</ele>
        <time>2019-10-14T14:08:53Z</time>
      </trkpt>
      <trkpt lat="45.81341" lon="4.24673">
        <ele>469.1</ele>
        <time>2019-10-14T14:08:59Z</time>
      </trkpt>
      <trkpt lat="45.81345" lon="4.24676">
        <ele>468.9</ele>
        <time>2019-10-14T14:09:06Z</time>
      </trkpt>
      <trkpt lat="45.81349" lon="4.2468">
        <ele>468.8</ele>
        <time>2019-10-14T14:09:12Z</time>
      </trkpt>
      <trkpt lat="45.81354" lon="4.24682">
        <ele>468.6</ele>
        <time>2019-10-14T14:09:18Z</time>
      </trkpt>
      <trkpt lat="45.81358" lon="4.24684">
        <ele>468.5</ele>
        <time>2019-10-14T14:09:25Z</time>
      </trkpt>
      <trkpt lat="45.81363" lon="4.24688">
        <ele>468.4</ele>
        <time>2019-10-14T14:09:33Z</time>
      </trkpt>
      <trkpt lat="45.81367" lon="4.24692">
        <ele>468.4</ele>
        <time>2019-10-14T14:09:40Z</time>
      </trkpt>
      <trkpt lat="45.81371" lon="4.24692">
        <ele>468.4</ele>
        <time>2019-10-14T14:09:45Z</time>
      </trkpt>
      <trkpt lat="45.81377" lon="4.24692">
        <ele>468.4</ele>
        <time>2019-10-14T14:09:52Z</time>
      </trkpt>
      <trkpt lat="45.81381" lon="4.24695">
        <ele>468.3</ele>
        <time>2019-10-14T14:09:58Z</time>
      </trkpt>
      <trkpt lat="45.81387" lon="4.24695">
        <ele>468.3</ele>
        <time>2019-10-14T14:10:04Z</time>
      </trkpt>
      <trkpt lat="45.81391" lon="4.24698">
        <ele>468.3</ele>
        <time>2019-10-14T14:10:10Z</time>
      </trkpt>
      <trkpt lat="45.81396" lon="4.24697">
        <ele>468.3</ele>
        <time>2019-10-14T14:10:20Z</time>
      </trkpt>
      <trkpt lat="45.814" lon="4.24698">
        <ele>468.3</ele>
        <time>2019-10-14T14:10:25Z</time>
      </trkpt>
      <trkpt lat="45.81405" lon="4.24699">
        <ele>468.3</ele>
        <time>2019-10-14T14:10:29Z</time>
      </trkpt>
      <trkpt lat="45.81409" lon="4.24702">
        <ele>468.3</ele>
        <time>2019-10-14T14:10:36Z</time>
      </trkpt>
      <trkpt lat="45.81414" lon="4.24703">
        <ele>468.3</ele>
        <time>2019-10-14T14:10:45Z</time>
      </trkpt>
      <trkpt lat="45.81419" lon="4.24705">
        <ele>468.4</ele>
        <time>2019-10-14T14:10:53Z</time>
      </trkpt>
      <trkpt lat="45.81423" lon="4.24708">
        <ele>468.4</ele>
        <time>2019-10-14T14:10:58Z</time>
      </trkpt>
      <trkpt lat="45.81428" lon="4.24706">
        <ele>468.4</ele>
        <time>2019-10-14T14:11:03Z</time>
      </trkpt>
      <trkpt lat="45.81423" lon="4.24708">
        <ele>468.5</ele>
        <time>2019-10-14T14:11:37Z</time>
      </trkpt>
      <trkpt lat="45.81421" lon="4.24713">
        <ele>468.5</ele>
        <time>2019-10-14T14:11:45Z</time>
      </trkpt>
      <trkpt lat="45.81425" lon="4.24715">
        <ele>468.5</ele>
        <time>2019-10-14T14:11:55Z</time>
      </trkpt>
      <trkpt lat="45.8143" lon="4.24714">
        <ele>468.5</ele>
        <time>2019-10-14T14:12:04Z</time>
      </trkpt>
      <trkpt lat="45.81434" lon="4.24719">
        <ele>468.5</ele>
        <time>2019-10-14T14:12:09Z</time>
      </trkpt>
      <trkpt lat="45.81438" lon="4.24721">
        <ele>468.6</ele>
        <time>2019-10-14T14:12:16Z</time>
      </trkpt>
      <trkpt lat="45.81444" lon="4.2472">
        <ele>468.6</ele>
        <time>2019-10-14T14:12:23Z</time>
      </trkpt>
      <trkpt lat="45.81448" lon="4.2472">
        <ele>468.7</ele>
        <time>2019-10-14T14:12:31Z</time>
      </trkpt>
      <trkpt lat="45.81452" lon="4.24718">
        <ele>468.8</ele>
        <time>2019-10-14T14:12:52Z</time>
      </trkpt>
      <trkpt lat="45.81448" lon="4.24719">
        <ele>468.8</ele>
        <time>2019-10-14T14:13:09Z</time>
      </trkpt>
      <trkpt lat="45.81452" lon="4.24716">
        <ele>469</ele>
        <time>2019-10-14T14:13:28Z</time>
      </trkpt>
      <trkpt lat="45.81457" lon="4.24714">
        <ele>469.1</ele>
        <time>2019-10-14T14:13:33Z</time>
      </trkpt>
      <trkpt lat="45.81462" lon="4.24715">
        <ele>469.2</ele>
        <time>2019-10-14T14:13:38Z</time>
      </trkpt>
      <trkpt lat="45.81466" lon="4.24717">
        <ele>469.3</ele>
        <time>2019-10-14T14:13:44Z</time>
      </trkpt>
      <trkpt lat="45.81471" lon="4.24718">
        <ele>469.5</ele>
        <time>2019-10-14T14:13:50Z</time>
      </trkpt>
      <trkpt lat="45.81477" lon="4.24715">
        <ele>469.7</ele>
        <time>2019-10-14T14:13:55Z</time>
      </trkpt>
      <trkpt lat="45.81481" lon="4.24713">
        <ele>469.9</ele>
        <time>2019-10-14T14:14:00Z</time>
      </trkpt>
      <trkpt lat="45.81486" lon="4.24712">
        <ele>470.1</ele>
        <time>2019-10-14T14:14:05Z</time>
      </trkpt>
      <trkpt lat="45.81492" lon="4.24712">
        <ele>470.3</ele>
        <time>2019-10-14T14:14:10Z</time>
      </trkpt>
      <trkpt lat="45.81497" lon="4.2471">
        <ele>470.5</ele>
        <time>2019-10-14T14:14:15Z</time>
      </trkpt>
      <trkpt lat="45.81502" lon="4.24708">
        <ele>470.7</ele>
        <time>2019-10-14T14:14:20Z</time>
      </trkpt>
      <trkpt lat="45.81507" lon="4.24707">
        <ele>470.9</ele>
        <time>2019-10-14T14:14:25Z</time>
      </trkpt>
      <trkpt lat="45.81512" lon="4.24707">
        <ele>471.1</ele>
        <time>2019-10-14T14:14:31Z</time>
      </trkpt>
      <trkpt lat="45.81517" lon="4.24707">
        <ele>471.3</ele>
        <time>2019-10-14T14:14:38Z</time>
      </trkpt>
      <trkpt lat="45.81522" lon="4.24709">
        <ele>471.6</ele>
        <time>2019-10-14T14:14:44Z</time>
      </trkpt>
      <trkpt lat="45.81526" lon="4.24709">
        <ele>471.8</ele>
        <time>2019-10-14T14:14:48Z</time>
      </trkpt>
      <trkpt lat="45.81531" lon="4.24711">
        <ele>472</ele>
        <time>2019-10-14T14:14:52Z</time>
      </trkpt>
      <trkpt lat="45.81535" lon="4.24711">
        <ele>472.1</ele>
        <time>2019-10-14T14:14:56Z</time>
      </trkpt>
      <trkpt lat="45.81541" lon="4.24711">
        <ele>472.3</ele>
        <time>2019-10-14T14:15:00Z</time>
      </trkpt>
      <trkpt lat="45.81546" lon="4.24712">
        <ele>472.5</ele>
        <time>2019-10-14T14:15:04Z</time>
      </trkpt>
      <trkpt lat="45.81551" lon="4.24713">
        <ele>472.8</ele>
        <time>2019-10-14T14:15:10Z</time>
      </trkpt>
      <trkpt lat="45.81555" lon="4.24714">
        <ele>473</ele>
        <time>2019-10-14T14:15:15Z</time>
      </trkpt>
      <trkpt lat="45.8156" lon="4.24716">
        <ele>473.2</ele>
        <time>2019-10-14T14:15:20Z</time>
      </trkpt>
      <trkpt lat="45.81564" lon="4.24716">
        <ele>473.4</ele>
        <time>2019-10-14T14:15:25Z</time>
      </trkpt>
      <trkpt lat="45.81569" lon="4.24719">
        <ele>473.6</ele>
        <time>2019-10-14T14:15:30Z</time>
      </trkpt>
      <trkpt lat="45.81573" lon="4.24723">
        <ele>473.8</ele>
        <time>2019-10-14T14:15:35Z</time>
      </trkpt>
      <trkpt lat="45.81579" lon="4.24726">
        <ele>474</ele>
        <time>2019-10-14T14:15:39Z</time>
      </trkpt>
      <trkpt lat="45.81583" lon="4.24729">
        <ele>474.1</ele>
        <time>2019-10-14T14:15:43Z</time>
      </trkpt>
      <trkpt lat="45.81589" lon="4.24733">
        <ele>474.3</ele>
        <time>2019-10-14T14:15:47Z</time>
      </trkpt>
      <trkpt lat="45.81593" lon="4.24736">
        <ele>474.4</ele>
        <time>2019-10-14T14:15:51Z</time>
      </trkpt>
      <trkpt lat="45.81598" lon="4.24738">
        <ele>474.6</ele>
        <time>2019-10-14T14:15:56Z</time>
      </trkpt>
      <trkpt lat="45.81603" lon="4.24737">
        <ele>474.8</ele>
        <time>2019-10-14T14:16:02Z</time>
      </trkpt>
      <trkpt lat="45.81608" lon="4.24738">
        <ele>475.1</ele>
        <time>2019-10-14T14:16:11Z</time>
      </trkpt>
      <trkpt lat="45.81613" lon="4.24742">
        <ele>475.3</ele>
        <time>2019-10-14T14:16:16Z</time>
      </trkpt>
      <trkpt lat="45.81617" lon="4.24746">
        <ele>475.4</ele>
        <time>2019-10-14T14:16:19Z</time>
      </trkpt>
      <trkpt lat="45.8162" lon="4.2475">
        <ele>475.6</ele>
        <time>2019-10-14T14:16:23Z</time>
      </trkpt>
      <trkpt lat="45.81625" lon="4.24753">
        <ele>475.8</ele>
        <time>2019-10-14T14:16:27Z</time>
      </trkpt>
      <trkpt lat="45.81629" lon="4.24756">
        <ele>476</ele>
        <time>2019-10-14T14:16:32Z</time>
      </trkpt>
      <trkpt lat="45.81634" lon="4.2476">
        <ele>476.3</ele>
        <time>2019-10-14T14:16:37Z</time>
      </trkpt>
      <trkpt lat="45.81638" lon="4.24763">
        <ele>476.5</ele>
        <time>2019-10-14T14:16:42Z</time>
      </trkpt>
      <trkpt lat="45.81643" lon="4.24766">
        <ele>476.7</ele>
        <time>2019-10-14T14:16:47Z</time>
      </trkpt>
      <trkpt lat="45.81648" lon="4.24767">
        <ele>477</ele>
        <time>2019-10-14T14:16:56Z</time>
      </trkpt>
      <trkpt lat="45.81652" lon="4.2477">
        <ele>477.2</ele>
        <time>2019-10-14T14:17:01Z</time>
      </trkpt>
      <trkpt lat="45.81657" lon="4.24773">
        <ele>477.4</ele>
        <time>2019-10-14T14:17:07Z</time>
      </trkpt>
      <trkpt lat="45.81661" lon="4.24777">
        <ele>477.6</ele>
        <time>2019-10-14T14:17:14Z</time>
      </trkpt>
      <trkpt lat="45.81665" lon="4.24782">
        <ele>478</ele>
        <time>2019-10-14T14:17:24Z</time>
      </trkpt>
      <trkpt lat="45.81667" lon="4.24788">
        <ele>478.1</ele>
        <time>2019-10-14T14:17:29Z</time>
      </trkpt>
      <trkpt lat="45.8167" lon="4.24794">
        <ele>478.4</ele>
        <time>2019-10-14T14:17:36Z</time>
      </trkpt>
      <trkpt lat="45.81673" lon="4.24799">
        <ele>478.7</ele>
        <time>2019-10-14T14:17:46Z</time>
      </trkpt>
      <trkpt lat="45.81676" lon="4.24806">
        <ele>478.9</ele>
        <time>2019-10-14T14:17:52Z</time>
      </trkpt>
      <trkpt lat="45.81677" lon="4.24814">
        <ele>479</ele>
        <time>2019-10-14T14:17:58Z</time>
      </trkpt>
      <trkpt lat="45.81678" lon="4.24822">
        <ele>479.1</ele>
        <time>2019-10-14T14:18:02Z</time>
      </trkpt>
      <trkpt lat="45.81678" lon="4.24829">
        <ele>479.3</ele>
        <time>2019-10-14T14:18:08Z</time>
      </trkpt>
      <trkpt lat="45.8168" lon="4.24836">
        <ele>479.4</ele>
        <time>2019-10-14T14:18:16Z</time>
      </trkpt>
      <trkpt lat="45.8168" lon="4.24843">
        <ele>479.5</ele>
        <time>2019-10-14T14:18:21Z</time>
      </trkpt>
      <trkpt lat="45.81681" lon="4.24849">
        <ele>479.7</ele>
        <time>2019-10-14T14:18:32Z</time>
      </trkpt>
      <trkpt lat="45.81684" lon="4.24856">
        <ele>479.9</ele>
        <time>2019-10-14T14:18:42Z</time>
      </trkpt>
      <trkpt lat="45.81689" lon="4.2486">
        <ele>479.9</ele>
        <time>2019-10-14T14:18:47Z</time>
      </trkpt>
      <trkpt lat="45.8169" lon="4.24866">
        <ele>480</ele>
        <time>2019-10-14T14:18:52Z</time>
      </trkpt>
      <trkpt lat="45.8169" lon="4.24873">
        <ele>480</ele>
        <time>2019-10-14T14:18:58Z</time>
      </trkpt>
      <trkpt lat="45.81691" lon="4.24879">
        <ele>480.1</ele>
        <time>2019-10-14T14:19:05Z</time>
      </trkpt>
      <trkpt lat="45.81693" lon="4.24886">
        <ele>480.1</ele>
        <time>2019-10-14T14:19:11Z</time>
      </trkpt>
      <trkpt lat="45.81693" lon="4.24892">
        <ele>480.1</ele>
        <time>2019-10-14T14:19:19Z</time>
      </trkpt>
      <trkpt lat="45.81696" lon="4.24898">
        <ele>480.2</ele>
        <time>2019-10-14T14:19:26Z</time>
      </trkpt>
      <trkpt lat="45.817" lon="4.24901">
        <ele>480.2</ele>
        <time>2019-10-14T14:19:41Z</time>
      </trkpt>
      <trkpt lat="45.81704" lon="4.24905">
        <ele>480.2</ele>
        <time>2019-10-14T14:19:50Z</time>
      </trkpt>
      <trkpt lat="45.81702" lon="4.24911">
        <ele>480.2</ele>
        <time>2019-10-14T14:20:02Z</time>
      </trkpt>
      <trkpt lat="45.81702" lon="4.24917">
        <ele>480.2</ele>
        <time>2019-10-14T14:20:10Z</time>
      </trkpt>
      <trkpt lat="45.81704" lon="4.24924">
        <ele>480.2</ele>
        <time>2019-10-14T14:20:15Z</time>
      </trkpt>
      <trkpt lat="45.81708" lon="4.24931">
        <ele>480.2</ele>
        <time>2019-10-14T14:20:20Z</time>
      </trkpt>
      <trkpt lat="45.81711" lon="4.24935">
        <ele>480.2</ele>
        <time>2019-10-14T14:20:24Z</time>
      </trkpt>
      <trkpt lat="45.81716" lon="4.24938">
        <ele>480.2</ele>
        <time>2019-10-14T14:20:30Z</time>
      </trkpt>
      <trkpt lat="45.81721" lon="4.2494">
        <ele>480.1</ele>
        <time>2019-10-14T14:20:41Z</time>
      </trkpt>
      <trkpt lat="45.81725" lon="4.24945">
        <ele>480.1</ele>
        <time>2019-10-14T14:20:46Z</time>
      </trkpt>
      <trkpt lat="45.81729" lon="4.24947">
        <ele>480.1</ele>
        <time>2019-10-14T14:20:50Z</time>
      </trkpt>
      <trkpt lat="45.81734" lon="4.24949">
        <ele>480.1</ele>
        <time>2019-10-14T14:20:55Z</time>
      </trkpt>
      <trkpt lat="45.81738" lon="4.24953">
        <ele>480</ele>
        <time>2019-10-14T14:21:00Z</time>
      </trkpt>
      <trkpt lat="45.81742" lon="4.24956">
        <ele>480</ele>
        <time>2019-10-14T14:21:05Z</time>
      </trkpt>
      <trkpt lat="45.81747" lon="4.2496">
        <ele>479.9</ele>
        <time>2019-10-14T14:21:11Z</time>
      </trkpt>
      <trkpt lat="45.81751" lon="4.24965">
        <ele>479.9</ele>
        <time>2019-10-14T14:21:17Z</time>
      </trkpt>
      <trkpt lat="45.81755" lon="4.24971">
        <ele>479.8</ele>
        <time>2019-10-14T14:21:22Z</time>
      </trkpt>
      <trkpt lat="45.81759" lon="4.24972">
        <ele>479.8</ele>
        <time>2019-10-14T14:21:28Z</time>
      </trkpt>
      <trkpt lat="45.81764" lon="4.24972">
        <ele>479.7</ele>
        <time>2019-10-14T14:21:36Z</time>
      </trkpt>
      <trkpt lat="45.81769" lon="4.24976">
        <ele>479.6</ele>
        <time>2019-10-14T14:21:45Z</time>
      </trkpt>
      <trkpt lat="45.81773" lon="4.24981">
        <ele>479.6</ele>
        <time>2019-10-14T14:21:49Z</time>
      </trkpt>
      <trkpt lat="45.81779" lon="4.24986">
        <ele>479.6</ele>
        <time>2019-10-14T14:21:53Z</time>
      </trkpt>
      <trkpt lat="45.81783" lon="4.2499">
        <ele>479.6</ele>
        <time>2019-10-14T14:21:55Z</time>
      </trkpt>
      <trkpt lat="45.81786" lon="4.24995">
        <ele>479.5</ele>
        <time>2019-10-14T14:21:59Z</time>
      </trkpt>
      <trkpt lat="45.8179" lon="4.24991">
        <ele>479.4</ele>
        <time>2019-10-14T14:22:15Z</time>
      </trkpt>
      <trkpt lat="45.81795" lon="4.24988">
        <ele>479.3</ele>
        <time>2019-10-14T14:22:21Z</time>
      </trkpt>
      <trkpt lat="45.81798" lon="4.24982">
        <ele>479.2</ele>
        <time>2019-10-14T14:22:25Z</time>
      </trkpt>
      <trkpt lat="45.81801" lon="4.24976">
        <ele>479.2</ele>
        <time>2019-10-14T14:22:28Z</time>
      </trkpt>
      <trkpt lat="45.81804" lon="4.2497">
        <ele>479.1</ele>
        <time>2019-10-14T14:22:30Z</time>
      </trkpt>
      <trkpt lat="45.81807" lon="4.24963">
        <ele>479.1</ele>
        <time>2019-10-14T14:22:33Z</time>
      </trkpt>
      <trkpt lat="45.81809" lon="4.24956">
        <ele>479</ele>
        <time>2019-10-14T14:22:36Z</time>
      </trkpt>
      <trkpt lat="45.8181" lon="4.2495">
        <ele>478.8</ele>
        <time>2019-10-14T14:22:48Z</time>
      </trkpt>
      <trkpt lat="45.81814" lon="4.24949">
        <ele>478.7</ele>
        <time>2019-10-14T14:22:56Z</time>
      </trkpt>
      <trkpt lat="45.81819" lon="4.24954">
        <ele>478.5</ele>
        <time>2019-10-14T14:23:03Z</time>
      </trkpt>
      <trkpt lat="45.81822" lon="4.24957">
        <ele>478.2</ele>
        <time>2019-10-14T14:23:26Z</time>
      </trkpt>
      <trkpt lat="45.81828" lon="4.24958">
        <ele>478</ele>
        <time>2019-10-14T14:23:44Z</time>
      </trkpt>
      <trkpt lat="45.81832" lon="4.24961">
        <ele>477.9</ele>
        <time>2019-10-14T14:23:50Z</time>
      </trkpt>
      <trkpt lat="45.81836" lon="4.24966">
        <ele>477.9</ele>
        <time>2019-10-14T14:23:57Z</time>
      </trkpt>
      <trkpt lat="45.81839" lon="4.24971">
        <ele>477.8</ele>
        <time>2019-10-14T14:24:02Z</time>
      </trkpt>
      <trkpt lat="45.81843" lon="4.24976">
        <ele>477.7</ele>
        <time>2019-10-14T14:24:07Z</time>
      </trkpt>
      <trkpt lat="45.81846" lon="4.2498">
        <ele>477.7</ele>
        <time>2019-10-14T14:24:11Z</time>
      </trkpt>
      <trkpt lat="45.8185" lon="4.24984">
        <ele>477.6</ele>
        <time>2019-10-14T14:24:16Z</time>
      </trkpt>
      <trkpt lat="45.81855" lon="4.24987">
        <ele>477.5</ele>
        <time>2019-10-14T14:24:21Z</time>
      </trkpt>
      <trkpt lat="45.8186" lon="4.24988">
        <ele>477.5</ele>
        <time>2019-10-14T14:24:26Z</time>
      </trkpt>
      <trkpt lat="45.81864" lon="4.24993">
        <ele>477.4</ele>
        <time>2019-10-14T14:24:31Z</time>
      </trkpt>
      <trkpt lat="45.81868" lon="4.24996">
        <ele>477.4</ele>
        <time>2019-10-14T14:24:36Z</time>
      </trkpt>
      <trkpt lat="45.81873" lon="4.24999">
        <ele>477.4</ele>
        <time>2019-10-14T14:24:41Z</time>
      </trkpt>
      <trkpt lat="45.81877" lon="4.25003">
        <ele>477.4</ele>
        <time>2019-10-14T14:24:46Z</time>
      </trkpt>
      <trkpt lat="45.8188" lon="4.25007">
        <ele>477.4</ele>
        <time>2019-10-14T14:24:51Z</time>
      </trkpt>
      <trkpt lat="45.81885" lon="4.2501">
        <ele>477.4</ele>
        <time>2019-10-14T14:24:56Z</time>
      </trkpt>
      <trkpt lat="45.8189" lon="4.25013">
        <ele>477.4</ele>
        <time>2019-10-14T14:25:01Z</time>
      </trkpt>
      <trkpt lat="45.81895" lon="4.25015">
        <ele>477.4</ele>
        <time>2019-10-14T14:25:06Z</time>
      </trkpt>
      <trkpt lat="45.819" lon="4.25018">
        <ele>477.5</ele>
        <time>2019-10-14T14:25:11Z</time>
      </trkpt>
      <trkpt lat="45.81904" lon="4.25022">
        <ele>477.5</ele>
        <time>2019-10-14T14:25:16Z</time>
      </trkpt>
      <trkpt lat="45.81907" lon="4.25027">
        <ele>477.6</ele>
        <time>2019-10-14T14:25:20Z</time>
      </trkpt>
      <trkpt lat="45.81912" lon="4.25031">
        <ele>477.6</ele>
        <time>2019-10-14T14:25:24Z</time>
      </trkpt>
      <trkpt lat="45.81917" lon="4.25032">
        <ele>477.6</ele>
        <time>2019-10-14T14:25:28Z</time>
      </trkpt>
      <trkpt lat="45.81922" lon="4.25034">
        <ele>477.7</ele>
        <time>2019-10-14T14:25:32Z</time>
      </trkpt>
      <trkpt lat="45.81927" lon="4.25034">
        <ele>477.7</ele>
        <time>2019-10-14T14:25:37Z</time>
      </trkpt>
      <trkpt lat="45.8193" lon="4.25038">
        <ele>477.7</ele>
        <time>2019-10-14T14:25:40Z</time>
      </trkpt>
      <trkpt lat="45.81926" lon="4.25034">
        <ele>477.8</ele>
        <time>2019-10-14T14:25:57Z</time>
      </trkpt>
      <trkpt lat="45.81923" lon="4.25028">
        <ele>477.9</ele>
        <time>2019-10-14T14:26:03Z</time>
      </trkpt>
      <trkpt lat="45.81922" lon="4.2502">
        <ele>477.8</ele>
        <time>2019-10-14T14:26:08Z</time>
      </trkpt>
      <trkpt lat="45.81921" lon="4.25013">
        <ele>477.8</ele>
        <time>2019-10-14T14:26:12Z</time>
      </trkpt>
      <trkpt lat="45.81919" lon="4.25006">
        <ele>477.8</ele>
        <time>2019-10-14T14:26:17Z</time>
      </trkpt>
      <trkpt lat="45.81916" lon="4.25">
        <ele>477.7</ele>
        <time>2019-10-14T14:26:22Z</time>
      </trkpt>
      <trkpt lat="45.81913" lon="4.24993">
        <ele>477.7</ele>
        <time>2019-10-14T14:26:28Z</time>
      </trkpt>
      <trkpt lat="45.8191" lon="4.24986">
        <ele>477.7</ele>
        <time>2019-10-14T14:26:32Z</time>
      </trkpt>
      <trkpt lat="45.81907" lon="4.24981">
        <ele>477.6</ele>
        <time>2019-10-14T14:26:36Z</time>
      </trkpt>
      <trkpt lat="45.81906" lon="4.24974">
        <ele>477.6</ele>
        <time>2019-10-14T14:26:43Z</time>
      </trkpt>
      <trkpt lat="45.8191" lon="4.24972">
        <ele>477.6</ele>
        <time>2019-10-14T14:26:51Z</time>
      </trkpt>
      <trkpt lat="45.81915" lon="4.24971">
        <ele>477.5</ele>
        <time>2019-10-14T14:26:58Z</time>
      </trkpt>
      <trkpt lat="45.8192" lon="4.2497">
        <ele>477.5</ele>
        <time>2019-10-14T14:27:03Z</time>
      </trkpt>
      <trkpt lat="45.81925" lon="4.2497">
        <ele>477.5</ele>
        <time>2019-10-14T14:27:08Z</time>
      </trkpt>
      <trkpt lat="45.8193" lon="4.24969">
        <ele>477.5</ele>
        <time>2019-10-14T14:27:14Z</time>
      </trkpt>
      <trkpt lat="45.81935" lon="4.24968">
        <ele>477.5</ele>
        <time>2019-10-14T14:27:20Z</time>
      </trkpt>
      <trkpt lat="45.8194" lon="4.24969">
        <ele>477.5</ele>
        <time>2019-10-14T14:27:25Z</time>
      </trkpt>
      <trkpt lat="45.81945" lon="4.2497">
        <ele>477.5</ele>
        <time>2019-10-14T14:27:29Z</time>
      </trkpt>
      <trkpt lat="45.8195" lon="4.2497">
        <ele>477.6</ele>
        <time>2019-10-14T14:27:33Z</time>
      </trkpt>
      <trkpt lat="45.81955" lon="4.24971">
        <ele>477.6</ele>
        <time>2019-10-14T14:27:39Z</time>
      </trkpt>
      <trkpt lat="45.8196" lon="4.24972">
        <ele>477.6</ele>
        <time>2019-10-14T14:27:45Z</time>
      </trkpt>
      <trkpt lat="45.81964" lon="4.24972">
        <ele>477.7</ele>
        <time>2019-10-14T14:27:50Z</time>
      </trkpt>
      <trkpt lat="45.8197" lon="4.24972">
        <ele>477.8</ele>
        <time>2019-10-14T14:27:55Z</time>
      </trkpt>
      <trkpt lat="45.81974" lon="4.2497">
        <ele>477.9</ele>
        <time>2019-10-14T14:27:59Z</time>
      </trkpt>
      <trkpt lat="45.81979" lon="4.24968">
        <ele>477.9</ele>
        <time>2019-10-14T14:28:04Z</time>
      </trkpt>
      <trkpt lat="45.81984" lon="4.24964">
        <ele>478.1</ele>
        <time>2019-10-14T14:28:11Z</time>
      </trkpt>
      <trkpt lat="45.81988" lon="4.24961">
        <ele>478.3</ele>
        <time>2019-10-14T14:28:19Z</time>
      </trkpt>
      <trkpt lat="45.81993" lon="4.24956">
        <ele>478.4</ele>
        <time>2019-10-14T14:28:24Z</time>
      </trkpt>
      <trkpt lat="45.81997" lon="4.24953">
        <ele>478.5</ele>
        <time>2019-10-14T14:28:28Z</time>
      </trkpt>
      <trkpt lat="45.82001" lon="4.24948">
        <ele>478.7</ele>
        <time>2019-10-14T14:28:33Z</time>
      </trkpt>
      <trkpt lat="45.82005" lon="4.24946">
        <ele>478.8</ele>
        <time>2019-10-14T14:28:38Z</time>
      </trkpt>
      <trkpt lat="45.8201" lon="4.24944">
        <ele>479</ele>
        <time>2019-10-14T14:28:44Z</time>
      </trkpt>
      <trkpt lat="45.82015" lon="4.2494">
        <ele>479.2</ele>
        <time>2019-10-14T14:28:50Z</time>
      </trkpt>
      <trkpt lat="45.82019" lon="4.24936">
        <ele>479.3</ele>
        <time>2019-10-14T14:28:55Z</time>
      </trkpt>
      <trkpt lat="45.82023" lon="4.24931">
        <ele>479.5</ele>
        <time>2019-10-14T14:29:00Z</time>
      </trkpt>
      <trkpt lat="45.82027" lon="4.24927">
        <ele>479.6</ele>
        <time>2019-10-14T14:29:05Z</time>
      </trkpt>
      <trkpt lat="45.82031" lon="4.24924">
        <ele>479.8</ele>
        <time>2019-10-14T14:29:09Z</time>
      </trkpt>
      <trkpt lat="45.82036" lon="4.24921">
        <ele>479.9</ele>
        <time>2019-10-14T14:29:13Z</time>
      </trkpt>
      <trkpt lat="45.8204" lon="4.24918">
        <ele>480</ele>
        <time>2019-10-14T14:29:18Z</time>
      </trkpt>
      <trkpt lat="45.82045" lon="4.24916">
        <ele>480.2</ele>
        <time>2019-10-14T14:29:23Z</time>
      </trkpt>
      <trkpt lat="45.82049" lon="4.24912">
        <ele>480.4</ele>
        <time>2019-10-14T14:29:29Z</time>
      </trkpt>
      <trkpt lat="45.82054" lon="4.24911">
        <ele>480.5</ele>
        <time>2019-10-14T14:29:35Z</time>
      </trkpt>
      <trkpt lat="45.82059" lon="4.2491">
        <ele>480.7</ele>
        <time>2019-10-14T14:29:41Z</time>
      </trkpt>
      <trkpt lat="45.82064" lon="4.24908">
        <ele>480.8</ele>
        <time>2019-10-14T14:29:46Z</time>
      </trkpt>
      <trkpt lat="45.82068" lon="4.24905">
        <ele>481</ele>
        <time>2019-10-14T14:29:51Z</time>
      </trkpt>
      <trkpt lat="45.82073" lon="4.24903">
        <ele>481.1</ele>
        <time>2019-10-14T14:29:56Z</time>
      </trkpt>
      <trkpt lat="45.82077" lon="4.249">
        <ele>481.2</ele>
        <time>2019-10-14T14:30:01Z</time>
      </trkpt>
      <trkpt lat="45.82082" lon="4.24898">
        <ele>481.4</ele>
        <time>2019-10-14T14:30:07Z</time>
      </trkpt>
      <trkpt lat="45.82087" lon="4.24897">
        <ele>481.6</ele>
        <time>2019-10-14T14:30:14Z</time>
      </trkpt>
      <trkpt lat="45.82092" lon="4.24894">
        <ele>481.7</ele>
        <time>2019-10-14T14:30:19Z</time>
      </trkpt>
      <trkpt lat="45.82096" lon="4.24891">
        <ele>481.8</ele>
        <time>2019-10-14T14:30:24Z</time>
      </trkpt>
      <trkpt lat="45.82101" lon="4.24888">
        <ele>481.9</ele>
        <time>2019-10-14T14:30:30Z</time>
      </trkpt>
      <trkpt lat="45.82107" lon="4.24886">
        <ele>482.1</ele>
        <time>2019-10-14T14:30:36Z</time>
      </trkpt>
      <trkpt lat="45.82111" lon="4.24884">
        <ele>482.2</ele>
        <time>2019-10-14T14:30:41Z</time>
      </trkpt>
      <trkpt lat="45.82116" lon="4.24883">
        <ele>482.3</ele>
        <time>2019-10-14T14:30:45Z</time>
      </trkpt>
      <trkpt lat="45.82121" lon="4.24881">
        <ele>482.4</ele>
        <time>2019-10-14T14:30:49Z</time>
      </trkpt>
      <trkpt lat="45.82125" lon="4.24878">
        <ele>482.5</ele>
        <time>2019-10-14T14:30:53Z</time>
      </trkpt>
      <trkpt lat="45.8213" lon="4.24875">
        <ele>482.6</ele>
        <time>2019-10-14T14:30:58Z</time>
      </trkpt>
      <trkpt lat="45.82135" lon="4.24872">
        <ele>482.7</ele>
        <time>2019-10-14T14:31:03Z</time>
      </trkpt>
      <trkpt lat="45.8214" lon="4.2487">
        <ele>482.8</ele>
        <time>2019-10-14T14:31:08Z</time>
      </trkpt>
      <trkpt lat="45.82144" lon="4.24867">
        <ele>482.9</ele>
        <time>2019-10-14T14:31:12Z</time>
      </trkpt>
      <trkpt lat="45.82149" lon="4.24866">
        <ele>483</ele>
        <time>2019-10-14T14:31:16Z</time>
      </trkpt>
      <trkpt lat="45.82153" lon="4.24863">
        <ele>483.1</ele>
        <time>2019-10-14T14:31:20Z</time>
      </trkpt>
      <trkpt lat="45.82158" lon="4.24862">
        <ele>483.2</ele>
        <time>2019-10-14T14:31:25Z</time>
      </trkpt>
      <trkpt lat="45.82163" lon="4.24859">
        <ele>483.4</ele>
        <time>2019-10-14T14:31:30Z</time>
      </trkpt>
      <trkpt lat="45.82168" lon="4.24856">
        <ele>483.5</ele>
        <time>2019-10-14T14:31:35Z</time>
      </trkpt>
      <trkpt lat="45.82172" lon="4.24852">
        <ele>483.6</ele>
        <time>2019-10-14T14:31:40Z</time>
      </trkpt>
      <trkpt lat="45.82176" lon="4.2485">
        <ele>483.7</ele>
        <time>2019-10-14T14:31:44Z</time>
      </trkpt>
      <trkpt lat="45.8218" lon="4.24847">
        <ele>483.8</ele>
        <time>2019-10-14T14:31:49Z</time>
      </trkpt>
      <trkpt lat="45.82181" lon="4.24841">
        <ele>484</ele>
        <time>2019-10-14T14:31:54Z</time>
      </trkpt>
      <trkpt lat="45.82182" lon="4.24833">
        <ele>484.1</ele>
        <time>2019-10-14T14:31:58Z</time>
      </trkpt>
      <trkpt lat="45.82183" lon="4.24826">
        <ele>484.2</ele>
        <time>2019-10-14T14:32:03Z</time>
      </trkpt>
      <trkpt lat="45.82186" lon="4.24819">
        <ele>484.6</ele>
        <time>2019-10-14T14:32:14Z</time>
      </trkpt>
      <trkpt lat="45.8219" lon="4.24814">
        <ele>484.9</ele>
        <time>2019-10-14T14:32:21Z</time>
      </trkpt>
      <trkpt lat="45.82192" lon="4.24807">
        <ele>485.1</ele>
        <time>2019-10-14T14:32:27Z</time>
      </trkpt>
      <trkpt lat="45.82194" lon="4.248">
        <ele>485.3</ele>
        <time>2019-10-14T14:32:31Z</time>
      </trkpt>
      <trkpt lat="45.82196" lon="4.24794">
        <ele>485.5</ele>
        <time>2019-10-14T14:32:35Z</time>
      </trkpt>
      <trkpt lat="45.82198" lon="4.24787">
        <ele>485.7</ele>
        <time>2019-10-14T14:32:40Z</time>
      </trkpt>
      <trkpt lat="45.822" lon="4.24779">
        <ele>486.1</ele>
        <time>2019-10-14T14:32:47Z</time>
      </trkpt>
      <trkpt lat="45.82201" lon="4.24773">
        <ele>486.3</ele>
        <time>2019-10-14T14:32:51Z</time>
      </trkpt>
      <trkpt lat="45.82201" lon="4.24765">
        <ele>486.5</ele>
        <time>2019-10-14T14:32:56Z</time>
      </trkpt>
      <trkpt lat="45.82202" lon="4.24758">
        <ele>486.8</ele>
        <time>2019-10-14T14:33:01Z</time>
      </trkpt>
      <trkpt lat="45.82204" lon="4.2475">
        <ele>487.1</ele>
        <time>2019-10-14T14:33:06Z</time>
      </trkpt>
      <trkpt lat="45.82204" lon="4.24743">
        <ele>487.4</ele>
        <time>2019-10-14T14:33:11Z</time>
      </trkpt>
      <trkpt lat="45.82204" lon="4.24737">
        <ele>487.8</ele>
        <time>2019-10-14T14:33:17Z</time>
      </trkpt>
      <trkpt lat="45.82203" lon="4.24729">
        <ele>488.1</ele>
        <time>2019-10-14T14:33:22Z</time>
      </trkpt>
      <trkpt lat="45.82202" lon="4.24723">
        <ele>488.5</ele>
        <time>2019-10-14T14:33:28Z</time>
      </trkpt>
      <trkpt lat="45.82204" lon="4.24717">
        <ele>488.8</ele>
        <time>2019-10-14T14:33:33Z</time>
      </trkpt>
      <trkpt lat="45.82205" lon="4.24709">
        <ele>489</ele>
        <time>2019-10-14T14:33:37Z</time>
      </trkpt>
      <trkpt lat="45.82206" lon="4.24702">
        <ele>489.4</ele>
        <time>2019-10-14T14:33:43Z</time>
      </trkpt>
      <trkpt lat="45.82209" lon="4.24698">
        <ele>491.4</ele>
        <time>2019-10-14T14:34:56Z</time>
      </trkpt>
      <trkpt lat="45.82214" lon="4.24701">
        <ele>491.8</ele>
        <time>2019-10-14T14:35:03Z</time>
      </trkpt>
      <trkpt lat="45.82218" lon="4.24704">
        <ele>492</ele>
        <time>2019-10-14T14:35:08Z</time>
      </trkpt>
      <trkpt lat="45.82224" lon="4.24707">
        <ele>492.3</ele>
        <time>2019-10-14T14:35:14Z</time>
      </trkpt>
      <trkpt lat="45.82228" lon="4.24709">
        <ele>492.5</ele>
        <time>2019-10-14T14:35:18Z</time>
      </trkpt>
      <trkpt lat="45.82233" lon="4.24713">
        <ele>492.8</ele>
        <time>2019-10-14T14:35:23Z</time>
      </trkpt>
      <trkpt lat="45.82237" lon="4.24716">
        <ele>493</ele>
        <time>2019-10-14T14:35:27Z</time>
      </trkpt>
      <trkpt lat="45.82242" lon="4.24718">
        <ele>493.2</ele>
        <time>2019-10-14T14:35:32Z</time>
      </trkpt>
      <trkpt lat="45.82247" lon="4.24719">
        <ele>493.5</ele>
        <time>2019-10-14T14:35:38Z</time>
      </trkpt>
      <trkpt lat="45.82251" lon="4.24717">
        <ele>493.8</ele>
        <time>2019-10-14T14:35:44Z</time>
      </trkpt>
      <trkpt lat="45.82256" lon="4.24718">
        <ele>494</ele>
        <time>2019-10-14T14:35:49Z</time>
      </trkpt>
      <trkpt lat="45.82261" lon="4.24715">
        <ele>494.2</ele>
        <time>2019-10-14T14:35:53Z</time>
      </trkpt>
      <trkpt lat="45.82266" lon="4.24713">
        <ele>494.3</ele>
        <time>2019-10-14T14:35:57Z</time>
      </trkpt>
      <trkpt lat="45.82271" lon="4.24712">
        <ele>494.5</ele>
        <time>2019-10-14T14:36:01Z</time>
      </trkpt>
      <trkpt lat="45.82275" lon="4.24711">
        <ele>494.7</ele>
        <time>2019-10-14T14:36:06Z</time>
      </trkpt>
      <trkpt lat="45.8228" lon="4.2471">
        <ele>494.9</ele>
        <time>2019-10-14T14:36:12Z</time>
      </trkpt>
      <trkpt lat="45.82285" lon="4.24709">
        <ele>495.1</ele>
        <time>2019-10-14T14:36:17Z</time>
      </trkpt>
      <trkpt lat="45.8229" lon="4.2471">
        <ele>495.2</ele>
        <time>2019-10-14T14:36:21Z</time>
      </trkpt>
      <trkpt lat="45.82295" lon="4.24709">
        <ele>495.4</ele>
        <time>2019-10-14T14:36:25Z</time>
      </trkpt>
      <trkpt lat="45.82299" lon="4.24707">
        <ele>495.5</ele>
        <time>2019-10-14T14:36:29Z</time>
      </trkpt>
      <trkpt lat="45.82305" lon="4.24705">
        <ele>495.7</ele>
        <time>2019-10-14T14:36:34Z</time>
      </trkpt>
      <trkpt lat="45.82309" lon="4.24703">
        <ele>495.9</ele>
        <time>2019-10-14T14:36:38Z</time>
      </trkpt>
      <trkpt lat="45.82314" lon="4.247">
        <ele>496</ele>
        <time>2019-10-14T14:36:42Z</time>
      </trkpt>
      <trkpt lat="45.82319" lon="4.24699">
        <ele>496.2</ele>
        <time>2019-10-14T14:36:48Z</time>
      </trkpt>
      <trkpt lat="45.82323" lon="4.24696">
        <ele>496.4</ele>
        <time>2019-10-14T14:36:54Z</time>
      </trkpt>
      <trkpt lat="45.82328" lon="4.24692">
        <ele>496.5</ele>
        <time>2019-10-14T14:36:59Z</time>
      </trkpt>
      <trkpt lat="45.82332" lon="4.24689">
        <ele>496.7</ele>
        <time>2019-10-14T14:37:03Z</time>
      </trkpt>
      <trkpt lat="45.82337" lon="4.24687">
        <ele>496.8</ele>
        <time>2019-10-14T14:37:07Z</time>
      </trkpt>
      <trkpt lat="45.82341" lon="4.24684">
        <ele>496.9</ele>
        <time>2019-10-14T14:37:11Z</time>
      </trkpt>
      <trkpt lat="45.82346" lon="4.24682">
        <ele>497</ele>
        <time>2019-10-14T14:37:15Z</time>
      </trkpt>
      <trkpt lat="45.82351" lon="4.2468">
        <ele>497.2</ele>
        <time>2019-10-14T14:37:19Z</time>
      </trkpt>
      <trkpt lat="45.82356" lon="4.24678">
        <ele>497.3</ele>
        <time>2019-10-14T14:37:24Z</time>
      </trkpt>
      <trkpt lat="45.82361" lon="4.24677">
        <ele>497.4</ele>
        <time>2019-10-14T14:37:28Z</time>
      </trkpt>
      <trkpt lat="45.82366" lon="4.24676">
        <ele>497.6</ele>
        <time>2019-10-14T14:37:33Z</time>
      </trkpt>
      <trkpt lat="45.82371" lon="4.24675">
        <ele>497.7</ele>
        <time>2019-10-14T14:37:38Z</time>
      </trkpt>
      <trkpt lat="45.82376" lon="4.24673">
        <ele>497.9</ele>
        <time>2019-10-14T14:37:43Z</time>
      </trkpt>
      <trkpt lat="45.82382" lon="4.24671">
        <ele>498</ele>
        <time>2019-10-14T14:37:47Z</time>
      </trkpt>
      <trkpt lat="45.82387" lon="4.24669">
        <ele>498.1</ele>
        <time>2019-10-14T14:37:51Z</time>
      </trkpt>
      <trkpt lat="45.82392" lon="4.24667">
        <ele>498.2</ele>
        <time>2019-10-14T14:37:55Z</time>
      </trkpt>
      <trkpt lat="45.82397" lon="4.24666">
        <ele>498.4</ele>
        <time>2019-10-14T14:37:59Z</time>
      </trkpt>
      <trkpt lat="45.82402" lon="4.24666">
        <ele>498.5</ele>
        <time>2019-10-14T14:38:03Z</time>
      </trkpt>
      <trkpt lat="45.82407" lon="4.24666">
        <ele>498.6</ele>
        <time>2019-10-14T14:38:08Z</time>
      </trkpt>
      <trkpt lat="45.82412" lon="4.24668">
        <ele>498.8</ele>
        <time>2019-10-14T14:38:15Z</time>
      </trkpt>
      <trkpt lat="45.82416" lon="4.2467">
        <ele>499</ele>
        <time>2019-10-14T14:38:20Z</time>
      </trkpt>
      <trkpt lat="45.82419" lon="4.24676">
        <ele>499.2</ele>
        <time>2019-10-14T14:38:25Z</time>
      </trkpt>
      <trkpt lat="45.82423" lon="4.2468">
        <ele>499.4</ele>
        <time>2019-10-14T14:38:30Z</time>
      </trkpt>
      <trkpt lat="45.82428" lon="4.24683">
        <ele>499.7</ele>
        <time>2019-10-14T14:38:35Z</time>
      </trkpt>
      <trkpt lat="45.82432" lon="4.24687">
        <ele>499.9</ele>
        <time>2019-10-14T14:38:40Z</time>
      </trkpt>
      <trkpt lat="45.82436" lon="4.24691">
        <ele>500.3</ele>
        <time>2019-10-14T14:38:46Z</time>
      </trkpt>
      <trkpt lat="45.8244" lon="4.24689">
        <ele>501.1</ele>
        <time>2019-10-14T14:39:31Z</time>
      </trkpt>
    </trkseg>
  </trk>
</gpx>